Provisional Data: Driftwood Branch Sinnemahoning Creek


Please select a monitoring station.
Please select start date.
Please select start date.

Toggle Unit: C/F Toggle Unit: C/F
Sample Time Temperature (C) Temperature (F) Specific Conductivity (mS/cm) pH   Turbidity (NTU+) DO (mg/L)
6/22/2021 12:00:00 AM 18.91 66.038 0.066 6.86 19.05 8.5
6/22/2021 12:15:00 AM 18.81 65.858 0.067 6.89 20.21 8.52
6/22/2021 12:30:00 AM 18.73 65.714 0.067 6.87 16.53 8.53
6/22/2021 12:45:00 AM 18.65 65.57 0.068 6.9 19.84 8.55
6/22/2021 1:00:00 AM 18.57 65.426 0.068 6.87 20.5 8.56
6/22/2021 1:15:00 AM 18.49 65.282 0.067 6.91 21.01 8.57
6/22/2021 1:30:00 AM 18.4 65.12 0.067 6.91 17.92 8.59
6/22/2021 1:45:00 AM 18.32 64.976 0.067 6.9 19.97 8.61
6/22/2021 2:00:00 AM 18.24 64.832 0.067 6.91 18.88 8.62
6/22/2021 2:15:00 AM 18.16 64.688 0.067 6.89 16.28 8.64
6/22/2021 2:30:00 AM 18.09 64.562 0.067 6.91 15.63 8.65
6/22/2021 2:45:00 AM 18.02 64.436 0.066 6.93 15.01 8.67
6/22/2021 3:00:00 AM 17.95 64.31 0.066 6.91 13.56 8.68
6/22/2021 3:15:00 AM 17.89 64.202 0.066 6.92 13.58 8.7
6/22/2021 3:30:00 AM 17.83 64.094 0.065 6.92 12.64 8.71
6/22/2021 3:45:00 AM 17.76 63.968 0.065 6.94 12.07 8.72
6/22/2021 4:00:00 AM 17.7 63.86 0.065 6.94 11.71 8.73
6/22/2021 4:15:00 AM 17.63 63.734 0.065 6.91 11.28 8.75
6/22/2021 4:30:00 AM 17.56 63.608 0.065 6.94 11.26 8.76
6/22/2021 4:45:00 AM 17.5 63.5 0.065 6.91 11.3 8.77
6/22/2021 5:00:00 AM 17.43 63.374 0.065 6.95 10.94 8.78
6/22/2021 5:15:00 AM 17.37 63.266 0.065 6.94 10.35 8.8
6/22/2021 5:30:00 AM 17.3 63.14 0.065 6.95 10.08 8.81
6/22/2021 5:45:00 AM 17.24 63.032 0.065 6.92 9.13 8.83
6/22/2021 6:00:00 AM 17.17 62.906 0.065 6.96 8.92 8.84
6/22/2021 6:15:00 AM 17.11 62.798 0.065 6.96 8.47 8.86
6/22/2021 6:30:00 AM 17.04 62.672 0.065 6.96 8.33 8.88
6/22/2021 6:45:00 AM 16.98 62.564 0.065 6.96 7.77 8.92
6/22/2021 7:00:00 AM 16.91 62.438 0.065 6.97 7.16 8.95
6/22/2021 7:15:00 AM 16.85 62.33 0.065 6.97 6.88 8.98
6/22/2021 7:30:00 AM 16.8 62.24 0.065 6.99 6.09 9.02
6/22/2021 7:45:00 AM 16.75 62.15 0.065 7 5.8 9.07
6/22/2021 8:00:00 AM 16.7 62.06 0.065 7.01 5.7 9.13
6/22/2021 8:15:00 AM 16.66 61.988 0.065 7.03 5.39 9.19
6/22/2021 8:30:00 AM 16.63 61.934 0.066 7.04 4.84 9.26
6/22/2021 8:45:00 AM 16.59 61.862 0.066 7.06 4.89 9.32
6/22/2021 9:00:00 AM 16.57 61.826 0.065 7.07 4.41 9.36
6/22/2021 9:15:00 AM 16.56 61.808 0.065 7.09 4.43 9.44
6/22/2021 9:30:00 AM 16.55 61.79 0.065 7.12 4.2 9.51
6/22/2021 9:45:00 AM 16.59 61.862 0.065 7.15 4.19 9.59
6/22/2021 10:00:00 AM 16.62 61.916 0.065 7.17 4.15 9.66
6/22/2021 10:15:00 AM 16.62 61.916 0.065 7.19 3.88 9.69
6/22/2021 10:30:00 AM 16.6 61.88 0.065 7.16 4.01 9.69
6/22/2021 10:45:00 AM 16.56 61.808 0.066 7.18 3.57 9.68
6/22/2021 11:00:00 AM 16.55 61.79 0.065 7.2 3.28 9.69
6/22/2021 11:15:00 AM 16.58 61.844 0.065 7.22 3.47 9.75
6/22/2021 11:30:00 AM 16.6 61.88 0.065 7.25 3.31 9.8
6/22/2021 11:45:00 AM 16.62 61.916 0.065 7.27 3.03 9.82
6/22/2021 12:00:00 PM 16.61 61.898 0.065 7.28 3.16 9.84
6/22/2021 12:15:00 PM 16.59 61.862 0.065 7.28 3.07 9.85
6/22/2021 12:30:00 PM 16.58 61.844 0.065 7.3 2.8 9.87
6/22/2021 12:45:00 PM 16.62 61.916 0.065 7.33 2.78 9.9
6/22/2021 1:00:00 PM 16.65 61.97 0.065 7.34 2.88 9.94
6/22/2021 1:15:00 PM 16.66 61.988 0.065 7.35 2.77 9.94
6/22/2021 1:30:00 PM 16.66 61.988 0.065 7.36 2.57 9.93
6/22/2021 1:45:00 PM 16.67 62.006 0.066 7.37 2.49 9.93
6/22/2021 2:00:00 PM 16.7 62.06 0.065 7.37 2.6 9.95
6/22/2021 2:15:00 PM 16.75 62.15 0.065 7.41 2.42 9.98
6/22/2021 2:30:00 PM 16.86 62.348 0.065 7.45 2.48 10.01
6/22/2021 2:45:00 PM 16.96 62.528 0.065 7.46 2.47 10.02
6/22/2021 3:00:00 PM 17.1 62.78 0.065 7.45 2.23 10.02
6/22/2021 3:15:00 PM 17.38 63.284 0.066 7.51 2.29 10.02
6/22/2021 3:30:00 PM 17.38 63.284 0.065 7.49 2.44 9.97
6/22/2021 3:45:00 PM 17.4 63.32 0.065 7.47 2.1 9.94
6/22/2021 4:00:00 PM 17.65 63.77 0.065 7.46 2.12 9.91
6/22/2021 4:15:00 PM 17.54 63.572 0.065 7.47 3.71 9.88
6/22/2021 4:30:00 PM 17.73 63.914 0.065 7.47 1.95 9.87
6/22/2021 4:45:00 PM 17.66 63.788 0.066 7.45 2.11 9.82
6/22/2021 5:00:00 PM 17.62 63.716 0.065 7.42 2.09 9.79
6/22/2021 5:15:00 PM 17.59 63.662 0.066 7.41 1.91 9.73
6/22/2021 5:30:00 PM 17.51 63.518 0.066 7.38 9.6 9.67
6/22/2021 5:45:00 PM 17.46 63.428 0.066 7.36 6.8 9.65
6/22/2021 6:00:00 PM 17.45 63.41 0.066 7.35 2.04 9.64
6/22/2021 6:15:00 PM 17.46 63.428 0.066 7.36 2.95 9.62
6/22/2021 6:30:00 PM 17.5 63.5 0.066 7.36 1.73 9.6
6/22/2021 6:45:00 PM 17.52 63.536 0.066 7.33 1.87 9.55
6/22/2021 7:00:00 PM 17.46 63.428 0.066 7.3 1.72 9.46
6/22/2021 7:15:00 PM 17.39 63.302 0.066 7.24 1.75 9.4
6/22/2021 7:30:00 PM 17.31 63.158 0.066 7.21 1.8 9.37
6/22/2021 7:45:00 PM 17.22 62.996 0.066 7.2 2.01 9.34
6/22/2021 8:00:00 PM 17.12 62.816 0.067 7.16 1.99 9.3
6/22/2021 8:15:00 PM 16.99 62.582 0.067 7.14 1.83 9.24
6/22/2021 8:30:00 PM 16.85 62.33 0.067 7.1 1.86 9.2
6/22/2021 8:45:00 PM 16.71 62.078 0.067 7.07 1.78 9.17
6/22/2021 9:00:00 PM 16.58 61.844 0.067 7.07 4.03 9.14
6/22/2021 9:15:00 PM 16.45 61.61 0.067 7.01 1.78 9.12
6/22/2021 9:30:00 PM 16.32 61.376 0.067 7.02 1.93 9.11
6/22/2021 9:45:00 PM 16.2 61.16 0.067 7.01 1.92 9.11
6/22/2021 10:00:00 PM 16.07 60.926 0.067 6.99 2.32 9.12
6/22/2021 10:15:00 PM 15.94 60.692 0.068 6.97 2.21 9.13
6/22/2021 10:30:00 PM 15.81 60.458 0.068 6.98 2.76 9.15
6/22/2021 10:45:00 PM 15.68 60.224 0.068 6.96 2.12 9.18
6/22/2021 11:00:00 PM 15.55 59.99 0.068 6.96 2.15 9.2
6/22/2021 11:15:00 PM 15.42 59.756 0.068 6.96 2.04 9.23
6/22/2021 11:30:00 PM 15.29 59.522 0.068 6.94 2.27 9.25
6/22/2021 11:45:00 PM 15.17 59.306 0.068 6.95 2.09 9.29
6/23/2021 12:00:00 AM 15.04 59.072 0.068 6.93 2.01 9.31
6/23/2021 12:15:00 AM 14.93 58.874 0.068 6.93 2.04 9.34
6/23/2021 12:30:00 AM 14.81 58.658 0.068 6.92 2.22 9.37
6/23/2021 12:45:00 AM 14.7 58.46 0.068 6.94 2.2 9.39
6/23/2021 1:00:00 AM 14.59 58.262 0.068 6.92 2.01 9.42
6/23/2021 1:15:00 AM 14.48 58.064 0.068 6.94 1.96 9.45
6/23/2021 1:30:00 AM 14.38 57.884 0.068 6.92 1.89 9.47
6/23/2021 1:45:00 AM 14.3 57.74 0.068 6.94 1.78 9.49
6/23/2021 2:00:00 AM 14.23 57.614 0.068 6.94 1.85 9.51
6/23/2021 2:15:00 AM 14.16 57.488 0.069 6.95 1.79 9.53
6/23/2021 2:30:00 AM 14.09 57.362 0.068 6.94 1.66 9.55
6/23/2021 2:45:00 AM 14.05 57.29 0.069 6.95 1.7 9.56
6/23/2021 3:00:00 AM 13.97 57.146 0.068 6.95 1.78 9.58
6/23/2021 3:15:00 AM 13.9 57.02 0.068 6.92 1.78 9.61
6/23/2021 3:30:00 AM 13.82 56.876 0.069 6.95 1.6 9.63
6/23/2021 3:45:00 AM 13.74 56.732 0.069 6.94 1.66 9.65
6/23/2021 4:00:00 AM 13.66 56.588 0.069 6.96 1.98 9.67
6/23/2021 4:15:00 AM 13.59 56.462 0.069 6.93 1.76 9.7
6/23/2021 4:30:00 AM 13.51 56.318 0.069 6.94 1.6 9.71
6/23/2021 4:45:00 AM 13.44 56.192 0.069 6.96 1.67 9.74
6/23/2021 5:00:00 AM 13.37 56.066 0.069 6.96 1.58 9.75
6/23/2021 5:15:00 AM 13.3 55.94 0.07 6.95 1.75 9.77
6/23/2021 5:30:00 AM 13.24 55.832 0.07 6.95 1.68 9.79
6/23/2021 5:45:00 AM 13.17 55.706 0.07 6.96 1.51 9.82
6/23/2021 6:00:00 AM 13.11 55.598 0.07 6.96 1.62 9.85
6/23/2021 6:15:00 AM 13.05 55.49 0.069 6.96 1.38 9.89
6/23/2021 6:30:00 AM 13 55.4 0.069 6.97 1.56 9.93
6/23/2021 6:45:00 AM 12.96 55.328 0.069 6.96 1.39 9.98
6/23/2021 7:00:00 AM 12.92 55.256 0.069 6.99 1.49 10.04
6/23/2021 7:15:00 AM 12.88 55.184 0.069 7 1.27 10.11
6/23/2021 7:30:00 AM 12.86 55.148 0.069 7.03 1.25 10.18
6/23/2021 7:45:00 AM 12.86 55.148 0.069 7.04 1.25 10.29
6/23/2021 8:00:00 AM 12.88 55.184 0.069 7.07 1.19 10.4
6/23/2021 8:15:00 AM 12.9 55.22 0.069 7.1 1.22 10.49
6/23/2021 8:30:00 AM 13.04 55.472 0.069 7.14 1.17 10.55
6/23/2021 8:45:00 AM 13.09 55.562 0.069 7.15 1.21 10.56
6/23/2021 9:00:00 AM 13.19 55.742 0.069 7.16 1.13 10.56
6/23/2021 9:15:00 AM 13.31 55.958 0.069 7.19 1.06 10.57
6/23/2021 9:30:00 AM 13.44 56.192 0.068 7.2 1.28 10.58
6/23/2021 9:45:00 AM 13.6 56.48 0.069 7.19 1.24 10.6
6/23/2021 10:00:00 AM 13.8 56.84 0.069 7.24 1.13 10.61
6/23/2021 10:15:00 AM 14 57.2 0.069 7.24 1.04 10.63
6/23/2021 10:30:00 AM 14.24 57.632 0.068 7.26 1.08 10.65
6/23/2021 10:45:00 AM 14.43 57.974 0.068 7.3 1.07 10.64
6/23/2021 11:00:00 AM 14.47 58.046 0.068 7.25 0.98 10.64
6/23/2021 11:15:00 AM 14.75 58.55 0.068 7.33 0.93 10.63
6/23/2021 11:30:00 AM 14.88 58.784 0.068 7.33 0.96 10.63
6/23/2021 11:45:00 AM 15.16 59.288 0.068 7.34 0.95 10.61
6/23/2021 12:00:00 PM 15.48 59.864 0.068 7.39 0.97 10.58
6/23/2021 12:15:00 PM 15.72 60.296 0.068 7.39 0.87 10.54
6/23/2021 12:30:00 PM 16.06 60.908 0.068 7.41 0.81 10.5
6/23/2021 12:45:00 PM 16.43 61.574 0.068 7.41 0.93 10.47
6/23/2021 1:00:00 PM 16.76 62.168 0.068 7.45 1.01 10.42
6/23/2021 1:15:00 PM 17.14 62.852 0.068 7.47 0.91 10.36
6/23/2021 1:30:00 PM 17.55 63.59 0.068 7.49 0.89 10.31
6/23/2021 1:45:00 PM 17.91 64.238 0.068 7.49 0.78 10.26
6/23/2021 2:00:00 PM 18.19 64.742 0.068 7.49 0.9 10.22
6/23/2021 2:15:00 PM 18.33 64.994 0.068 7.49 0.95 10.15
6/23/2021 2:30:00 PM 18.64 65.552 0.068 7.52 0.91 10.1
6/23/2021 2:45:00 PM 18.77 65.786 0.067 7.5 0.9 10.03
6/23/2021 3:00:00 PM 18.94 66.092 0.067 7.5 1.05 9.99
6/23/2021 3:15:00 PM 19.18 66.524 0.067 7.51 0.88 9.94
6/23/2021 3:30:00 PM 19.31 66.758 0.067 7.48 0.79 9.88
6/23/2021 3:45:00 PM 19.41 66.938 0.068 7.5 0.88 9.81
6/23/2021 4:00:00 PM 19.55 67.19 0.068 7.48 0.82 9.78
6/23/2021 4:15:00 PM 19.42 66.956 0.067 7.47 0.87 9.71
6/23/2021 4:30:00 PM 19.25 66.65 0.067 7.39 0.88 9.65
6/23/2021 4:45:00 PM 19.31 66.758 0.067 7.39 0.79 9.58
6/23/2021 5:00:00 PM 19.29 66.722 0.067 7.37 0.87 9.56
6/23/2021 5:15:00 PM 19.32 66.776 0.067 7.38 0.82 9.55
6/23/2021 5:30:00 PM 19.26 66.668 0.067 7.34 0.91 9.5
6/23/2021 5:45:00 PM 19.24 66.632 0.068 7.34 0.83 9.44
6/23/2021 6:00:00 PM 19.17 66.506 0.068 7.3 0.77 9.37
6/23/2021 6:15:00 PM 19.15 66.47 0.068 7.29 0.77 9.31
6/23/2021 6:30:00 PM 19.1 66.38 0.068 7.25 1.08 9.26
6/23/2021 6:45:00 PM 19.05 66.29 0.068 7.23 0.74 9.19
6/23/2021 7:00:00 PM 18.97 66.146 0.068 7.2 0.75 9.12
6/23/2021 7:15:00 PM 18.9 66.02 0.068 7.17 0.78 9.07
6/23/2021 7:30:00 PM 18.8 65.84 0.068 7.15 0.92 9.01
6/23/2021 7:45:00 PM 18.7 65.66 0.068 7.12 0.89 8.98
6/23/2021 8:00:00 PM 18.59 65.462 0.068 7.1 0.78 8.95
6/23/2021 8:15:00 PM 18.47 65.246 0.068 7.08 1.02 8.91
6/23/2021 8:30:00 PM 18.35 65.03 0.069 7.05 0.88 8.87
6/23/2021 8:45:00 PM 18.23 64.814 0.069 7.03 0.97 8.84
6/23/2021 9:00:00 PM 18.11 64.598 0.069 7.02 1.04 8.81
6/23/2021 9:15:00 PM 18 64.4 0.069 7 0.89 8.78
6/23/2021 9:30:00 PM 17.88 64.184 0.069 7 1.02 8.76
6/23/2021 9:45:00 PM 17.77 63.986 0.069 7.01 1.23 8.75
6/23/2021 10:00:00 PM 17.66 63.788 0.069 6.95 1.18 8.76
6/23/2021 10:15:00 PM 17.55 63.59 0.069 6.94 1.38 8.77
6/23/2021 10:30:00 PM 17.44 63.392 0.069 6.94 1.31 8.78
6/23/2021 10:45:00 PM 17.32 63.176 0.069 6.94 1.43 8.8
6/23/2021 11:00:00 PM 17.2 62.96 0.069 6.94 1.52 8.82
6/23/2021 11:15:00 PM 17.08 62.744 0.069 6.93 1.41 8.84
6/23/2021 11:30:00 PM 16.96 62.528 0.069 6.92 1.5 8.87
6/23/2021 11:45:00 PM 16.84 62.312 0.069 6.92 1.31 8.89
6/24/2021 12:00:00 AM 16.72 62.096 0.069 6.91 1.29 8.92
6/24/2021 12:15:00 AM 16.59 61.862 0.07 6.92 1.38 8.95
6/24/2021 12:30:00 AM 16.48 61.664 0.07 6.89 1.4 8.97
6/24/2021 12:45:00 AM 16.36 61.448 0.07 6.93 1.43 9
6/24/2021 1:00:00 AM 16.24 61.232 0.07 6.93 1.79 9.02
6/24/2021 1:15:00 AM 16.13 61.034 0.069 6.92 1.37 9.05
6/24/2021 1:30:00 AM 16.02 60.836 0.07 6.91 1.29 9.08
6/24/2021 1:45:00 AM 15.91 60.638 0.07 6.91 1.34 9.1
6/24/2021 2:00:00 AM 15.8 60.44 0.07 6.91 1.15 9.13
6/24/2021 2:15:00 AM 15.69 60.242 0.07 6.93 1.42 9.16
6/24/2021 2:30:00 AM 15.59 60.062 0.07 6.93 1.16 9.19
6/24/2021 2:45:00 AM 15.48 59.864 0.07 6.93 1.2 9.21
6/24/2021 3:00:00 AM 15.38 59.684 0.07 6.92 1.19 9.24
6/24/2021 3:15:00 AM 15.28 59.504 0.07 6.92 1.22 9.27
6/24/2021 3:30:00 AM 15.18 59.324 0.07 6.91 1.28 9.3
6/24/2021 3:45:00 AM 15.08 59.144 0.07 6.94 1.31 9.31
6/24/2021 4:00:00 AM 14.99 58.982 0.07 6.94 1.13 9.33
6/24/2021 4:15:00 AM 14.88 58.784 0.07 6.97 1.25 9.36
6/24/2021 4:30:00 AM 14.8 58.64 0.07 6.98 1.12 9.38
6/24/2021 4:45:00 AM 14.71 58.478 0.07 7.02 1.15 9.41
6/24/2021 5:00:00 AM 14.63 58.334 0.07 6.98 1.23 9.43
6/24/2021 5:15:00 AM 14.55 58.19 0.07 7 1.14 9.46
6/24/2021 5:30:00 AM 14.49 58.082 0.07 6.98 1.3 9.48
6/24/2021 5:45:00 AM 14.41 57.938 0.07 6.93 1.15 9.51
6/24/2021 6:00:00 AM 14.34 57.812 0.07 6.93 1.06 9.55
6/24/2021 6:15:00 AM 14.27 57.686 0.07 6.94 1.06 9.6
6/24/2021 6:30:00 AM 14.21 57.578 0.07 6.95 1 9.65
6/24/2021 6:45:00 AM 14.14 57.452 0.07 6.97 1.45 9.72
6/24/2021 7:00:00 AM 14.09 57.362 0.07 6.98 0.98 9.79
6/24/2021 7:15:00 AM 14.05 57.29 0.07 7 0.92 9.87
6/24/2021 7:30:00 AM 14.03 57.254 0.07 7.02 0.95 9.99
6/24/2021 7:45:00 AM 14.02 57.236 0.07 7.03 0.91 10.08
6/24/2021 8:00:00 AM 14.05 57.29 0.07 7.06 0.86 10.18
6/24/2021 8:15:00 AM 14.13 57.434 0.07 7.1 0.9 10.27
6/24/2021 8:30:00 AM 14.25 57.65 0.07 7.14 0.84 10.31
6/24/2021 8:45:00 AM 14.33 57.794 0.07 7.14 0.88 10.31
6/24/2021 9:00:00 AM 14.45 58.01 0.07 7.18 0.76 10.33
6/24/2021 9:15:00 AM 14.58 58.244 0.07 7.18 0.77 10.36
6/24/2021 9:30:00 AM 14.74 58.532 0.07 7.21 0.76 10.38
6/24/2021 9:45:00 AM 14.92 58.856 0.07 7.24 0.79 10.4
6/24/2021 10:00:00 AM 15.15 59.27 0.07 7.23 0.73 10.41
6/24/2021 10:15:00 AM 15.39 59.702 0.07 7.27 0.81 10.43
6/24/2021 10:30:00 AM 15.65 60.17 0.07 7.31 0.81 10.43
6/24/2021 10:45:00 AM 15.93 60.674 0.07 7.3 0.86 10.42
6/24/2021 11:00:00 AM 16.23 61.214 0.07 7.33 0.71 10.42
6/24/2021 11:15:00 AM 16.52 61.736 0.07 7.38 0.76 10.4
6/24/2021 11:30:00 AM 16.81 62.258 0.07 7.4 0.69 10.4
6/24/2021 11:45:00 AM 17.15 62.87 0.07 7.42 0.84 10.38
6/24/2021 12:00:00 PM 17.44 63.392 0.069 7.45 0.71 10.36
6/24/2021 12:15:00 PM 17.77 63.986 0.069 7.47 1.15 10.33
6/24/2021 12:30:00 PM 18.08 64.544 0.069 7.48 0.61 10.3
6/24/2021 12:45:00 PM 18.38 65.084 0.069 7.52 0.8 10.26
6/24/2021 1:00:00 PM 18.73 65.714 0.069 7.54 0.66 10.22
6/24/2021 1:15:00 PM 19.05 66.29 0.069 7.56 0.76 10.17
6/24/2021 1:30:00 PM 19.34 66.812 0.069 7.57 0.68 10.12
6/24/2021 1:45:00 PM 19.7 67.46 0.069 7.59 0.62 10.07
6/24/2021 2:00:00 PM 20.05 68.09 0.069 7.59 0.6 10.01
6/24/2021 2:15:00 PM 20.31 68.558 0.069 7.63 0.63 9.94
6/24/2021 2:30:00 PM 20.57 69.026 0.069 7.62 0.59 9.88
6/24/2021 2:45:00 PM 20.82 69.476 0.069 7.62 0.61 9.82
6/24/2021 3:00:00 PM 21.01 69.818 0.069 7.6 0.63 9.76
6/24/2021 3:15:00 PM 21.18 70.124 0.069 7.63 0.72 9.7
6/24/2021 3:30:00 PM 21.29 70.32201 0.069 7.62 0.55 9.64
6/24/2021 3:45:00 PM 21.36 70.448 0.069 7.58 0.63 9.58
6/24/2021 4:00:00 PM 21.43 70.574 0.069 7.58 0.69 9.52
6/24/2021 4:15:00 PM 21.39 70.502 0.069 7.52 0.98 9.46
6/24/2021 4:30:00 PM 21.42 70.556 0.069 7.49 0.65 9.41
6/24/2021 4:45:00 PM 21.38 70.484 0.069 7.5 0.58 9.35
6/24/2021 5:00:00 PM 21.29 70.32201 0.069 7.47 0.58 9.3
6/24/2021 5:15:00 PM 21.21 70.17799 0.069 7.45 0.64 9.24
6/24/2021 5:30:00 PM 21.1 69.98 0.069 7.42 0.57 9.2
6/24/2021 5:45:00 PM 20.99 69.782 0.069 7.36 0.69 9.16
6/24/2021 6:00:00 PM 20.86 69.548 0.069 7.35 0.81 9.12
6/24/2021 6:15:00 PM 20.76 69.368 0.069 7.3 0.73 9.06
6/24/2021 6:30:00 PM 20.69 69.242 0.069 7.3 0.61 9.04
6/24/2021 6:45:00 PM 20.6 69.08 0.069 7.28 0.61 9.02
6/24/2021 7:00:00 PM 20.51 68.918 0.069 7.23 0.62 8.98
6/24/2021 7:15:00 PM 20.44 68.792 0.069 7.24 0.73 8.93
6/24/2021 7:30:00 PM 20.35 68.63 0.069 7.2 0.64 8.87
6/24/2021 7:45:00 PM 20.24 68.432 0.069 7.13 0.66 8.81
6/24/2021 8:00:00 PM 20.14 68.252 0.069 7.14 0.69 8.74
6/24/2021 8:15:00 PM 20.04 68.07201 0.07 7.1 0.73 8.66
6/24/2021 8:30:00 PM 19.92 67.856 0.07 7.06 0.71 8.59
6/24/2021 8:45:00 PM 19.82 67.676 0.07 7.05 0.67 8.52
6/24/2021 9:00:00 PM 19.71 67.478 0.07 7.02 0.71 8.47
6/24/2021 9:15:00 PM 19.6 67.28 0.07 7 0.85 8.42
6/24/2021 9:30:00 PM 19.49 67.082 0.07 6.99 0.83 8.38
6/24/2021 9:45:00 PM 19.38 66.884 0.07 6.97 0.83 8.36
6/24/2021 10:00:00 PM 19.27 66.686 0.07 6.96 1.02 8.36
6/24/2021 10:15:00 PM 19.17 66.506 0.071 6.96 1.01 8.36
6/24/2021 10:30:00 PM 19.06 66.308 0.071 6.94 1.12 8.36
6/24/2021 10:45:00 PM 18.95 66.11 0.071 6.94 1 8.37
6/24/2021 11:00:00 PM 18.84 65.912 0.071 6.88 1.05 8.39
6/24/2021 11:15:00 PM 18.72 65.696 0.071 6.93 1.1 8.4
6/24/2021 11:30:00 PM 18.61 65.498 0.071 6.92 1.14 8.42
6/24/2021 11:45:00 PM 18.48 65.264 0.071 6.9 1.12 8.45
6/25/2021 12:00:00 AM 18.36 65.048 0.071 6.88 0.99 8.47
6/25/2021 12:15:00 AM 18.24 64.832 0.071 6.91 1.08 8.49
6/25/2021 12:30:00 AM 18.12 64.616 0.071 6.91 0.91 8.52
6/25/2021 12:45:00 AM 18 64.4 0.071 6.88 1.01 8.54
6/25/2021 1:00:00 AM 17.88 64.184 0.071 6.91 1.02 8.57
6/25/2021 1:15:00 AM 17.77 63.986 0.071 6.9 1.03 8.6
6/25/2021 1:30:00 AM 17.65 63.77 0.071 6.9 1.07 8.62
6/25/2021 1:45:00 AM 17.53 63.554 0.071 6.9 1.29 8.65
6/25/2021 2:00:00 AM 17.43 63.374 0.071 6.91 1.01 8.68
6/25/2021 2:15:00 AM 17.31 63.158 0.072 6.91 1.02 8.7
6/25/2021 2:30:00 AM 17.2 62.96 0.072 6.9 1.06 8.72
6/25/2021 2:45:00 AM 17.09 62.762 0.072 6.9 1.16 8.75
6/25/2021 3:00:00 AM 16.99 62.582 0.072 6.9 1.35 8.78
6/25/2021 3:15:00 AM 16.89 62.402 0.072 6.9 0.97 8.8
6/25/2021 3:30:00 AM 16.8 62.24 0.072 6.91 0.89 8.83
6/25/2021 3:45:00 AM 16.7 62.06 0.072 6.91 0.96 8.85
6/25/2021 4:00:00 AM 16.6 61.88 0.072 6.91 1.05 8.88
6/25/2021 4:15:00 AM 16.5 61.7 0.072 6.91 1.01 8.91
6/25/2021 4:30:00 AM 16.4 61.52 0.072 6.9 1.07 8.94
6/25/2021 4:45:00 AM 16.3 61.34 0.072 6.9 1.06 8.96
6/25/2021 5:00:00 AM 16.21 61.178 0.072 6.9 1.08 8.98
6/25/2021 5:15:00 AM 16.11 60.998 0.072 6.92 0.94 9.01
6/25/2021 5:30:00 AM 16.02 60.836 0.072 6.94 5.69 9.03
6/25/2021 5:45:00 AM 15.93 60.674 0.072 6.91 0.96 9.08
6/25/2021 6:00:00 AM 15.84 60.512 0.072 6.91 1.02 9.12
6/25/2021 6:15:00 AM 15.76 60.368 0.072 6.93 0.93 9.17
6/25/2021 6:30:00 AM 15.69 60.242 0.072 6.92 0.92 9.24
6/25/2021 6:45:00 AM 15.63 60.134 0.072 6.95 0.87 9.32
6/25/2021 7:00:00 AM 15.57 60.026 0.072 6.96 0.86 9.4
6/25/2021 7:15:00 AM 15.54 59.972 0.072 7 0.84 9.49
6/25/2021 7:30:00 AM 15.51 59.918 0.072 7 0.82 9.59
6/25/2021 7:45:00 AM 15.52 59.936 0.072 7 0.83 9.69
6/25/2021 8:00:00 AM 15.53 59.954 0.072 7.05 0.83 9.77
6/25/2021 8:15:00 AM 15.57 60.026 0.072 7.1 0.77 9.85
6/25/2021 8:30:00 AM 15.67 60.206 0.072 7.14 0.71 9.92
6/25/2021 8:45:00 AM 15.78 60.404 0.071 7.16 0.83 9.98
6/25/2021 9:00:00 AM 15.94 60.692 0.071 7.18 0.73 10.03
6/25/2021 9:15:00 AM 16.11 60.998 0.071 7.22 0.66 10.08
6/25/2021 9:30:00 AM 16.31 61.358 0.071 7.26 0.68 10.12
6/25/2021 9:45:00 AM 16.51 61.718 0.071 7.29 0.75 10.16
6/25/2021 10:00:00 AM 16.73 62.114 0.071 7.31 0.73 10.19
6/25/2021 10:15:00 AM 16.95 62.51 0.071 7.35 0.78 10.23
6/25/2021 10:30:00 AM 17.21 62.978 0.071 7.39 0.62 10.25
6/25/2021 10:45:00 AM 17.46 63.428 0.071 7.42 0.73 10.27
6/25/2021 11:00:00 AM 17.74 63.932 0.071 7.45 0.65 10.27
6/25/2021 11:15:00 AM 18 64.4 0.071 7.5 0.69 10.26
6/25/2021 11:30:00 AM 18.24 64.832 0.07 7.54 0.72 10.27
6/25/2021 11:45:00 AM 18.51 65.318 0.07 7.55 0.65 10.27
6/25/2021 12:00:00 PM 18.82 65.876 0.07 7.61 0.71 10.26
6/25/2021 12:15:00 PM 19.15 66.47 0.07 7.66 0.72 10.25
6/25/2021 12:30:00 PM 19.36 66.848 0.07 7.66 0.74 10.22
6/25/2021 12:45:00 PM 19.57 67.226 0.07 7.7 0.56 10.18
6/25/2021 1:00:00 PM 19.89 67.802 0.07 7.73 0.6 10.16
6/25/2021 1:15:00 PM 20.28 68.504 0.07 7.77 0.57 10.09
6/25/2021 1:30:00 PM 20.72 69.296 0.07 7.75 0.55 10.03
6/25/2021 1:45:00 PM 21.05 69.89 0.07 7.8 0.58 9.97
6/25/2021 2:00:00 PM 21.25 70.25 0.07 7.82 0.61 9.9
6/25/2021 2:15:00 PM 21.52 70.736 0.069 7.83 0.68 9.84
6/25/2021 2:30:00 PM 21.87 71.366 0.069 7.78 0.55 9.77
6/25/2021 2:45:00 PM 22.16 71.888 0.069 7.8 0.64 9.69
6/25/2021 3:00:00 PM 22.35 72.23 0.069 7.82 0.62 9.63
6/25/2021 3:15:00 PM 22.5 72.5 0.069 7.82 0.64 9.58
6/25/2021 3:30:00 PM 22.56 72.608 0.069 7.78 0.54 9.54
6/25/2021 3:45:00 PM 22.58 72.644 0.069 7.81 0.58 9.5
6/25/2021 4:00:00 PM 22.42 72.356 0.07 7.76 0.54 9.44
6/25/2021 4:15:00 PM 22.26 72.068 0.069 7.72 0.69 9.42
6/25/2021 4:30:00 PM 22.37 72.266 0.069 7.74 0.68 9.39
6/25/2021 4:45:00 PM 22.24 72.032 0.069 7.71 0.82 9.35
6/25/2021 5:00:00 PM 22.12 71.816 0.069 7.69 0.64 9.32
6/25/2021 5:15:00 PM 22.13 71.834 0.069 7.66 0.7 9.3
6/25/2021 5:30:00 PM 22.11 71.798 0.069 7.65 0.59 9.25
6/25/2021 5:45:00 PM 22.03 71.654 0.069 7.63 0.62 9.21
6/25/2021 6:00:00 PM 21.93 71.474 0.069 7.57 0.66 9.14
6/25/2021 6:15:00 PM 21.85 71.33 0.069 7.48 0.61 9.05
6/25/2021 6:30:00 PM 21.77 71.186 0.069 7.45 0.67 8.99
6/25/2021 6:45:00 PM 21.7 71.06 0.07 7.4 0.67 8.93
6/25/2021 7:00:00 PM 21.65 70.97 0.07 7.38 0.71 8.91
6/25/2021 7:15:00 PM 21.57 70.826 0.07 7.35 0.79 8.87
6/25/2021 7:30:00 PM 21.44 70.592 0.07 7.3 0.72 8.77
6/25/2021 7:45:00 PM 21.33 70.394 0.07 7.22 0.69 8.67
6/25/2021 8:00:00 PM 21.2 70.16 0.07 7.19 0.76 8.58
6/25/2021 8:15:00 PM 21.09 69.962 0.07 7.15 0.68 8.5
6/25/2021 8:30:00 PM 20.97 69.746 0.07 7.1 0.74 8.41
6/25/2021 8:45:00 PM 20.85 69.53 0.071 7.08 0.82 8.32
6/25/2021 9:00:00 PM 20.74 69.332 0.071 7.05 0.79 8.23
6/25/2021 9:15:00 PM 20.63 69.134 0.071 7.03 0.75 8.17
6/25/2021 9:30:00 PM 20.54 68.972 0.071 7 1.08 8.13
6/25/2021 9:45:00 PM 20.44 68.792 0.071 6.98 1.06 8.09
6/25/2021 10:00:00 PM 20.36 68.648 0.071 6.99 0.94 8.08
6/25/2021 10:15:00 PM 20.3 68.54 0.071 6.98 1.04 8.06
6/25/2021 10:30:00 PM 20.22 68.396 0.072 6.98 1.14 8.05
6/25/2021 10:45:00 PM 20.16 68.288 0.072 6.94 1.18 8.05
6/25/2021 11:00:00 PM 20.1 68.18 0.072 6.96 1.23 8.05
6/25/2021 11:15:00 PM 20.04 68.07201 0.072 6.96 1.05 8.05
6/25/2021 11:30:00 PM 19.99 67.982 0.072 6.95 1.11 8.05
6/25/2021 11:45:00 PM 19.93 67.874 0.072 6.92 1.04 8.06
6/26/2021 12:00:00 AM 19.87 67.766 0.072 6.94 1.13 8.07
6/26/2021 12:15:00 AM 19.81 67.658 0.072 6.94 0.98 8.09
6/26/2021 12:30:00 AM 19.75 67.55 0.072 6.9 1.03 8.1
6/26/2021 12:45:00 AM 19.69 67.442 0.072 6.94 1.12 8.11
6/26/2021 1:00:00 AM 19.63 67.334 0.072 6.94 1.03 8.12
6/26/2021 1:15:00 AM 19.58 67.244 0.072 6.95 0.96 8.14
6/26/2021 1:30:00 AM 19.52 67.136 0.072 6.94 1.12 8.15
6/26/2021 1:45:00 AM 19.45 67.01 0.073 6.95 0.99 8.16
6/26/2021 2:00:00 AM 19.38 66.884 0.072 6.93 0.99 8.17
6/26/2021 2:15:00 AM 19.3 66.74 0.073 6.94 1.1 8.19
6/26/2021 2:30:00 AM 19.22 66.596 0.073 6.94 1.1 8.21
6/26/2021 2:45:00 AM 19.13 66.434 0.073 6.94 0.98 8.22
6/26/2021 3:00:00 AM 19.06 66.308 0.073 6.94 1.13 8.24
6/26/2021 3:15:00 AM 18.98 66.164 0.073 6.91 1.41 8.26
6/26/2021 3:30:00 AM 18.9 66.02 0.073 6.92 1.19 8.28
6/26/2021 3:45:00 AM 18.82 65.876 0.073 6.94 0.97 8.29
6/26/2021 4:00:00 AM 18.75 65.75 0.073 6.89 1.01 8.31
6/26/2021 4:15:00 AM 18.7 65.66 0.073 6.95 0.97 8.32
6/26/2021 4:30:00 AM 18.63 65.534 0.073 6.91 1.09 8.35
6/26/2021 4:45:00 AM 18.57 65.426 0.073 6.93 1.05 8.36
6/26/2021 5:00:00 AM 18.51 65.318 0.073 6.93 1.07 8.38
6/26/2021 5:15:00 AM 18.46 65.228 0.073 6.94 1.06 8.39
6/26/2021 5:30:00 AM 18.41 65.138 0.074 6.95 1.15 8.41
6/26/2021 5:45:00 AM 18.36 65.048 0.075 6.95 1.01 8.43
6/26/2021 6:00:00 AM 18.31 64.958 0.075 6.96 0.96 8.46
6/26/2021 6:15:00 AM 18.26 64.868 0.075 6.96 0.97 8.49
6/26/2021 6:30:00 AM 18.22 64.796 0.074 6.96 0.98 8.53
6/26/2021 6:45:00 AM 18.2 64.76 0.073 6.98 1 8.61
6/26/2021 7:00:00 AM 18.16 64.688 0.073 6.98 0.92 8.69
6/26/2021 7:15:00 AM 18.15 64.67 0.073 7.01 0.86 8.79
6/26/2021 7:30:00 AM 18.16 64.688 0.073 7.02 0.91 8.9
6/26/2021 7:45:00 AM 18.2 64.76 0.073 7.07 0.86 9.06
6/26/2021 8:00:00 AM 18.31 64.958 0.073 7.11 0.89 9.22
6/26/2021 8:15:00 AM 18.38 65.084 0.072 7.16 0.88 9.32
6/26/2021 8:30:00 AM 18.44 65.192 0.072 7.18 1.37 9.39
6/26/2021 8:45:00 AM 18.47 65.246 0.072 7.19 0.74 9.44
6/26/2021 9:00:00 AM 18.63 65.534 0.072 7.24 0.87 9.56
6/26/2021 9:15:00 AM 18.89 66.002 0.072 7.3 0.75 9.65
6/26/2021 9:30:00 AM 18.94 66.092 0.072 7.33 0.72 9.63
6/26/2021 9:45:00 AM 19.02 66.236 0.072 7.36 0.77 9.72
6/26/2021 10:00:00 AM 19.2 66.56 0.072 7.4 0.67 9.75
6/26/2021 10:15:00 AM 19.27 66.686 0.072 7.42 0.75 9.77
6/26/2021 10:30:00 AM 19.37 66.866 0.072 7.44 0.73 9.79
6/26/2021 10:45:00 AM 19.65 67.37 0.072 7.51 1 9.84
6/26/2021 11:00:00 AM 19.95 67.91 0.072 7.54 1.1 9.87
6/26/2021 11:15:00 AM 20.33 68.594 0.071 7.63 0.69 9.89
6/26/2021 11:30:00 AM 20.51 68.918 0.071 7.65 0.64 9.89
6/26/2021 11:45:00 AM 20.76 69.368 0.071 7.68 0.62 9.87
6/26/2021 12:00:00 PM 21.18 70.124 0.071 7.76 1 9.87
6/26/2021 12:15:00 PM 21.49 70.682 0.071 7.8 0.86 9.84
6/26/2021 12:30:00 PM 21.97 71.546 0.071 7.83 0.85 9.81
6/26/2021 12:45:00 PM 22.23 72.014 0.071 7.88 0.68 9.8
6/26/2021 1:00:00 PM 22.66 72.788 0.071 7.9 0.63 9.72
6/26/2021 1:15:00 PM 22.76 72.968 0.071 7.82 0.78 9.62
6/26/2021 1:30:00 PM 22.73 72.914 0.071 7.84 0.82 9.61
6/26/2021 1:45:00 PM 22.99 73.382 0.071 7.83 0.73 9.51
6/26/2021 2:00:00 PM 23.26 73.868 0.071 7.88 0.78 9.5
6/26/2021 2:15:00 PM 23.44 74.192 0.071 7.9 1.09 9.48
6/26/2021 2:30:00 PM 23.39 74.102 0.07 7.84 0.77 9.36
6/26/2021 2:45:00 PM 23.79 74.82201 0.07 7.9 1.01 9.38
6/26/2021 3:00:00 PM 24.17 75.506 0.07 7.95 0.6 9.34
6/26/2021 3:15:00 PM 24.28 75.704 0.07 7.91 0.7 9.28
6/26/2021 3:30:00 PM 24.39 75.902 0.07 7.9 0.57 9.23
6/26/2021 3:45:00 PM 24.5 76.1 0.07 7.88 0.8 9.16
6/26/2021 4:00:00 PM 24.44 75.992 0.07 7.82 0.74 9.07
6/26/2021 4:15:00 PM 24.62 76.316 0.07 7.8 0.69 9.04
6/26/2021 4:30:00 PM 24.63 76.334 0.07 7.8 0.9 8.97
6/26/2021 4:45:00 PM 24.71 76.478 0.07 7.79 0.73 8.96
6/26/2021 5:00:00 PM 24.51 76.118 0.071 7.72 0.64 8.85
6/26/2021 5:15:00 PM 24.41 75.938 0.071 7.67 0.71 8.8
6/26/2021 5:30:00 PM 24.37 75.866 0.071 7.59 0.59 8.75
6/26/2021 5:45:00 PM 24.31 75.758 0.071 7.56 0.69 8.7
6/26/2021 6:00:00 PM 24.2 75.56 0.071 7.52 0.61 8.62
6/26/2021 6:15:00 PM 24.08 75.344 0.071 7.46 1.24 8.56
6/26/2021 6:30:00 PM 23.99 75.182 0.071 7.4 0.65 8.47
6/26/2021 6:45:00 PM 23.88 74.984 0.071 7.3 0.64 8.38
6/26/2021 7:00:00 PM 23.75 74.75 0.071 7.3 0.64 8.31
6/26/2021 7:15:00 PM 23.65 74.57 0.072 7.24 0.93 8.24
6/26/2021 7:30:00 PM 23.54 74.372 0.072 7.22 0.57 8.18
6/26/2021 7:45:00 PM 23.45 74.21 0.072 7.2 0.82 8.14
6/26/2021 8:00:00 PM 23.33 73.994 0.072 7.17 0.75 8.07
6/26/2021 8:15:00 PM 23.21 73.778 0.072 7.14 0.69 7.98
6/26/2021 8:30:00 PM 23.08 73.544 0.072 7.08 0.68 7.9
6/26/2021 8:45:00 PM 22.96 73.328 0.073 7.09 0.81 7.81
6/26/2021 9:00:00 PM 22.85 73.13 0.073 7.05 0.81 7.74
6/26/2021 9:15:00 PM 22.74 72.932 0.073 7.03 0.79 7.69
6/26/2021 9:30:00 PM 22.63 72.734 0.073 7.01 0.89 7.64
6/26/2021 9:45:00 PM 22.52 72.536 0.073 7 0.87 7.61
6/26/2021 10:00:00 PM 22.42 72.356 0.073 6.99 1.01 7.59
6/26/2021 10:15:00 PM 22.32 72.176 0.073 6.97 0.94 7.58
6/26/2021 10:30:00 PM 22.22 71.996 0.073 6.95 1.06 7.58
6/26/2021 10:45:00 PM 22.12 71.816 0.074 6.95 1.21 7.57
6/26/2021 11:00:00 PM 22.03 71.654 0.074 6.96 1.31 7.58
6/26/2021 11:15:00 PM 21.95 71.51 0.074 6.96 1.13 7.59
6/26/2021 11:30:00 PM 21.85 71.33 0.074 6.95 1.34 7.6
6/26/2021 11:45:00 PM 21.76 71.168 0.074 6.95 1.23 7.62
6/27/2021 12:00:00 AM 21.67 71.006 0.074 6.95 1.23 7.62
6/27/2021 12:15:00 AM 21.58 70.844 0.074 6.92 1.17 7.64
6/27/2021 12:30:00 AM 21.5 70.7 0.074 6.95 1.26 7.66
6/27/2021 12:45:00 AM 21.42 70.556 0.074 6.96 1.02 7.69
6/27/2021 1:00:00 AM 21.34 70.412 0.074 6.96 1.13 7.71
6/27/2021 1:15:00 AM 21.25 70.25 0.074 6.92 1.19 7.71
6/27/2021 1:30:00 AM 21.17 70.106 0.074 6.97 1.13 7.74
6/27/2021 1:45:00 AM 21.09 69.962 0.074 6.96 1.19 7.75
6/27/2021 2:00:00 AM 21 69.8 0.074 6.92 1.05 7.76
6/27/2021 2:15:00 AM 20.91 69.638 0.074 6.96 0.86 7.79
6/27/2021 2:30:00 AM 20.83 69.494 0.074 6.95 1.25 7.8
6/27/2021 2:45:00 AM 20.74 69.332 0.075 6.96 1.28 7.82
6/27/2021 3:00:00 AM 20.66 69.188 0.074 6.97 1.21 7.84
6/27/2021 3:15:00 AM 20.58 69.044 0.074 6.96 1.22 7.87
6/27/2021 3:30:00 AM 20.5 68.9 0.074 6.93 1.16 7.88
6/27/2021 3:45:00 AM 20.43 68.774 0.074 6.95 1.07 7.9
6/27/2021 4:00:00 AM 20.36 68.648 0.075 6.97 1.15 7.91
6/27/2021 4:15:00 AM 20.28 68.504 0.075 6.97 1.09 7.93
6/27/2021 4:30:00 AM 20.21 68.378 0.075 6.99 1.08 7.95
6/27/2021 4:45:00 AM 20.13 68.234 0.075 6.98 1.38 7.97
6/27/2021 5:00:00 AM 20.05 68.09 0.075 6.98 1.16 7.98
6/27/2021 5:15:00 AM 19.97 67.946 0.075 6.95 1.28 8
6/27/2021 5:30:00 AM 19.89 67.802 0.075 6.97 1.3 8.03
6/27/2021 5:45:00 AM 19.81 67.658 0.075 6.97 1.16 8.05
6/27/2021 6:00:00 AM 19.74 67.532 0.075 6.93 1.19 8.08
6/27/2021 6:15:00 AM 19.68 67.424 0.075 6.98 1.1 8.14
6/27/2021 6:30:00 AM 19.62 67.316 0.075 6.99 1.04 8.22
6/27/2021 6:45:00 AM 19.57 67.226 0.074 7.01 1.04 8.3
6/27/2021 7:00:00 AM 19.53 67.154 0.075 7.02 0.92 8.4
6/27/2021 7:15:00 AM 19.5 67.1 0.075 7.03 0.9 8.49
6/27/2021 7:30:00 AM 19.48 67.064 0.075 7.07 0.84 8.6
6/27/2021 7:45:00 AM 19.49 67.082 0.074 7.09 0.94 8.72
6/27/2021 8:00:00 AM 19.6 67.28 0.074 7.14 0.95 8.87
6/27/2021 8:15:00 AM 19.65 67.37 0.074 7.17 0.75 8.93
6/27/2021 8:30:00 AM 19.65 67.37 0.074 7.18 0.94 9.02
6/27/2021 8:45:00 AM 19.79 67.622 0.074 7.25 0.85 9.11
6/27/2021 9:00:00 AM 19.96 67.92799 0.074 7.26 0.85 9.17
6/27/2021 9:15:00 AM 20.18 68.324 0.074 7.3 0.83 9.23
6/27/2021 9:30:00 AM 20.38 68.684 0.074 7.32 0.81 9.28
6/27/2021 9:45:00 AM 20.53 68.954 0.074 7.36 0.83 9.31
6/27/2021 10:00:00 AM 20.78 69.404 0.074 7.38 0.82 9.34
6/27/2021 10:15:00 AM 21.07 69.926 0.074 7.38 0.82 9.36
6/27/2021 10:30:00 AM 21.37 70.466 0.074 7.43 0.81 9.36
6/27/2021 10:45:00 AM 21.69 71.042 0.073 7.46 0.75 9.38
6/27/2021 11:00:00 AM 21.93 71.474 0.074 7.48 0.76 9.38
6/27/2021 11:15:00 AM 22.27 72.086 0.073 7.52 0.87 9.37
6/27/2021 11:30:00 AM 22.64 72.752 0.073 7.58 0.62 9.39
6/27/2021 11:45:00 AM 23.06 73.508 0.073 7.62 0.76 9.37
6/27/2021 12:00:00 PM 23.42 74.156 0.073 7.64 0.78 9.36
6/27/2021 12:15:00 PM 23.69 74.642 0.073 7.68 0.81 9.35
6/27/2021 12:30:00 PM 23.82 74.876 0.073 7.68 0.89 9.31
6/27/2021 12:45:00 PM 24.09 75.362 0.073 7.73 1.86 9.31
6/27/2021 1:00:00 PM 24.39 75.902 0.073 7.76 0.82 9.29
6/27/2021 1:15:00 PM 24.56 76.208 0.073 7.78 0.67 9.29
6/27/2021 1:30:00 PM 25 77 0.072 7.83 0.67 9.25
6/27/2021 1:45:00 PM 25.29 77.522 0.072 7.85 0.58 9.2
6/27/2021 2:00:00 PM 25.26 77.468 0.072 7.83 0.63 9.1
6/27/2021 2:15:00 PM 25.54 77.972 0.072 7.85 0.58 9.07
6/27/2021 2:30:00 PM 25.43 77.774 0.072 7.84 0.72 9.02
6/27/2021 2:45:00 PM 25.3 77.54 0.072 7.72 0.68 8.91
6/27/2021 3:00:00 PM 25.36 77.648 0.072 7.7 1.05 8.8
6/27/2021 3:15:00 PM 25.81 78.458 0.072 7.72 0.63 8.82
6/27/2021 3:30:00 PM 25.93 78.674 0.072 7.75 0.72 8.79
6/27/2021 3:45:00 PM 25.9 78.62 0.072 7.73 0.62 8.72
6/27/2021 4:00:00 PM 25.9 78.62 0.072 7.73 0.62 8.71
6/27/2021 4:15:00 PM 25.83 78.494 0.072 7.7 0.6 8.66
6/27/2021 4:30:00 PM 25.77 78.386 0.072 7.67 0.56 8.6
6/27/2021 4:45:00 PM 25.94 78.692 0.072 7.67 0.63 8.6
6/27/2021 5:00:00 PM 25.93 78.674 0.072 7.65 0.58 8.57
6/27/2021 5:15:00 PM 25.89 78.602 0.072 7.63 0.65 8.51
6/27/2021 5:30:00 PM 25.82 78.476 0.073 7.55 0.6 8.45
6/27/2021 5:45:00 PM 25.76 78.368 0.073 7.55 0.68 8.42
6/27/2021 6:00:00 PM 25.66 78.188 0.073 7.51 0.67 8.35
6/27/2021 6:15:00 PM 25.5 77.9 0.073 7.47 0.72 8.28
6/27/2021 6:30:00 PM 25.38 77.684 0.073 7.4 0.7 8.21
6/27/2021 6:45:00 PM 25.31 77.558 0.073 7.36 0.86 8.12
6/27/2021 7:00:00 PM 25.24 77.432 0.073 7.32 0.72 8.05
6/27/2021 7:15:00 PM 25.13 77.234 0.073 7.28 0.73 7.97
6/27/2021 7:30:00 PM 25.03 77.054 0.073 7.23 0.6 7.88
6/27/2021 7:45:00 PM 24.91 76.838 0.073 7.19 0.74 7.79
6/27/2021 8:00:00 PM 24.78 76.604 0.073 7.16 0.68 7.72
6/27/2021 8:15:00 PM 24.64 76.352 0.074 7.11 0.8 7.65
6/27/2021 8:30:00 PM 24.49 76.082 0.074 7.1 0.8 7.57
6/27/2021 8:45:00 PM 24.35 75.83 0.074 7.07 0.87 7.5
6/27/2021 9:00:00 PM 24.21 75.578 0.074 7.03 0.64 7.43
6/27/2021 9:15:00 PM 24.09 75.362 0.074 7.01 0.87 7.39
6/27/2021 9:30:00 PM 23.95 75.11 0.075 7 0.79 7.35
6/27/2021 9:45:00 PM 23.84 74.912 0.075 6.99 0.95 7.33
6/27/2021 10:00:00 PM 23.72 74.696 0.075 6.96 1.12 7.31
6/27/2021 10:15:00 PM 23.61 74.498 0.075 6.97 0.97 7.31
6/27/2021 10:30:00 PM 23.49 74.282 0.075 6.94 1.04 7.3
6/27/2021 10:45:00 PM 23.39 74.102 0.075 6.92 1.28 7.3
6/27/2021 11:00:00 PM 23.29 73.922 0.075 6.94 1.35 7.31
6/27/2021 11:15:00 PM 23.19 73.742 0.075 6.95 1.33 7.33
6/27/2021 11:30:00 PM 23.09 73.562 0.075 6.94 1.21 7.33
6/27/2021 11:45:00 PM 22.99 73.382 0.075 6.94 1.26 7.34
6/28/2021 12:00:00 AM 22.9 73.22 0.075 6.92 1.23 7.36
6/28/2021 12:15:00 AM 22.8 73.04 0.075 6.93 1.27 7.37
6/28/2021 12:30:00 AM 22.7 72.86 0.075 6.94 1.52 7.39
6/28/2021 12:45:00 AM 22.61 72.698 0.075 6.91 1.29 7.42
6/28/2021 1:00:00 AM 22.51 72.518 0.076 6.94 1.14 7.42
6/28/2021 1:15:00 AM 22.42 72.356 0.075 6.94 0.98 7.45
6/28/2021 1:30:00 AM 22.32 72.176 0.075 6.95 1.03 7.48
6/28/2021 1:45:00 AM 22.22 71.996 0.076 6.94 1.04 7.51
6/28/2021 2:00:00 AM 22.12 71.816 0.076 6.94 1.07 7.52
6/28/2021 2:15:00 AM 22.03 71.654 0.075 6.94 1.21 7.54
6/28/2021 2:30:00 AM 21.93 71.474 0.076 6.92 0.98 7.55
6/28/2021 2:45:00 AM 21.83 71.294 0.076 6.93 1.09 7.58
6/28/2021 3:00:00 AM 21.74 71.132 0.076 6.93 1.08 7.59
6/28/2021 3:15:00 AM 21.66 70.988 0.076 6.92 1.26 7.61
6/28/2021 3:30:00 AM 21.57 70.826 0.076 6.93 0.91 7.63
6/28/2021 3:45:00 AM 21.5 70.7 0.076 6.92 1.07 7.66
6/28/2021 4:00:00 AM 21.43 70.574 0.076 6.93 1.18 7.67
6/28/2021 4:15:00 AM 21.37 70.466 0.076 6.95 1.49 7.69
6/28/2021 4:30:00 AM 21.31 70.358 0.077 6.97 1.05 7.71
6/28/2021 4:45:00 AM 21.25 70.25 0.078 6.97 1.04 7.73
6/28/2021 5:00:00 AM 21.18 70.124 0.079 6.97 1 7.75
6/28/2021 5:15:00 AM 21.11 69.998 0.078 6.95 1.31 7.76
6/28/2021 5:30:00 AM 21.05 69.89 0.077 6.97 1.06 7.79
6/28/2021 5:45:00 AM 20.98 69.764 0.077 6.98 1.13 7.82
6/28/2021 6:00:00 AM 20.92 69.656 0.076 6.95 0.98 7.84
6/28/2021 6:15:00 AM 20.86 69.548 0.076 6.99 0.81 7.89
6/28/2021 6:30:00 AM 20.81 69.458 0.076 6.96 0.87 7.94
6/28/2021 6:45:00 AM 20.76 69.368 0.076 7 0.93 8.02
6/28/2021 7:00:00 AM 20.73 69.314 0.076 7 0.86 8.1
6/28/2021 7:15:00 AM 20.7 69.26 0.076 7.03 0.9 8.16
6/28/2021 7:30:00 AM 20.69 69.242 0.076 7.06 0.83 8.3
6/28/2021 7:45:00 AM 20.71 69.278 0.076 7.09 0.79 8.47
6/28/2021 8:00:00 AM 20.75 69.35 0.075 7.09 1.5 8.59
6/28/2021 8:15:00 AM 20.91 69.638 0.075 7.15 0.71 8.71
6/28/2021 8:30:00 AM 21.03 69.854 0.075 7.19 0.85 8.8
6/28/2021 8:45:00 AM 21.16 70.088 0.075 7.2 1.03 8.86
6/28/2021 9:00:00 AM 21.34 70.412 0.075 7.25 0.86 8.92
6/28/2021 9:15:00 AM 21.52 70.736 0.075 7.28 0.72 8.99
6/28/2021 9:30:00 AM 21.73 71.114 0.075 7.3 0.74 9.03
6/28/2021 9:45:00 AM 21.95 71.51 0.075 7.34 0.87 9.09
6/28/2021 10:00:00 AM 22.19 71.942 0.075 7.36 0.79 9.14
6/28/2021 10:15:00 AM 22.25 72.05 0.075 7.39 0.72 9.17
6/28/2021 10:30:00 AM 22.25 72.05 0.075 7.4 0.76 9.17
6/28/2021 10:45:00 AM 22.43 72.374 0.075 7.46 0.86 9.29
6/28/2021 11:00:00 AM 22.74 72.932 0.074 7.5 0.77 9.3
6/28/2021 11:15:00 AM 23.17 73.706 0.074 7.57 0.68 9.34
6/28/2021 11:30:00 AM 23.65 74.57 0.074 7.63 0.63 9.37
6/28/2021 11:45:00 AM 23.92 75.056 0.074 7.69 0.64 9.33
6/28/2021 12:00:00 PM 24.12 75.416 0.074 7.67 0.96 9.28
6/28/2021 12:15:00 PM 24.53 76.154 0.074 7.75 0.84 9.31
6/28/2021 12:30:00 PM 24.93 76.874 0.073 7.78 3.27 9.27
6/28/2021 12:45:00 PM 25.33 77.594 0.074 7.82 0.67 9.22
6/28/2021 1:00:00 PM 25.55 77.99 0.073 7.84 0.74 9.2
6/28/2021 1:15:00 PM 25.6 78.08 0.073 7.82 0.62 9.14
6/28/2021 1:30:00 PM 26.05 78.89 0.073 7.86 1.03 9.11
6/28/2021 1:45:00 PM 26.44 79.592 0.073 7.91 0.72 9.08
6/28/2021 2:00:00 PM 26.17 79.106 0.073 7.81 0.66 8.91
6/28/2021 2:15:00 PM 26.29 79.32201 0.073 7.84 0.62 8.94
6/28/2021 2:30:00 PM 26.12 79.016 0.073 7.76 0.52 8.78
6/28/2021 2:45:00 PM 26.26 79.268 0.073 7.78 0.83 8.82
6/28/2021 3:00:00 PM 26.46 79.628 0.073 7.79 0.67 8.82
6/28/2021 3:15:00 PM 26.51 79.718 0.073 7.77 0.66 8.74
6/28/2021 3:30:00 PM 26.45 79.61 0.073 7.74 0.63 8.63
6/28/2021 3:45:00 PM 26.28 79.304 0.072 7.75 0.6 8.72
6/28/2021 4:00:00 PM 26.35 79.43 0.073 7.77 0.86 8.69
6/28/2021 4:15:00 PM 26.64 79.952 0.073 7.75 0.75 8.65
6/28/2021 4:30:00 PM 26.66 79.988 0.073 7.75 0.73 8.57
6/28/2021 4:45:00 PM 26.54 79.772 0.073 7.68 0.69 8.48
6/28/2021 5:00:00 PM 26.66 79.988 0.073 7.66 0.78 8.46
6/28/2021 5:15:00 PM 26.63 79.934 0.073 7.63 0.72 8.41
6/28/2021 5:30:00 PM 26.52 79.736 0.073 7.6 0.79 8.31
6/28/2021 5:45:00 PM 26.49 79.682 0.073 7.55 0.59 8.3
6/28/2021 6:00:00 PM 26.43 79.574 0.073 7.53 0.94 8.2
6/28/2021 6:15:00 PM 26.36 79.448 0.074 7.44 0.78 8.09
6/28/2021 6:30:00 PM 26.28 79.304 0.074 7.42 0.7 8.02
6/28/2021 6:45:00 PM 26.22 79.196 0.074 7.35 0.81 7.94
6/28/2021 7:00:00 PM 26.15 79.07 0.074 7.33 0.73 7.87
6/28/2021 7:15:00 PM 26.07 78.926 0.074 7.3 0.78 7.8
6/28/2021 7:30:00 PM 25.96 78.728 0.074 7.26 0.74 7.73
6/28/2021 7:45:00 PM 25.85 78.53 0.074 7.23 0.67 7.65
6/28/2021 8:00:00 PM 25.72 78.296 0.074 7.18 0.65 7.58
6/28/2021 8:15:00 PM 25.6 78.08 0.075 7.15 0.8 7.53
6/28/2021 8:30:00 PM 25.45 77.81 0.075 7.11 0.8 7.43
6/28/2021 8:45:00 PM 25.3 77.54 0.075 7.09 0.87 7.35
6/28/2021 9:00:00 PM 25.16 77.288 0.075 7.07 1.06 7.28
6/28/2021 9:15:00 PM 25.02 77.036 0.076 7.05 0.83 7.23
6/28/2021 9:30:00 PM 24.89 76.802 0.076 7.03 1.11 7.18
6/28/2021 9:45:00 PM 24.77 76.586 0.076 7.01 0.84 7.16
6/28/2021 10:00:00 PM 24.64 76.352 0.076 7.01 1.01 7.14
6/28/2021 10:15:00 PM 24.52 76.136 0.076 7 1.12 7.12
6/28/2021 10:30:00 PM 24.41 75.938 0.076 6.98 1.16 7.12
6/28/2021 10:45:00 PM 24.3 75.74 0.076 6.97 1.21 7.11
6/28/2021 11:00:00 PM 24.19 75.542 0.076 6.97 1.3 7.12
6/28/2021 11:15:00 PM 24.08 75.344 0.076 6.97 1.48 7.12
6/28/2021 11:30:00 PM 23.99 75.182 0.076 6.95 1.31 7.16
6/28/2021 11:45:00 PM 23.89 75.002 0.076 6.96 1.1 7.15
6/29/2021 12:00:00 AM 23.8 74.84 0.076 6.95 1.28 7.18
6/29/2021 12:15:00 AM 23.71 74.67799 0.076 6.96 1.23 7.2
6/29/2021 12:30:00 AM 23.62 74.516 0.076 6.96 1.15 7.21
6/29/2021 12:45:00 AM 23.53 74.354 0.076 6.92 1.29 7.23
6/29/2021 1:00:00 AM 23.44 74.192 0.077 6.94 1.22 7.26
6/29/2021 1:15:00 AM 23.35 74.03 0.077 6.96 1.15 7.26
6/29/2021 1:30:00 AM 23.27 73.886 0.077 6.95 1.24 7.3
6/29/2021 1:45:00 AM 23.17 73.706 0.077 6.96 1.02 7.3
6/29/2021 2:00:00 AM 23.09 73.562 0.077 6.94 1.12 7.32
6/29/2021 2:15:00 AM 23.02 73.436 0.077 6.96 1.27 7.34
6/29/2021 2:30:00 AM 22.94 73.292 0.077 6.94 1.14 7.35
6/29/2021 2:45:00 AM 22.86 73.148 0.077 6.96 1.09 7.38
6/29/2021 3:00:00 AM 22.78 73.004 0.077 6.96 1.15 7.4
6/29/2021 3:15:00 AM 22.71 72.878 0.077 6.95 1.11 7.42
6/29/2021 3:30:00 AM 22.64 72.752 0.077 6.96 1.17 7.44
6/29/2021 3:45:00 AM 22.56 72.608 0.077 6.95 1.17 7.44
6/29/2021 4:00:00 AM 22.48 72.464 0.077 6.96 1.19 7.47
6/29/2021 4:15:00 AM 22.4 72.32 0.077 6.96 1.05 7.49
6/29/2021 4:30:00 AM 22.34 72.212 0.077 6.95 1.2 7.49
6/29/2021 4:45:00 AM 22.28 72.104 0.077 6.96 1.09 7.51
6/29/2021 5:00:00 AM 22.22 71.996 0.078 6.97 1.1 7.53
6/29/2021 5:15:00 AM 22.16 71.888 0.077 6.97 1.13 7.56
6/29/2021 5:30:00 AM 22.09 71.762 0.078 6.97 1.09 7.56
6/29/2021 5:45:00 AM 22.03 71.654 0.078 6.95 1.23 7.58
6/29/2021 6:00:00 AM 21.98 71.564 0.079 6.97 1.17 7.61
6/29/2021 6:15:00 AM 21.92 71.456 0.079 6.97 0.91 7.65
6/29/2021 6:30:00 AM 21.88 71.384 0.08 6.98 1.17 7.7
6/29/2021 6:45:00 AM 21.83 71.294 0.079 6.99 0.94 7.78
6/29/2021 7:00:00 AM 21.8 71.24 0.078 7.01 0.9 7.86
6/29/2021 7:15:00 AM 21.77 71.186 0.078 7.02 0.86 7.96
6/29/2021 7:30:00 AM 21.77 71.186 0.077 7.06 1.02 8.08
6/29/2021 7:45:00 AM 21.79 71.222 0.077 7.07 0.83 8.24
6/29/2021 8:00:00 AM 21.82 71.276 0.077 7.1 1.11 8.38
6/29/2021 8:15:00 AM 21.9 71.42 0.076 7.15 0.9 8.54
6/29/2021 8:30:00 AM 22.05 71.69 0.076 7.21 0.86 8.64
6/29/2021 8:45:00 AM 22.2 71.96 0.076 7.22 0.9 8.73
6/29/2021 9:00:00 AM 22.38 72.284 0.076 7.25 0.82 8.77
6/29/2021 9:15:00 AM 22.55 72.59 0.076 7.3 0.93 8.82
6/29/2021 9:30:00 AM 22.76 72.968 0.076 7.32 0.97 8.86
6/29/2021 9:45:00 AM 22.95 73.31 0.075 7.36 3.01 8.89
6/29/2021 10:00:00 AM 23.25 73.85 0.076 7.36 0.69 8.92
6/29/2021 10:15:00 AM 23.52 74.336 0.076 7.4 0.82 8.95
6/29/2021 10:30:00 AM 23.76 74.768 0.075 7.44 0.83 8.97
6/29/2021 10:45:00 AM 24.1 75.38 0.075 7.45 1.07 8.98
6/29/2021 11:00:00 AM 24.38 75.884 0.075 7.51 0.74 9.02
6/29/2021 11:15:00 AM 24.44 75.992 0.075 7.51 0.7 8.95
6/29/2021 11:30:00 AM 24.9 76.82 0.075 7.53 1.29 8.98
6/29/2021 11:45:00 AM 25.11 77.198 0.075 7.56 0.63 8.96
6/29/2021 12:00:00 PM 25.6 78.08 0.075 7.61 0.73 9
6/29/2021 12:15:00 PM 26.04 78.872 0.075 7.67 0.67 9.03
6/29/2021 12:30:00 PM 26.47 79.646 0.075 7.72 0.93 8.99
6/29/2021 12:45:00 PM 26.85 80.33 0.075 7.75 0.83 8.98
6/29/2021 1:00:00 PM 27.16 80.888 0.075 7.76 0.74 8.95
6/29/2021 1:15:00 PM 27.51 81.518 0.074 7.83 0.82 8.92
6/29/2021 1:30:00 PM 27.84 82.112 0.074 7.86 0.66 8.9
6/29/2021 1:45:00 PM 28.02 82.436 0.074 7.84 0.76 8.85
6/29/2021 2:00:00 PM 28.3 82.94 0.074 7.86 0.62 8.76
6/29/2021 2:15:00 PM 27.97 82.346 0.074 7.79 0.94 8.64
6/29/2021 2:30:00 PM 28.38 83.084 0.074 7.83 0.83 8.65
6/29/2021 2:45:00 PM 27.93 82.274 0.074 7.69 0.71 8.38
6/29/2021 3:00:00 PM 27.87 82.166 0.074 7.68 0.7 8.41
6/29/2021 3:15:00 PM 27.78 82.004 0.074 7.65 0.77 8.34
6/29/2021 3:30:00 PM 28.11 82.598 0.074 7.68 0.65 8.4
6/29/2021 3:45:00 PM 28.4 83.12 0.074 7.68 0.86 8.37
6/29/2021 4:00:00 PM 28.53 83.354 0.074 7.71 0.8 8.37
6/29/2021 4:15:00 PM 28.5 83.3 0.074 7.7 0.81 8.28
6/29/2021 4:30:00 PM 28.24 82.832 0.075 7.59 0.74 8.14
6/29/2021 4:45:00 PM 28.33 82.994 0.075 7.58 0.77 8.11
6/29/2021 5:00:00 PM 28.38 83.084 0.074 7.58 0.77 8.11
6/29/2021 5:15:00 PM 28.31 82.958 0.075 7.55 0.76 8.06
6/29/2021 5:30:00 PM 28.21 82.778 0.075 7.53 0.68 8.01
6/29/2021 5:45:00 PM 28.14 82.652 0.075 7.47 0.71 7.92
6/29/2021 6:00:00 PM 28.06 82.508 0.075 7.41 0.66 7.84
6/29/2021 6:15:00 PM 27.94 82.292 0.075 7.38 1.03 7.75
6/29/2021 6:30:00 PM 27.8 82.04 0.075 7.33 0.91 7.67
6/29/2021 6:45:00 PM 27.69 81.842 0.075 7.3 0.91 7.61
6/29/2021 7:00:00 PM 27.58 81.644 0.075 7.24 0.73 7.52
6/29/2021 7:15:00 PM 27.48 81.464 0.075 7.23 0.68 7.46
6/29/2021 7:30:00 PM 27.36 81.248 0.076 7.19 1.01 7.39
6/29/2021 7:45:00 PM 27.22 80.996 0.076 7.17 0.83 7.31
6/29/2021 8:00:00 PM 27.07 80.726 0.076 7.14 0.74 7.24
6/29/2021 8:15:00 PM 26.9 80.42 0.076 7.11 0.85 7.15
6/29/2021 8:30:00 PM 26.74 80.132 0.076 7.07 0.78 7.06
6/29/2021 8:45:00 PM 26.6 79.88 0.077 7.07 0.88 6.99
6/29/2021 9:00:00 PM 26.44 79.592 0.077 7.01 0.87 6.92
6/29/2021 9:15:00 PM 26.28 79.304 0.077 7 1.06 6.86
6/29/2021 9:30:00 PM 26.15 79.07 0.077 6.99 1.09 6.84
6/29/2021 9:45:00 PM 26.03 78.854 0.077 6.97 0.97 6.8
6/29/2021 10:00:00 PM 25.94 78.692 0.077 6.97 1.23 6.81
6/29/2021 10:15:00 PM 25.77 78.386 0.078 6.97 1.17 6.77
6/29/2021 10:30:00 PM 25.41 77.738 0.288 6.95 10.87 6.9
6/29/2021 10:45:00 PM 25.42 77.756 0.088 7 1.82 6.82
6/29/2021 11:00:00 PM 25.31 77.558 0.079 6.97 1.3 6.81
6/29/2021 11:15:00 PM 25.2 77.36 0.077 6.98 1.38 6.79
6/29/2021 11:30:00 PM 25.07 77.126 0.077 6.96 1.39 6.79
6/29/2021 11:45:00 PM 24.96 76.92799 0.077 6.93 1.12 6.81
6/30/2021 12:00:00 AM 24.83 76.694 0.077 6.94 1.31 6.83
6/30/2021 12:15:00 AM 24.7 76.46 0.077 6.93 1.24 6.84
6/30/2021 12:30:00 AM 24.59 76.262 0.077 6.93 1.24 6.88
6/30/2021 12:45:00 AM 24.5 76.1 0.077 6.93 1.32 6.91
6/30/2021 1:00:00 AM 24.4 75.92 0.077 6.91 1.22 6.93
6/30/2021 1:15:00 AM 24.32 75.776 0.077 6.94 1.19 6.96
6/30/2021 1:30:00 AM 24.23 75.614 0.078 6.94 1.49 6.98
6/30/2021 1:45:00 AM 24.15 75.47 0.078 6.95 1.37 7.01
6/30/2021 2:00:00 AM 24.07 75.326 0.078 6.94 1.44 7.04
6/30/2021 2:15:00 AM 23.99 75.182 0.077 6.93 1.27 7.06
6/30/2021 2:30:00 AM 23.91 75.038 0.077 6.95 1.48 7.08
6/30/2021 2:45:00 AM 23.82 74.876 0.078 6.94 1.43 7.11
6/30/2021 3:00:00 AM 23.74 74.732 0.078 6.98 1.11 7.15
6/30/2021 3:15:00 AM 23.64 74.552 0.078 6.96 1.34 7.18
6/30/2021 3:30:00 AM 23.56 74.408 0.079 6.99 1.22 7.2
6/30/2021 3:45:00 AM 23.47 74.246 0.079 6.95 1.28 7.22
6/30/2021 4:00:00 AM 23.39 74.102 0.079 6.98 1.52 7.24
6/30/2021 4:15:00 AM 23.31 73.958 0.079 6.97 1.71 7.27
6/30/2021 4:30:00 AM 23.23 73.814 0.079 6.98 1.57 7.3
6/30/2021 4:45:00 AM 23.12 73.616 0.08 7.01 1.55 7.33
6/30/2021 5:00:00 AM 23.01 73.418 0.081 6.99 1.58 7.35
6/30/2021 5:15:00 AM 22.91 73.238 0.082 7.02 1.32 7.38
6/30/2021 5:30:00 AM 22.82 73.076 0.082 7.02 1.51 7.41
6/30/2021 5:45:00 AM 22.75 72.95 0.082 7.01 1.27 7.43
6/30/2021 6:00:00 AM 22.68 72.824 0.081 7.04 1.31 7.46
6/30/2021 6:15:00 AM 22.6 72.68 0.081 7.02 1.32 7.49
6/30/2021 6:30:00 AM 22.52 72.536 0.081 7.02 1.13 7.52
6/30/2021 6:45:00 AM 22.45 72.41 0.081 7.04 1.14 7.57
6/30/2021 7:00:00 AM 22.4 72.32 0.081 7.02 1.1 7.68
6/30/2021 7:15:00 AM 22.37 72.266 0.08 7.08 1.1 7.85
6/30/2021 7:30:00 AM 22.35 72.23 0.08 7.1 0.95 7.99
6/30/2021 7:45:00 AM 22.36 72.248 0.08 7.12 1.19 8.11
6/30/2021 8:00:00 AM 22.47 72.446 0.08 7.17 0.99 8.3
6/30/2021 8:15:00 AM 22.55 72.59 0.079 7.21 0.93 8.38
6/30/2021 8:30:00 AM 22.59 72.662 0.079 7.22 1.32 8.38
6/30/2021 8:45:00 AM 22.39 72.302 0.154 7.46 61.18 8.31
6/30/2021 9:00:00 AM 22.36 72.248 0.086 7.24 3.5 8.4
6/30/2021 9:15:00 AM 22.65 72.77 0.08 7.26 1.5 8.51
6/30/2021 9:30:00 AM 22.84 73.112 0.078 7.29 1.44 8.59
6/30/2021 9:45:00 AM 22.86 73.148 0.078 7.32 1.36 8.65
6/30/2021 10:00:00 AM 23.14 73.652 0.078 7.38 1.26 8.76
6/30/2021 10:15:00 AM 23.5 74.3 0.077 7.39 1.22 8.83
6/30/2021 10:30:00 AM 23.84 74.912 0.077 7.43 1.21 8.84
6/30/2021 10:45:00 AM 24.13 75.434 0.077 7.47 1.22 8.89
6/30/2021 11:00:00 AM 24.45 76.01 0.077 7.52 1.02 8.92
6/30/2021 11:15:00 AM 24.82 76.676 0.077 7.54 1.15 8.96
6/30/2021 11:30:00 AM 25.26 77.468 0.077 7.61 1.48 8.98
6/30/2021 11:45:00 AM 25.3 77.54 0.077 7.65 1.16 9.02
6/30/2021 12:00:00 PM 25.37 77.666 0.076 7.69 1.18 9.03
6/30/2021 12:15:00 PM 25.6 78.08 0.076 7.73 1.11 9
6/30/2021 12:30:00 PM 25.91 78.638 0.075 7.77 1.27 9.01
6/30/2021 12:45:00 PM 26.29 79.32201 0.075 7.79 1.19 9
6/30/2021 1:00:00 PM 26.24 79.232 0.075 7.83 1.28 8.99
6/30/2021 1:15:00 PM 26.44 79.592 0.075 7.82 1.15 8.99
6/30/2021 1:30:00 PM 26.63 79.934 0.074 7.85 1.06 8.96
6/30/2021 1:45:00 PM 26.73 80.114 0.074 7.82 1.46 8.9
6/30/2021 2:00:00 PM 26.61 79.898 0.073 7.78 1.07 8.77
6/30/2021 2:15:00 PM 27.01 80.618 0.073 7.8 1.18 8.79
6/30/2021 2:30:00 PM 26.88 80.384 0.073 7.78 1.2 8.71
6/30/2021 2:45:00 PM 27.25 81.05 0.072 7.81 1.11 8.71
6/30/2021 3:00:00 PM 27.42 81.356 0.072 7.8 1.1 8.65
6/30/2021 3:15:00 PM 27.38 81.284 0.072 7.77 1.17 8.58
6/30/2021 3:30:00 PM 27.35 81.23 0.071 7.72 1.21 8.55
6/30/2021 3:45:00 PM 27.09 80.762 0.071 7.63 1.41 8.35
6/30/2021 4:00:00 PM 27.18 80.924 0.071 7.63 1.27 8.43
6/30/2021 4:15:00 PM 27.16 80.888 0.071 7.66 1.41 8.39
6/30/2021 4:30:00 PM 26.82 80.276 0.071 7.49 1.45 8.19
6/30/2021 4:45:00 PM 26.25 79.25 0.208 7.47 72.38 7.97
6/30/2021 5:00:00 PM 26.2 79.16 0.075 7.26 2.38 7.76
6/30/2021 5:15:00 PM 25.94 78.692 0.079 7.17 3.1 7.63
6/30/2021 5:30:00 PM 25.78 78.404 0.073 7.09 1.93 7.54
6/30/2021 5:45:00 PM 25.56 78.008 0.078 7.05 2.56 7.46
6/30/2021 6:00:00 PM 25.38 77.684 0.076 7.03 3.02 7.42
6/30/2021 6:15:00 PM 25.2 77.36 0.076 7.01 5.06 7.4
6/30/2021 6:30:00 PM 25.05 77.09 0.075 7 5.46 7.4
6/30/2021 6:45:00 PM 24.92 76.856 0.074 7 7.12 7.42
6/30/2021 7:00:00 PM 24.79 76.622 0.072 6.99 5.7 7.41
6/30/2021 7:15:00 PM 24.68 76.424 0.07 6.99 3.39 7.4
6/30/2021 7:30:00 PM 24.55 76.19 0.07 6.98 2.73 7.4
6/30/2021 7:45:00 PM 24.44 75.992 0.069 6.98 2.59 7.41
6/30/2021 8:00:00 PM 24.33 75.794 0.069 6.99 3.16 7.42
6/30/2021 8:15:00 PM 24.22 75.596 0.068 6.97 2.87 7.44
6/30/2021 8:30:00 PM 24.11 75.398 0.068 6.96 3.48 7.44
6/30/2021 8:45:00 PM 24 75.2 0.068 6.95 4.96 7.44
6/30/2021 9:00:00 PM 23.9 75.02 0.068 6.97 8.84 7.44
6/30/2021 9:15:00 PM 23.78 74.804 0.068 6.95 13.4 7.46
6/30/2021 9:30:00 PM 23.65 74.57 0.067 6.92 15.36 7.51
6/30/2021 9:45:00 PM 23.48 74.264 0.067 6.9 14.96 7.56
6/30/2021 10:00:00 PM 23.3 73.94 0.066 6.88 14.37 7.61
6/30/2021 10:15:00 PM 23.14 73.652 0.066 6.88 13.44 7.66
6/30/2021 10:30:00 PM 22.98 73.364 0.066 6.87 13.05 7.7
6/30/2021 10:45:00 PM 22.83 73.094 0.066 6.89 11.88 7.73
6/30/2021 11:00:00 PM 22.7 72.86 0.066 6.88 11.41 7.77
6/30/2021 11:15:00 PM 22.56 72.608 0.066 6.89 10.83 7.79
6/30/2021 11:30:00 PM 22.43 72.374 0.066 6.9 10.46 7.82
6/30/2021 11:45:00 PM 22.31 72.158 0.066 6.9 9.37 7.84
7/1/2021 12:00:00 AM 22.2 71.96 0.065 6.91 8.8 7.85
7/1/2021 12:15:00 AM 22.09 71.762 0.065 6.91 8.17 7.87
7/1/2021 12:30:00 AM 21.99 71.582 0.065 6.91 8.05 7.89
7/1/2021 12:45:00 AM 21.89 71.402 0.064 6.91 7.85 7.9
7/1/2021 1:00:00 AM 21.8 71.24 0.064 6.89 7.74 7.92
7/1/2021 1:15:00 AM 21.71 71.078 0.064 6.89 7.48 7.94
7/1/2021 1:30:00 AM 21.62 70.916 0.064 6.91 8.12 7.95
7/1/2021 1:45:00 AM 21.54 70.772 0.064 6.9 9.17 7.97
7/1/2021 2:00:00 AM 21.46 70.628 0.064 6.91 10.05 7.97
7/1/2021 2:15:00 AM 21.39 70.502 0.064 6.92 11.77 7.99
7/1/2021 2:30:00 AM 21.32 70.376 0.065 6.9 13.38 7.99
7/1/2021 2:45:00 AM 21.25 70.25 0.064 6.91 13.83 8
7/1/2021 3:00:00 AM 21.18 70.124 0.064 6.91 14.26 8.01
7/1/2021 3:15:00 AM 21.12 70.016 0.065 6.89 15.06 8.03
7/1/2021 3:30:00 AM 21.06 69.908 0.064 6.9 14.6 8.03
7/1/2021 3:45:00 AM 21 69.8 0.064 6.9 14.18 8.04
7/1/2021 4:00:00 AM 20.94 69.692 0.064 6.88 13.58 8.05
7/1/2021 4:15:00 AM 20.89 69.602 0.063 6.91 12.78 8.06
7/1/2021 4:30:00 AM 20.84 69.512 0.064 6.91 12.17 8.07
7/1/2021 4:45:00 AM 20.79 69.422 0.064 6.92 11.74 8.07
7/1/2021 5:00:00 AM 20.75 69.35 0.064 6.93 10.92 8.07
7/1/2021 5:15:00 AM 20.7 69.26 0.064 6.92 10.84 8.08
7/1/2021 5:30:00 AM 20.66 69.188 0.064 6.88 9.67 8.08
7/1/2021 5:45:00 AM 20.62 69.116 0.064 6.92 9.47 8.09
7/1/2021 6:00:00 AM 20.58 69.044 0.064 6.93 8.56 8.11
7/1/2021 6:15:00 AM 20.55 68.99 0.064 6.88 8.34 8.12
7/1/2021 6:30:00 AM 20.49 68.882 0.063 6.94 8.44 8.19
7/1/2021 6:45:00 AM 20.47 68.846 0.065 7 16.54 8.23
7/1/2021 7:00:00 AM 20.43 68.774 0.064 6.94 7.83 8.19
7/1/2021 7:15:00 AM 20.41 68.738 0.064 6.95 6.6 8.2
7/1/2021 7:30:00 AM 20.38 68.684 0.065 6.96 6.05 8.22
7/1/2021 7:45:00 AM 20.36 68.648 0.065 6.91 6 8.24
7/1/2021 8:00:00 AM 20.34 68.612 0.065 6.97 5.33 8.28
7/1/2021 8:15:00 AM 20.31 68.558 0.065 6.94 5.23 8.31
7/1/2021 8:30:00 AM 20.28 68.504 0.066 6.97 5.11 8.32
7/1/2021 8:45:00 AM 20.26 68.468 0.066 6.98 5.18 8.34
7/1/2021 9:00:00 AM 20.24 68.432 0.066 6.96 4.53 8.38
7/1/2021 9:15:00 AM 20.21 68.378 0.066 6.99 4.14 8.44
7/1/2021 9:30:00 AM 20.21 68.378 0.066 7.01 4.02 8.51
7/1/2021 9:45:00 AM 20.21 68.378 0.067 7.02 3.89 8.57
7/1/2021 10:00:00 AM 20.21 68.378 0.068 7.06 4.06 8.6
7/1/2021 10:15:00 AM 20.22 68.396 0.068 7.07 3.65 8.67
7/1/2021 10:30:00 AM 20.24 68.432 0.068 7.09 3.94 8.74
7/1/2021 10:45:00 AM 20.3 68.54 0.068 7.12 4.05 8.85
7/1/2021 11:00:00 AM 20.39 68.702 0.068 7.18 4.39 8.96
7/1/2021 11:15:00 AM 20.37 68.666 0.069 7.13 4.41 8.9
7/1/2021 11:30:00 AM 20.38 68.684 0.069 7.17 4.49 8.86
7/1/2021 11:45:00 AM 20.41 68.738 0.069 7.17 4.14 8.91
7/1/2021 12:00:00 PM 20.46 68.828 0.068 7.22 4.31 8.98
7/1/2021 12:15:00 PM 20.48 68.864 0.069 7.25 3.88 9.02
7/1/2021 12:30:00 PM 20.52 68.936 0.069 7.27 3.89 9.05
7/1/2021 12:45:00 PM 20.53 68.954 0.068 7.29 3.73 9.05
7/1/2021 1:00:00 PM 20.52 68.936 0.068 7.25 3.86 9
7/1/2021 1:15:00 PM 20.51 68.918 0.068 7.27 3.64 8.95
7/1/2021 1:30:00 PM 20.52 68.936 0.068 7.26 3.56 8.91
7/1/2021 1:45:00 PM 20.53 68.954 0.068 7.26 3.49 8.89
7/1/2021 2:00:00 PM 20.58 69.044 0.068 7.26 3.31 8.92
7/1/2021 2:15:00 PM 20.67 69.206 0.068 7.31 3.17 9.03
7/1/2021 2:30:00 PM 20.74 69.332 0.068 7.34 3.28 9.08
7/1/2021 2:45:00 PM 20.8 69.44 0.068 7.37 3.16 9.12
7/1/2021 3:00:00 PM 20.84 69.512 0.068 7.39 2.95 9.14
7/1/2021 3:15:00 PM 20.9 69.62 0.068 7.42 2.88 9.13
7/1/2021 3:30:00 PM 20.95 69.71 0.068 7.4 2.89 9.14
7/1/2021 3:45:00 PM 20.99 69.782 0.068 7.44 2.79 9.15
7/1/2021 4:00:00 PM 21.05 69.89 0.068 7.45 2.72 9.14
7/1/2021 4:15:00 PM 21.14 70.052 0.068 7.47 2.76 9.15
7/1/2021 4:30:00 PM 21.15 70.07 0.068 7.47 2.55 9.12
7/1/2021 4:45:00 PM 21.18 70.124 0.068 7.4 2.49 9.06
7/1/2021 5:00:00 PM 21.21 70.17799 0.068 7.44 2.66 9.06
7/1/2021 5:15:00 PM 21.21 70.17799 0.068 7.44 2.33 9.02
7/1/2021 5:30:00 PM 21.2 70.16 0.068 7.4 2.42 8.95
7/1/2021 5:45:00 PM 21.16 70.088 0.068 7.35 2.46 8.82
7/1/2021 6:00:00 PM 21.12 70.016 0.068 7.29 2.57 8.69
7/1/2021 6:15:00 PM 21.07 69.926 0.068 7.22 2.37 8.6
7/1/2021 6:30:00 PM 21.02 69.836 0.068 7.2 2.6 8.54
7/1/2021 6:45:00 PM 20.99 69.782 0.069 7.21 2.48 8.5
7/1/2021 7:00:00 PM 20.96 69.728 0.069 7.18 2.71 8.5
7/1/2021 7:15:00 PM 20.92 69.656 0.069 7.2 2.85 8.47
7/1/2021 7:30:00 PM 20.88 69.584 0.069 7.17 3.09 8.43
7/1/2021 7:45:00 PM 20.83 69.494 0.069 7.15 3.15 8.39
7/1/2021 8:00:00 PM 20.78 69.404 0.069 7.12 3.3 8.37
7/1/2021 8:15:00 PM 20.73 69.314 0.069 7.12 3.3 8.35
7/1/2021 8:30:00 PM 20.68 69.224 0.069 7.1 3.52 8.33
7/1/2021 8:45:00 PM 20.63 69.134 0.069 7.09 3.93 8.3
7/1/2021 9:00:00 PM 20.57 69.026 0.069 7.05 4.56 8.27
7/1/2021 9:15:00 PM 20.51 68.918 0.069 7.04 5.42 8.24
7/1/2021 9:30:00 PM 20.45 68.81 0.069 7.05 6.59 8.22
7/1/2021 9:45:00 PM 20.39 68.702 0.069 7.01 6.5 8.2
7/1/2021 10:00:00 PM 20.33 68.594 0.069 7.05 6.84 8.2
7/1/2021 10:15:00 PM 20.28 68.504 0.069 7.01 7.23 8.2
7/1/2021 10:30:00 PM 20.22 68.396 0.069 7.03 7.09 8.21
7/1/2021 10:45:00 PM 20.16 68.288 0.069 7.02 7.01 8.21
7/1/2021 11:00:00 PM 20.09 68.162 0.07 7 6.73 8.21
7/1/2021 11:15:00 PM 20.02 68.036 0.069 6.99 6.49 8.22
7/1/2021 11:30:00 PM 19.96 67.92799 0.069 7 5.89 8.23
7/1/2021 11:45:00 PM 19.91 67.838 0.07 6.97 5.62 8.23
7/2/2021 12:00:00 AM 19.85 67.73 0.069 6.99 5.17 8.25
7/2/2021 12:15:00 AM 19.8 67.64 0.07 6.98 5.14 8.25
7/2/2021 12:30:00 AM 19.74 67.532 0.07 6.99 4.66 8.26
7/2/2021 12:45:00 AM 19.68 67.424 0.07 6.96 4.36 8.28
7/2/2021 1:00:00 AM 19.61 67.298 0.07 6.98 4.25 8.29
7/2/2021 1:15:00 AM 19.56 67.208 0.07 6.99 4.25 8.3
7/2/2021 1:30:00 AM 19.51 67.118 0.07 6.97 4.24 8.31
7/2/2021 1:45:00 AM 19.45 67.01 0.07 6.99 4.07 8.32
7/2/2021 2:00:00 AM 19.39 66.902 0.07 6.98 3.94 8.34
7/2/2021 2:15:00 AM 19.33 66.794 0.07 6.98 3.71 8.35
7/2/2021 2:30:00 AM 19.27 66.686 0.07 6.99 4.17 8.36
7/2/2021 2:45:00 AM 19.21 66.578 0.07 6.99 3.61 8.38
7/2/2021 3:00:00 AM 19.14 66.452 0.07 6.96 3.67 8.39
7/2/2021 3:15:00 AM 19.07 66.326 0.07 6.98 3.35 8.39
7/2/2021 3:30:00 AM 19 66.2 0.07 6.98 3.54 8.4
7/2/2021 3:45:00 AM 18.93 66.074 0.07 6.98 3.18 8.42
7/2/2021 4:00:00 AM 18.87 65.966 0.07 6.96 2.97 8.43
7/2/2021 4:15:00 AM 18.8 65.84 0.07 6.97 2.97 8.45
7/2/2021 4:30:00 AM 18.74 65.732 0.07 6.97 3.08 8.46
7/2/2021 4:45:00 AM 18.67 65.606 0.07 6.98 2.94 8.47
7/2/2021 5:00:00 AM 18.6 65.48 0.07 6.98 2.8 8.49
7/2/2021 5:15:00 AM 18.54 65.372 0.071 6.98 2.68 8.5
7/2/2021 5:30:00 AM 18.48 65.264 0.071 6.99 2.58 8.51
7/2/2021 5:45:00 AM 18.42 65.156 0.072 6.98 2.66 8.53
7/2/2021 6:00:00 AM 18.36 65.048 0.071 6.98 2.47 8.55
7/2/2021 6:15:00 AM 18.3 64.94 0.07 6.97 2.18 8.58
7/2/2021 6:30:00 AM 18.25 64.85 0.07 6.96 2.24 8.61
7/2/2021 6:45:00 AM 18.21 64.778 0.071 6.98 2.09 8.66
7/2/2021 7:00:00 AM 18.18 64.724 0.07 7.01 2.23 8.74
7/2/2021 7:15:00 AM 18.15 64.67 0.07 7.02 2.04 8.79
7/2/2021 7:30:00 AM 18.12 64.616 0.071 7.04 1.73 8.84
7/2/2021 7:45:00 AM 18.11 64.598 0.07 7.01 1.71 8.9
7/2/2021 8:00:00 AM 18.09 64.562 0.07 7.07 1.75 8.96
7/2/2021 8:15:00 AM 18.07 64.526 0.07 7.07 1.67 8.97
7/2/2021 8:30:00 AM 18.05 64.49 0.07 7.06 1.68 9.02
7/2/2021 8:45:00 AM 18.04 64.472 0.07 7.09 1.57 9.05
7/2/2021 9:00:00 AM 18.04 64.472 0.07 7.1 1.6 9.12
7/2/2021 9:15:00 AM 18.03 64.454 0.07 7.12 1.59 9.14
7/2/2021 9:30:00 AM 18 64.4 0.07 7.11 1.61 9.13
7/2/2021 9:45:00 AM 17.98 64.364 0.07 7.13 1.44 9.13
7/2/2021 10:00:00 AM 17.98 64.364 0.07 7.13 1.4 9.17
7/2/2021 10:15:00 AM 17.97 64.346 0.07 7.13 1.51 9.21
7/2/2021 10:30:00 AM 17.99 64.382 0.07 7.16 1.44 9.28
7/2/2021 10:45:00 AM 18.07 64.526 0.07 7.22 1.4 9.41
7/2/2021 11:00:00 AM 18.28 64.904 0.07 7.29 1.3 9.53
7/2/2021 11:15:00 AM 18.74 65.732 0.07 7.4 1.32 9.63
7/2/2021 11:30:00 AM 19.09 66.362 0.069 7.43 1.29 9.66
7/2/2021 11:45:00 AM 19.55 67.19 0.07 7.48 1.36 9.68
7/2/2021 12:00:00 PM 19.9 67.82 0.069 7.52 1.3 9.7
7/2/2021 12:15:00 PM 19.59 67.262 0.07 7.39 1.46 9.61
7/2/2021 12:30:00 PM 19.47 67.046 0.069 7.38 1.31 9.6
7/2/2021 12:45:00 PM 19.43 66.974 0.069 7.39 1.32 9.62
7/2/2021 1:00:00 PM 19.58 67.244 0.069 7.47 1.22 9.68
7/2/2021 1:15:00 PM 20.18 68.324 0.069 7.62 1.36 9.69
7/2/2021 1:30:00 PM 20.11 68.198 0.069 7.54 1.16 9.61
7/2/2021 1:45:00 PM 19.88 67.784 0.069 7.44 1.24 9.51
7/2/2021 2:00:00 PM 19.77 67.586 0.069 7.38 1.18 9.39
7/2/2021 2:15:00 PM 19.77 67.586 0.069 7.4 1.14 9.32
7/2/2021 2:30:00 PM 19.72 67.496 0.069 7.35 1.14 9.29
7/2/2021 2:45:00 PM 19.63 67.334 0.069 7.37 1.13 9.28
7/2/2021 3:00:00 PM 19.53 67.154 0.069 7.36 1.25 9.31
7/2/2021 3:15:00 PM 19.46 67.028 0.069 7.36 1.21 9.29
7/2/2021 3:30:00 PM 19.45 67.01 0.069 7.35 1.15 9.31
7/2/2021 3:45:00 PM 19.45 67.01 0.069 7.41 1.16 9.33
7/2/2021 4:00:00 PM 19.42 66.956 0.069 7.39 1.17 9.34
7/2/2021 4:15:00 PM 19.4 66.92 0.069 7.41 1.17 9.34
7/2/2021 4:30:00 PM 19.39 66.902 0.069 7.43 1.12 9.36
7/2/2021 4:45:00 PM 19.37 66.866 0.069 7.4 1.14 9.36
7/2/2021 5:00:00 PM 19.34 66.812 0.069 7.4 1.02 9.34
7/2/2021 5:15:00 PM 19.33 66.794 0.068 7.42 1.04 9.34
7/2/2021 5:30:00 PM 19.3 66.74 0.068 7.38 1.01 9.32
7/2/2021 5:45:00 PM 19.24 66.632 0.069 7.35 1.16 9.28
7/2/2021 6:00:00 PM 19.23 66.614 0.068 7.35 1.05 9.28
7/2/2021 6:15:00 PM 19.2 66.56 0.069 7.38 1.08 9.32
7/2/2021 6:30:00 PM 19.2 66.56 0.068 7.4 1.12 9.34
7/2/2021 6:45:00 PM 19.15 66.47 0.068 7.35 1.09 9.27
7/2/2021 7:00:00 PM 19.08 66.344 0.068 7.32 1.18 9.18
7/2/2021 7:15:00 PM 19.04 66.272 0.068 7.27 1.01 9.09
7/2/2021 7:30:00 PM 19 66.2 0.068 7.25 1.26 9.02
7/2/2021 7:45:00 PM 18.98 66.164 0.069 7.24 1.06 8.99
7/2/2021 8:00:00 PM 18.96 66.128 0.069 7.23 1.24 8.96
7/2/2021 8:15:00 PM 18.92 66.056 0.069 7.2 1.13 8.91
7/2/2021 8:30:00 PM 18.85 65.93 0.069 7.18 1.15 8.85
7/2/2021 8:45:00 PM 18.79 65.82201 0.069 7.13 1.33 8.78
7/2/2021 9:00:00 PM 18.76 65.768 0.073 7.15 1.51 8.71
7/2/2021 9:15:00 PM 18.72 65.696 0.076 7.13 1.69 8.65
7/2/2021 9:30:00 PM 18.65 65.57 0.077 7.12 1.68 8.63
7/2/2021 9:45:00 PM 18.59 65.462 0.077 7.1 2.08 8.61
7/2/2021 10:00:00 PM 18.53 65.354 0.077 7.07 1.96 8.6
7/2/2021 10:15:00 PM 18.46 65.228 0.077 7.08 2.08 8.6
7/2/2021 10:30:00 PM 18.39 65.102 0.078 7.06 2.52 8.6
7/2/2021 10:45:00 PM 18.32 64.976 0.078 7.07 2.44 8.61
7/2/2021 11:00:00 PM 18.25 64.85 0.077 7.07 2.56 8.62
7/2/2021 11:15:00 PM 18.18 64.724 0.078 7.05 2.46 8.63
7/2/2021 11:30:00 PM 18.11 64.598 0.077 7.05 2.58 8.64
7/2/2021 11:45:00 PM 18.04 64.472 0.077 7.05 2.42 8.65
7/3/2021 12:00:00 AM 17.96 64.328 0.077 7.02 2.79 8.67
7/3/2021 12:15:00 AM 17.89 64.202 0.076 7.05 2.89 8.69
7/3/2021 12:30:00 AM 17.82 64.076 0.076 7.02 2.96 8.7
7/3/2021 12:45:00 AM 17.75 63.95 0.076 7.03 2.83 8.72
7/3/2021 1:00:00 AM 17.69 63.842 0.076 7.05 3.25 8.74
7/3/2021 1:15:00 AM 17.62 63.716 0.076 7.05 2.55 8.76
7/3/2021 1:30:00 AM 17.56 63.608 0.076 7.04 3.04 8.78
7/3/2021 1:45:00 AM 17.5 63.5 0.075 7.01 3.04 8.8
7/3/2021 2:00:00 AM 17.43 63.374 0.074 7.04 3.26 8.81
7/3/2021 2:15:00 AM 17.38 63.284 0.074 7.01 3.05 8.82
7/3/2021 2:30:00 AM 17.32 63.176 0.073 7.03 3.27 8.83
7/3/2021 2:45:00 AM 17.26 63.068 0.072 7.03 3.01 8.85
7/3/2021 3:00:00 AM 17.21 62.978 0.071 7.04 2.97 8.86
7/3/2021 3:15:00 AM 17.15 62.87 0.071 7.02 2.8 8.87
7/3/2021 3:30:00 AM 17.1 62.78 0.07 7.02 3.09 8.88
7/3/2021 3:45:00 AM 17.05 62.69 0.07 7.03 2.64 8.89
7/3/2021 4:00:00 AM 17 62.6 0.069 7 2.75 8.9
7/3/2021 4:15:00 AM 16.95 62.51 0.069 7.02 2.5 8.91
7/3/2021 4:30:00 AM 16.91 62.438 0.069 7.01 2.63 8.92
7/3/2021 4:45:00 AM 16.86 62.348 0.069 7.03 2.42 8.93
7/3/2021 5:00:00 AM 16.82 62.276 0.069 7.01 2.41 8.94
7/3/2021 5:15:00 AM 16.78 62.204 0.069 7.02 2.3 8.95
7/3/2021 5:30:00 AM 16.73 62.114 0.069 6.98 2.24 8.96
7/3/2021 5:45:00 AM 16.69 62.042 0.07 7.01 2.09 8.97
7/3/2021 6:00:00 AM 16.66 61.988 0.07 7.03 1.98 8.99
7/3/2021 6:15:00 AM 16.63 61.934 0.07 7.02 1.9 9.01
7/3/2021 6:30:00 AM 16.6 61.88 0.07 7 1.7 9.04
7/3/2021 6:45:00 AM 16.57 61.826 0.07 7.02 1.97 9.06
7/3/2021 7:00:00 AM 16.54 61.772 0.07 7.04 1.78 9.08
7/3/2021 7:15:00 AM 16.51 61.718 0.07 7.03 1.6 9.11
7/3/2021 7:30:00 AM 16.49 61.682 0.07 7.05 1.55 9.15
7/3/2021 7:45:00 AM 16.48 61.664 0.07 7.04 1.61 9.21
7/3/2021 8:00:00 AM 16.49 61.682 0.07 7.09 1.63 9.3
7/3/2021 8:15:00 AM 16.51 61.718 0.07 7.12 1.47 9.4
7/3/2021 8:30:00 AM 16.57 61.826 0.07 7.12 1.49 9.49
7/3/2021 8:45:00 AM 16.59 61.862 0.07 7.18 1.45 9.57
7/3/2021 9:00:00 AM 16.69 62.042 0.07 7.21 2.41 9.66
7/3/2021 9:15:00 AM 16.83 62.294 0.07 7.26 1.42 9.73
7/3/2021 9:30:00 AM 16.8 62.24 0.07 7.24 1.44 9.78
7/3/2021 9:45:00 AM 16.82 62.276 0.07 7.28 1.39 9.79
7/3/2021 10:00:00 AM 16.84 62.312 0.07 7.28 1.33 9.79
7/3/2021 10:15:00 AM 16.88 62.384 0.069 7.26 1.31 9.78
7/3/2021 10:30:00 AM 16.9 62.42 0.07 7.31 1.23 9.8
7/3/2021 10:45:00 AM 16.99 62.582 0.069 7.33 1.21 9.87
7/3/2021 11:00:00 AM 17.24 63.032 0.069 7.41 1.32 9.94
7/3/2021 11:15:00 AM 17.33 63.194 0.069 7.45 1.21 9.98
7/3/2021 11:30:00 AM 17.56 63.608 0.069 7.48 1.15 10
7/3/2021 11:45:00 AM 17.71 63.878 0.069 7.52 1.18 10
7/3/2021 12:00:00 PM 18.01 64.418 0.069 7.57 1.14 10.03
7/3/2021 12:15:00 PM 18.28 64.904 0.069 7.6 1.23 10.03
7/3/2021 12:30:00 PM 18.25 64.85 0.069 7.57 1.14 9.99
7/3/2021 12:45:00 PM 18.61 65.498 0.069 7.65 1.15 9.94
7/3/2021 1:00:00 PM 18.64 65.552 0.069 7.59 1.52 9.9
7/3/2021 1:15:00 PM 18.85 65.93 0.069 7.62 1.29 9.91
7/3/2021 1:30:00 PM 19.21 66.578 0.068 7.7 1.15 9.91
7/3/2021 1:45:00 PM 19.43 66.974 0.069 7.74 1.07 9.91
7/3/2021 2:00:00 PM 19.59 67.262 0.068 7.71 1.34 9.82
7/3/2021 2:15:00 PM 19.68 67.424 0.069 7.72 1.21 9.77
7/3/2021 2:30:00 PM 19.6 67.28 0.068 7.63 1.17 9.69
7/3/2021 2:45:00 PM 19.97 67.946 0.069 7.67 1.01 9.58
7/3/2021 3:00:00 PM 19.9 67.82 0.069 7.65 1.05 9.62
7/3/2021 3:15:00 PM 19.84 67.712 0.069 7.64 1.06 9.61
7/3/2021 3:30:00 PM 20.06 68.108 0.068 7.67 1.05 9.62
7/3/2021 3:45:00 PM 20.42 68.756 0.068 7.74 1.11 9.6
7/3/2021 4:00:00 PM 20.67 69.206 0.069 7.76 0.91 9.59
7/3/2021 4:15:00 PM 20.67 69.206 0.069 7.71 1.06 9.51
7/3/2021 4:30:00 PM 20.55 68.99 0.069 7.65 0.89 9.46
7/3/2021 4:45:00 PM 20.75 69.35 0.069 7.65 0.95 9.44
7/3/2021 5:00:00 PM 20.74 69.332 0.069 7.68 0.94 9.38
7/3/2021 5:15:00 PM 20.77 69.386 0.069 7.59 0.92 9.31
7/3/2021 5:30:00 PM 20.76 69.368 0.069 7.57 0.85 9.23
7/3/2021 5:45:00 PM 20.7 69.26 0.069 7.51 0.94 9.17
7/3/2021 6:00:00 PM 20.71 69.278 0.069 7.51 0.89 9.15
7/3/2021 6:15:00 PM 20.67 69.206 0.069 7.45 0.88 9.08
7/3/2021 6:30:00 PM 20.66 69.188 0.069 7.45 0.9 9.05
7/3/2021 6:45:00 PM 20.65 69.17 0.069 7.42 1.1 9
7/3/2021 7:00:00 PM 20.63 69.134 0.069 7.39 0.87 8.95
7/3/2021 7:15:00 PM 20.62 69.116 0.069 7.35 0.92 8.9
7/3/2021 7:30:00 PM 20.59 69.062 0.07 7.31 0.85 8.82
7/3/2021 7:45:00 PM 20.55 68.99 0.069 7.3 0.86 8.77
7/3/2021 8:00:00 PM 20.49 68.882 0.07 7.24 1.01 8.7
7/3/2021 8:15:00 PM 20.4 68.72 0.07 7.21 1.01 8.62
7/3/2021 8:30:00 PM 20.3 68.54 0.07 7.14 1.02 8.54
7/3/2021 8:45:00 PM 20.19 68.342 0.071 7.14 0.99 8.47
7/3/2021 9:00:00 PM 20.09 68.162 0.071 7.08 1.02 8.4
7/3/2021 9:15:00 PM 20 68 0.071 7.07 1.27 8.35
7/3/2021 9:30:00 PM 19.91 67.838 0.071 7.06 1.24 8.32
7/3/2021 9:45:00 PM 19.82 67.676 0.071 7.04 1.19 8.29
7/3/2021 10:00:00 PM 19.73 67.514 0.071 7.01 1.27 8.28
7/3/2021 10:15:00 PM 19.65 67.37 0.071 7.03 1.68 8.28
7/3/2021 10:30:00 PM 19.56 67.208 0.071 7 1.67 8.27
7/3/2021 10:45:00 PM 19.46 67.028 0.071 6.97 1.67 8.28
7/3/2021 11:00:00 PM 19.36 66.848 0.072 7 1.69 8.29
7/3/2021 11:15:00 PM 19.25 66.65 0.072 6.95 1.67 8.3
7/3/2021 11:30:00 PM 19.15 66.47 0.072 6.98 1.65 8.31
7/3/2021 11:45:00 PM 19.05 66.29 0.072 6.97 1.63 8.33
7/4/2021 12:00:00 AM 18.95 66.11 0.072 6.97 1.8 8.34
7/4/2021 12:15:00 AM 18.84 65.912 0.072 6.97 1.54 8.37
7/4/2021 12:30:00 AM 18.74 65.732 0.072 6.96 1.64 8.38
7/4/2021 12:45:00 AM 18.63 65.534 0.072 6.96 1.55 8.4
7/4/2021 1:00:00 AM 18.53 65.354 0.072 6.93 1.56 8.42
7/4/2021 1:15:00 AM 18.42 65.156 0.072 6.97 1.61 8.44
7/4/2021 1:30:00 AM 18.32 64.976 0.072 6.94 1.69 8.46
7/4/2021 1:45:00 AM 18.22 64.796 0.073 6.94 1.71 8.48
7/4/2021 2:00:00 AM 18.12 64.616 0.072 6.94 1.57 8.5
7/4/2021 2:15:00 AM 18.03 64.454 0.073 6.95 1.5 8.53
7/4/2021 2:30:00 AM 17.97 64.346 0.073 6.97 1.35 8.54
7/4/2021 2:45:00 AM 17.9 64.22 0.073 6.97 1.46 8.57
7/4/2021 3:00:00 AM 17.82 64.076 0.073 6.98 1.54 8.58
7/4/2021 3:15:00 AM 17.75 63.95 0.073 6.96 1.46 8.59
7/4/2021 3:30:00 AM 17.67 63.806 0.073 6.98 1.32 8.61
7/4/2021 3:45:00 AM 17.59 63.662 0.073 6.98 1.42 8.63
7/4/2021 4:00:00 AM 17.52 63.536 0.073 6.96 1.46 8.65
7/4/2021 4:15:00 AM 17.43 63.374 0.074 6.98 1.52 8.67
7/4/2021 4:30:00 AM 17.36 63.248 0.074 6.95 1.23 8.68
7/4/2021 4:45:00 AM 17.28 63.104 0.075 6.99 1.31 8.7
7/4/2021 5:00:00 AM 17.22 62.996 0.074 6.99 1.26 8.72
7/4/2021 5:15:00 AM 17.15 62.87 0.074 6.96 1.37 8.74
7/4/2021 5:30:00 AM 17.08 62.744 0.074 6.98 1.38 8.75
7/4/2021 5:45:00 AM 17.01 62.618 0.073 6.97 1.21 8.78
7/4/2021 6:00:00 AM 16.96 62.528 0.074 6.98 1.17 8.79
7/4/2021 6:15:00 AM 16.9 62.42 0.074 6.98 1.33 8.83
7/4/2021 6:30:00 AM 16.83 62.294 0.074 7.01 1.08 8.87
7/4/2021 6:45:00 AM 16.78 62.204 0.074 6.99 1.06 8.92
7/4/2021 7:00:00 AM 16.73 62.114 0.074 7.02 1.33 8.99
7/4/2021 7:15:00 AM 16.69 62.042 0.074 7.03 0.95 9.07
7/4/2021 7:30:00 AM 16.66 61.988 0.073 7.06 1.04 9.17
7/4/2021 7:45:00 AM 16.62 61.916 0.074 7.06 0.89 9.27
7/4/2021 8:00:00 AM 16.62 61.916 0.073 7.12 0.92 9.4
7/4/2021 8:15:00 AM 16.66 61.988 0.073 7.16 0.99 9.54
7/4/2021 8:30:00 AM 16.72 62.096 0.073 7.19 0.76 9.66
7/4/2021 8:45:00 AM 16.79 62.222 0.073 7.21 0.86 9.71
7/4/2021 9:00:00 AM 16.95 62.51 0.073 7.26 1.36 9.75
7/4/2021 9:15:00 AM 17.09 62.762 0.073 7.29 0.78 9.76
7/4/2021 9:30:00 AM 17.25 63.05 0.073 7.32 0.79 9.79
7/4/2021 9:45:00 AM 17.44 63.392 0.073 7.34 0.91 9.81
7/4/2021 10:00:00 AM 17.66 63.788 0.073 7.37 1.15 9.83
7/4/2021 10:15:00 AM 17.87 64.166 0.073 7.4 0.73 9.85
7/4/2021 10:30:00 AM 18.14 64.652 0.073 7.41 0.76 9.86
7/4/2021 10:45:00 AM 18.42 65.156 0.073 7.45 0.67 9.87
7/4/2021 11:00:00 AM 18.7 65.66 0.073 7.46 0.65 9.88
7/4/2021 11:15:00 AM 19.03 66.254 0.073 7.52 0.66 9.88
7/4/2021 11:30:00 AM 19.33 66.794 0.072 7.56 0.69 9.87
7/4/2021 11:45:00 AM 19.67 67.406 0.073 7.59 0.65 9.86
7/4/2021 12:00:00 PM 19.97 67.946 0.072 7.59 0.69 9.84
7/4/2021 12:15:00 PM 20.33 68.594 0.072 7.65 0.77 9.83
7/4/2021 12:30:00 PM 20.64 69.152 0.072 7.65 0.62 9.8
7/4/2021 12:45:00 PM 20.96 69.728 0.072 7.71 0.91 9.78
7/4/2021 1:00:00 PM 21.26 70.268 0.072 7.71 0.67 9.75
7/4/2021 1:15:00 PM 21.55 70.79 0.072 7.77 0.72 9.71
7/4/2021 1:30:00 PM 21.92 71.456 0.072 7.78 0.6 9.68
7/4/2021 1:45:00 PM 22.29 72.122 0.072 7.83 0.65 9.65
7/4/2021 2:00:00 PM 22.57 72.626 0.071 7.87 0.65 9.6
7/4/2021 2:15:00 PM 22.63 72.734 0.071 7.85 0.66 9.56
7/4/2021 2:30:00 PM 22.98 73.364 0.071 7.87 0.69 9.49
7/4/2021 2:45:00 PM 22.65 72.77 0.071 7.82 0.67 9.39
7/4/2021 3:00:00 PM 22.87 73.166 0.071 7.79 0.61 9.34
7/4/2021 3:15:00 PM 23.25 73.85 0.071 7.78 0.8 9.29
7/4/2021 3:30:00 PM 23.28 73.904 0.071 7.81 0.63 9.18
7/4/2021 3:45:00 PM 23.15 73.67 0.071 7.76 0.68 9.17
7/4/2021 4:00:00 PM 23.41 74.138 0.071 7.76 0.6 9.16
7/4/2021 4:15:00 PM 23.48 74.264 0.071 7.77 0.68 9.13
7/4/2021 4:30:00 PM 23.53 74.354 0.071 7.76 0.84 9.07
7/4/2021 4:45:00 PM 23.55 74.39 0.071 7.71 0.62 9.03
7/4/2021 5:00:00 PM 23.44 74.192 0.071 7.7 0.6 8.99
7/4/2021 5:15:00 PM 23.39 74.102 0.071 7.66 0.67 8.92
7/4/2021 5:30:00 PM 23.36 74.048 0.071 7.62 0.66 8.87
7/4/2021 5:45:00 PM 23.29 73.922 0.071 7.56 0.68 8.8
7/4/2021 6:00:00 PM 23.21 73.778 0.072 7.51 0.63 8.74
7/4/2021 6:15:00 PM 23.07 73.526 0.072 7.45 0.72 8.66
7/4/2021 6:30:00 PM 22.96 73.328 0.072 7.4 0.69 8.61
7/4/2021 6:45:00 PM 22.87 73.166 0.072 7.37 0.72 8.55
7/4/2021 7:00:00 PM 22.79 73.022 0.072 7.35 0.69 8.51
7/4/2021 7:15:00 PM 22.67 72.806 0.072 7.27 0.69 8.46
7/4/2021 7:30:00 PM 22.55 72.59 0.072 7.27 0.66 8.4
7/4/2021 7:45:00 PM 22.41 72.338 0.072 7.23 0.82 8.33
7/4/2021 8:00:00 PM 22.27 72.086 0.072 7.18 1.04 8.27
7/4/2021 8:15:00 PM 22.11 71.798 0.072 7.14 0.76 8.2
7/4/2021 8:30:00 PM 21.95 71.51 0.072 7.1 0.9 8.13
7/4/2021 8:45:00 PM 21.79 71.222 0.073 7.08 0.87 8.08
7/4/2021 9:00:00 PM 21.63 70.934 0.073 7.06 0.79 8.02
7/4/2021 9:15:00 PM 21.49 70.682 0.073 7.03 1 7.98
7/4/2021 9:30:00 PM 21.36 70.448 0.073 7.03 1.01 7.95
7/4/2021 9:45:00 PM 21.24 70.232 0.073 7.03 1.04 7.93
7/4/2021 10:00:00 PM 21.12 70.016 0.073 7.01 1 7.92
7/4/2021 10:15:00 PM 21.01 69.818 0.073 7.02 1.12 7.91
7/4/2021 10:30:00 PM 20.91 69.638 0.074 7 1.16 7.91
7/4/2021 10:45:00 PM 20.8 69.44 0.074 6.96 1.18 7.93
7/4/2021 11:00:00 PM 20.7 69.26 0.074 7 1.2 7.94
7/4/2021 11:15:00 PM 20.6 69.08 0.073 6.97 1.27 7.95
7/4/2021 11:30:00 PM 20.5 68.9 0.074 6.98 1.18 7.97
7/4/2021 11:45:00 PM 20.39 68.702 0.074 6.98 1.48 7.98
7/5/2021 12:00:00 AM 20.28 68.504 0.074 6.96 1.29 8.01
7/5/2021 12:15:00 AM 20.18 68.324 0.074 6.98 1.15 8.03
7/5/2021 12:30:00 AM 20.07 68.126 0.074 6.98 1.24 8.04
7/5/2021 12:45:00 AM 19.97 67.946 0.074 6.97 1.24 8.06
7/5/2021 1:00:00 AM 19.86 67.748 0.074 6.97 1.35 8.09
7/5/2021 1:15:00 AM 19.76 67.568 0.074 6.97 1.44 8.1
7/5/2021 1:30:00 AM 19.66 67.388 0.074 6.97 1.37 8.12
7/5/2021 1:45:00 AM 19.56 67.208 0.074 6.98 1.26 8.15
7/5/2021 2:00:00 AM 19.45 67.01 0.075 6.97 1.25 8.17
7/5/2021 2:15:00 AM 19.35 66.83 0.074 6.96 1.45 8.2
7/5/2021 2:30:00 AM 19.26 66.668 0.075 6.96 1.22 8.21
7/5/2021 2:45:00 AM 19.16 66.488 0.075 6.96 1.14 8.24
7/5/2021 3:00:00 AM 19.06 66.308 0.075 6.97 1.21 8.26
7/5/2021 3:15:00 AM 18.96 66.128 0.075 6.95 1.51 8.28
7/5/2021 3:30:00 AM 18.87 65.966 0.075 6.98 1.11 8.3
7/5/2021 3:45:00 AM 18.79 65.82201 0.075 6.98 1.36 8.32
7/5/2021 4:00:00 AM 18.71 65.67799 0.075 6.98 1.15 8.33
7/5/2021 4:15:00 AM 18.65 65.57 0.075 6.97 1.27 8.36
7/5/2021 4:30:00 AM 18.58 65.444 0.075 6.96 1.09 8.37
7/5/2021 4:45:00 AM 18.51 65.318 0.075 6.99 1.13 8.39
7/5/2021 5:00:00 AM 18.44 65.192 0.075 6.96 1.25 8.41
7/5/2021 5:15:00 AM 18.37 65.066 0.075 6.98 1.13 8.43
7/5/2021 5:30:00 AM 18.31 64.958 0.076 6.97 1.17 8.45
7/5/2021 5:45:00 AM 18.25 64.85 0.076 6.99 1.05 8.46
7/5/2021 6:00:00 AM 18.19 64.742 0.076 6.98 1.09 8.49
7/5/2021 6:15:00 AM 18.13 64.634 0.077 7.01 0.94 8.53
7/5/2021 6:30:00 AM 18.08 64.544 0.076 6.99 1.16 8.59
7/5/2021 6:45:00 AM 18.03 64.454 0.075 7.02 0.91 8.65
7/5/2021 7:00:00 AM 17.99 64.382 0.075 7.05 0.87 8.72
7/5/2021 7:15:00 AM 17.96 64.328 0.075 7.03 0.91 8.8
7/5/2021 7:30:00 AM 17.94 64.292 0.075 7.06 0.86 8.91
7/5/2021 7:45:00 AM 17.93 64.274 0.075 7.08 0.83 9.01
7/5/2021 8:00:00 AM 17.93 64.274 0.075 7.12 0.78 9.12
7/5/2021 8:15:00 AM 17.94 64.292 0.074 7.14 0.73 9.26
7/5/2021 8:30:00 AM 17.96 64.328 0.074 7.2 0.73 9.39
7/5/2021 8:45:00 AM 18.09 64.562 0.074 7.25 1.01 9.53
7/5/2021 9:00:00 AM 18.25 64.85 0.074 7.3 0.75 9.62
7/5/2021 9:15:00 AM 18.4 65.12 0.074 7.35 0.78 9.69
7/5/2021 9:30:00 AM 18.57 65.426 0.074 7.39 1.03 9.73
7/5/2021 9:45:00 AM 18.74 65.732 0.074 7.42 0.93 9.79
7/5/2021 10:00:00 AM 18.97 66.146 0.074 7.48 0.96 9.85
7/5/2021 10:15:00 AM 19.16 66.488 0.074 7.49 0.92 9.89
7/5/2021 10:30:00 AM 19.41 66.938 0.074 7.54 0.73 9.91
7/5/2021 10:45:00 AM 19.65 67.37 0.073 7.6 0.72 9.95
7/5/2021 11:00:00 AM 19.94 67.892 0.073 7.64 0.73 9.97
7/5/2021 11:15:00 AM 20.24 68.432 0.073 7.72 1.09 9.98
7/5/2021 11:30:00 AM 20.55 68.99 0.073 7.74 0.73 9.98
7/5/2021 11:45:00 AM 20.84 69.512 0.073 7.84 0.77 9.97
7/5/2021 12:00:00 PM 21.2 70.16 0.073 7.9 0.76 9.96
7/5/2021 12:15:00 PM 21.54 70.772 0.073 7.94 0.75 9.94
7/5/2021 12:30:00 PM 21.86 71.348 0.073 7.99 0.72 9.92
7/5/2021 12:45:00 PM 22.17 71.906 0.073 8.03 0.75 9.89
7/5/2021 1:00:00 PM 22.52 72.536 0.073 8.05 0.81 9.86
7/5/2021 1:15:00 PM 22.78 73.004 0.073 8.11 0.76 9.82
7/5/2021 1:30:00 PM 23.06 73.508 0.072 8.15 0.63 9.78
7/5/2021 1:45:00 PM 23.36 74.048 0.072 8.18 0.69 9.73
7/5/2021 2:00:00 PM 23.35 74.03 0.072 8.17 0.63 9.67
7/5/2021 2:15:00 PM 23.48 74.264 0.072 8.16 0.67 9.6
7/5/2021 2:30:00 PM 23.44 74.192 0.072 8.12 0.61 9.55
7/5/2021 2:45:00 PM 23.49 74.282 0.072 8.09 0.64 9.46
7/5/2021 3:00:00 PM 23.57 74.426 0.072 8.03 0.68 9.43
7/5/2021 3:15:00 PM 23.83 74.894 0.072 8.09 0.74 9.37
7/5/2021 3:30:00 PM 23.98 75.164 0.072 8.07 0.87 9.31
7/5/2021 3:45:00 PM 24.02 75.236 0.072 8.08 0.61 9.28
7/5/2021 4:00:00 PM 24.26 75.668 0.072 8.1 0.63 9.26
7/5/2021 4:15:00 PM 24.45 76.01 0.072 8.12 0.65 9.22
7/5/2021 4:30:00 PM 24.58 76.244 0.072 8.09 0.62 9.18
7/5/2021 4:45:00 PM 24.49 76.082 0.072 8.04 0.73 9.07
7/5/2021 5:00:00 PM 24.49 76.082 0.072 8 0.65 9.02
7/5/2021 5:15:00 PM 24.49 76.082 0.072 7.96 0.72 8.96
7/5/2021 5:30:00 PM 24.51 76.118 0.072 7.93 0.78 8.93
7/5/2021 5:45:00 PM 24.48 76.064 0.072 7.87 0.71 8.85
7/5/2021 6:00:00 PM 24.45 76.01 0.072 7.79 0.66 8.79
7/5/2021 6:15:00 PM 24.4 75.92 0.072 7.75 0.62 8.73
7/5/2021 6:30:00 PM 24.33 75.794 0.072 7.67 0.75 8.65
7/5/2021 6:45:00 PM 24.26 75.668 0.072 7.64 1.05 8.56
7/5/2021 7:00:00 PM 24.18 75.524 0.072 7.56 0.61 8.48
7/5/2021 7:15:00 PM 24.08 75.344 0.072 7.45 0.76 8.4
7/5/2021 7:30:00 PM 23.98 75.164 0.072 7.41 0.72 8.3
7/5/2021 7:45:00 PM 23.86 74.948 0.073 7.34 0.72 8.22
7/5/2021 8:00:00 PM 23.74 74.732 0.073 7.3 0.82 8.11
7/5/2021 8:15:00 PM 23.62 74.516 0.073 7.25 0.78 8
7/5/2021 8:30:00 PM 23.49 74.282 0.073 7.19 0.73 7.89
7/5/2021 8:45:00 PM 23.37 74.066 0.074 7.17 0.75 7.79
7/5/2021 9:00:00 PM 23.26 73.868 0.074 7.11 1.23 7.7
7/5/2021 9:15:00 PM 23.15 73.67 0.074 7.1 0.9 7.65
7/5/2021 9:30:00 PM 23.04 73.472 0.074 7.09 1.2 7.6
7/5/2021 9:45:00 PM 22.94 73.292 0.074 7.08 1 7.57
7/5/2021 10:00:00 PM 22.85 73.13 0.074 7.07 1.43 7.55
7/5/2021 10:15:00 PM 22.76 72.968 0.075 7.07 1.04 7.53
7/5/2021 10:30:00 PM 22.68 72.824 0.075 7.03 1.03 7.53
7/5/2021 10:45:00 PM 22.6 72.68 0.075 7.04 1.15 7.53
7/5/2021 11:00:00 PM 22.52 72.536 0.075 7.02 1.22 7.53
7/5/2021 11:15:00 PM 22.44 72.392 0.075 7.04 1.34 7.54
7/5/2021 11:30:00 PM 22.37 72.266 0.075 7.03 1.1 7.55
7/5/2021 11:45:00 PM 22.29 72.122 0.075 7.03 1.28 7.55
7/6/2021 12:00:00 AM 22.21 71.978 0.075 7 1.19 7.57
7/6/2021 12:15:00 AM 22.14 71.852 0.075 7.03 1.25 7.57
7/6/2021 12:30:00 AM 22.06 71.708 0.075 6.99 1.34 7.58
7/6/2021 12:45:00 AM 21.99 71.582 0.075 7.02 1.23 7.59
7/6/2021 1:00:00 AM 21.91 71.438 0.075 7.03 1.18 7.61
7/6/2021 1:15:00 AM 21.84 71.312 0.075 7.02 1.2 7.63
7/6/2021 1:30:00 AM 21.76 71.168 0.076 7.01 1.39 7.65
7/6/2021 1:45:00 AM 21.69 71.042 0.075 6.99 2.57 7.66
7/6/2021 2:00:00 AM 21.62 70.916 0.076 7.01 1.31 7.68
7/6/2021 2:15:00 AM 21.56 70.808 0.075 7.04 1.32 7.69
7/6/2021 2:30:00 AM 21.5 70.7 0.076 7.03 1.25 7.7
7/6/2021 2:45:00 AM 21.44 70.592 0.076 7.02 1.26 7.72
7/6/2021 3:00:00 AM 21.38 70.484 0.076 7.02 1.3 7.73
7/6/2021 3:15:00 AM 21.31 70.358 0.076 7.01 1.27 7.74
7/6/2021 3:30:00 AM 21.25 70.25 0.076 7.01 1.11 7.75
7/6/2021 3:45:00 AM 21.2 70.16 0.076 7.02 1.38 7.77
7/6/2021 4:00:00 AM 21.14 70.052 0.076 7.02 1.13 7.78
7/6/2021 4:15:00 AM 21.08 69.944 0.076 7 1.22 7.8
7/6/2021 4:30:00 AM 21.03 69.854 0.076 7.02 1.38 7.8
7/6/2021 4:45:00 AM 20.97 69.746 0.076 7.02 1.36 7.81
7/6/2021 5:00:00 AM 20.92 69.656 0.076 7.03 1.48 7.84
7/6/2021 5:15:00 AM 20.87 69.566 0.076 7.02 1.12 7.84
7/6/2021 5:30:00 AM 20.81 69.458 0.076 7.02 1.11 7.86
7/6/2021 5:45:00 AM 20.76 69.368 0.076 6.99 1.17 7.87
7/6/2021 6:00:00 AM 20.69 69.242 0.077 7.02 1.32 7.89
7/6/2021 6:15:00 AM 20.64 69.152 0.076 7.03 0.98 7.94
7/6/2021 6:30:00 AM 20.59 69.062 0.076 7.04 1.06 8
7/6/2021 6:45:00 AM 20.55 68.99 0.076 7 0.97 8.08
7/6/2021 7:00:00 AM 20.52 68.936 0.076 7.04 0.95 8.17
7/6/2021 7:15:00 AM 20.5 68.9 0.076 7.06 1.8 8.28
7/6/2021 7:30:00 AM 20.49 68.882 0.076 7.08 0.82 8.41
7/6/2021 7:45:00 AM 20.5 68.9 0.076 7.12 0.84 8.55
7/6/2021 8:00:00 AM 20.53 68.954 0.076 7.14 0.81 8.69
7/6/2021 8:15:00 AM 20.62 69.116 0.076 7.18 0.85 8.83
7/6/2021 8:30:00 AM 20.72 69.296 0.076 7.22 0.82 8.93
7/6/2021 8:45:00 AM 20.83 69.494 0.075 7.25 0.81 9.04
7/6/2021 9:00:00 AM 20.94 69.692 0.075 7.3 0.77 9.13
7/6/2021 9:15:00 AM 21.06 69.908 0.075 7.36 0.85 9.2
7/6/2021 9:30:00 AM 21.28 70.304 0.075 7.42 0.81 9.28
7/6/2021 9:45:00 AM 21.46 70.628 0.075 7.45 0.88 9.34
7/6/2021 10:00:00 AM 21.6 70.88 0.075 7.49 0.74 9.35
7/6/2021 10:15:00 AM 21.85 71.33 0.075 7.55 0.83 9.41
7/6/2021 10:30:00 AM 22.14 71.852 0.075 7.61 0.7 9.46
7/6/2021 10:45:00 AM 22.43 72.374 0.075 7.68 0.91 9.48
7/6/2021 11:00:00 AM 22.68 72.824 0.074 7.7 0.89 9.5
7/6/2021 11:15:00 AM 22.9 73.22 0.074 7.79 0.66 9.5
7/6/2021 11:30:00 AM 23.13 73.634 0.074 7.83 0.8 9.5
7/6/2021 11:45:00 AM 23.19 73.742 0.074 7.82 0.84 9.45
7/6/2021 12:00:00 PM 23.51 74.318 0.074 7.91 0.83 9.45
7/6/2021 12:15:00 PM 23.9 75.02 0.074 7.96 0.71 9.44
7/6/2021 12:30:00 PM 24.22 75.596 0.074 7.99 0.74 9.45
7/6/2021 12:45:00 PM 24.4 75.92 0.074 8.04 0.76 9.41
7/6/2021 1:00:00 PM 24.68 76.424 0.074 8.1 0.79 9.41
7/6/2021 1:15:00 PM 24.72 76.496 0.073 8.14 0.95 9.41
7/6/2021 1:30:00 PM 24.54 76.172 0.073 8.13 0.58 9.35
7/6/2021 1:45:00 PM 24.41 75.938 0.073 8.07 0.74 9.28
7/6/2021 2:00:00 PM 24.31 75.758 0.073 8.08 0.85 9.26
7/6/2021 2:15:00 PM 24.32 75.776 0.073 8.1 0.65 9.23
7/6/2021 2:30:00 PM 24.45 76.01 0.073 8.15 0.67 9.27
7/6/2021 2:45:00 PM 24.92 76.856 0.073 8.18 0.66 9.24
7/6/2021 3:00:00 PM 25.27 77.486 0.073 8.22 0.66 9.22
7/6/2021 3:15:00 PM 25.57 78.026 0.073 8.24 0.71 9.2
7/6/2021 3:30:00 PM 25.68 78.224 0.073 8.25 0.68 9.14
7/6/2021 3:45:00 PM 25.31 77.558 0.073 8.13 0.72 9
7/6/2021 4:00:00 PM 25.09 77.162 0.073 8.01 0.66 8.81
7/6/2021 4:15:00 PM 24.93 76.874 0.073 7.85 0.67 8.64
7/6/2021 4:30:00 PM 24.81 76.658 0.073 7.7 0.61 8.44
7/6/2021 4:45:00 PM 24.72 76.496 0.073 7.61 0.68 8.33
7/6/2021 5:00:00 PM 24.64 76.352 0.073 7.55 0.69 8.29
7/6/2021 5:15:00 PM 24.55 76.19 0.074 7.54 0.88 8.27
7/6/2021 5:30:00 PM 24.44 75.992 0.074 7.47 0.97 8.16
7/6/2021 5:45:00 PM 24.32 75.776 0.074 7.44 0.73 8.17
7/6/2021 6:00:00 PM 24.23 75.614 0.074 7.4 0.72 8.19
7/6/2021 6:15:00 PM 24.23 75.614 0.074 7.45 0.66 8.31
7/6/2021 6:30:00 PM 24.19 75.542 0.074 7.43 1.11 8.34
7/6/2021 6:45:00 PM 24.12 75.416 0.074 7.44 1.14 8.33
7/6/2021 7:00:00 PM 24.02 75.236 0.074 7.4 0.85 8.21
7/6/2021 7:15:00 PM 23.94 75.092 0.074 7.36 0.68 8.13
7/6/2021 7:30:00 PM 23.86 74.948 0.074 7.34 1.27 8.04
7/6/2021 7:45:00 PM 23.78 74.804 0.075 7.31 0.79 7.95
7/6/2021 8:00:00 PM 23.71 74.67799 0.075 7.29 0.97 7.93
7/6/2021 8:15:00 PM 23.66 74.588 0.075 7.24 0.78 7.89
7/6/2021 8:30:00 PM 23.59 74.462 0.075 7.23 0.68 7.85
7/6/2021 8:45:00 PM 23.49 74.282 0.075 7.2 0.82 7.78
7/6/2021 9:00:00 PM 23.38 74.084 0.075 7.17 2.21 7.7
7/6/2021 9:15:00 PM 23.28 73.904 0.076 7.15 0.9 7.63
7/6/2021 9:30:00 PM 23.18 73.724 0.076 7.15 0.93 7.58
7/6/2021 9:45:00 PM 23.08 73.544 0.076 7.13 0.99 7.54
7/6/2021 10:00:00 PM 23 73.4 0.076 7.11 1.06 7.52
7/6/2021 10:15:00 PM 22.9 73.22 0.076 7.11 0.9 7.5
7/6/2021 10:30:00 PM 22.82 73.076 0.076 7.09 1.11 7.5
7/6/2021 10:45:00 PM 22.74 72.932 0.076 7.08 1.42 7.49
7/6/2021 11:00:00 PM 22.68 72.824 0.076 7.04 1.28 7.48
7/6/2021 11:15:00 PM 22.61 72.698 0.076 7.07 1.1 7.5
7/6/2021 11:30:00 PM 22.57 72.626 0.076 7.08 1.1 7.49
7/6/2021 11:45:00 PM 22.52 72.536 0.076 7.07 1.21 7.51
7/7/2021 12:00:00 AM 22.47 72.446 0.076 7.03 1.19 7.52
7/7/2021 12:15:00 AM 22.42 72.356 0.076 7.05 1.21 7.53
7/7/2021 12:30:00 AM 22.38 72.284 0.076 7.04 1.13 7.53
7/7/2021 12:45:00 AM 22.33 72.194 0.076 7.02 1.06 7.55
7/7/2021 1:00:00 AM 22.29 72.122 0.076 7.05 1.1 7.56
7/7/2021 1:15:00 AM 22.24 72.032 0.076 7.04 1.21 7.57
7/7/2021 1:30:00 AM 22.19 71.942 0.076 7.03 1.24 7.58
7/7/2021 1:45:00 AM 22.14 71.852 0.077 7.06 1.14 7.59
7/7/2021 2:00:00 AM 22.1 71.78 0.077 7.06 1.04 7.6
7/7/2021 2:15:00 AM 22.05 71.69 0.076 7.05 1.15 7.61
7/7/2021 2:30:00 AM 22 71.6 0.077 7.07 1.24 7.62
7/7/2021 2:45:00 AM 21.96 71.528 0.076 7.07 1.23 7.63
7/7/2021 3:00:00 AM 21.91 71.438 0.076 7.05 1.25 7.65
7/7/2021 3:15:00 AM 21.87 71.366 0.076 7.06 1.36 7.65
7/7/2021 3:30:00 AM 21.82 71.276 0.076 7.07 1.24 7.66
7/7/2021 3:45:00 AM 21.77 71.186 0.076 7.07 1.48 7.68
7/7/2021 4:00:00 AM 21.71 71.078 0.076 7.07 1.23 7.69
7/7/2021 4:15:00 AM 21.66 70.988 0.076 7.04 1.33 7.71
7/7/2021 4:30:00 AM 21.6 70.88 0.076 7.06 1.39 7.72
7/7/2021 4:45:00 AM 21.55 70.79 0.076 7.05 1.44 7.74
7/7/2021 5:00:00 AM 21.5 70.7 0.076 7.01 1.43 7.75
7/7/2021 5:15:00 AM 21.46 70.628 0.076 7.03 1.27 7.77
7/7/2021 5:30:00 AM 21.42 70.556 0.075 7 1.85 7.79
7/7/2021 5:45:00 AM 21.38 70.484 0.076 7 1.66 7.8
7/7/2021 6:00:00 AM 21.34 70.412 0.075 7 1.38 7.82
7/7/2021 6:15:00 AM 21.3 70.34 0.075 7.03 1.26 7.84
7/7/2021 6:30:00 AM 21.26 70.268 0.075 7.03 1.2 7.88
7/7/2021 6:45:00 AM 21.22 70.196 0.075 7.03 1.27 7.93
7/7/2021 7:00:00 AM 21.19 70.142 0.075 7.06 1.03 7.99
7/7/2021 7:15:00 AM 21.17 70.106 0.075 7.08 1.08 8.08
7/7/2021 7:30:00 AM 21.16 70.088 0.074 7.1 1.15 8.19
7/7/2021 7:45:00 AM 21.16 70.088 0.074 7.13 1.02 8.31
7/7/2021 8:00:00 AM 21.17 70.106 0.074 7.14 1 8.42
7/7/2021 8:15:00 AM 21.19 70.142 0.074 7.17 0.99 8.52
7/7/2021 8:30:00 AM 21.23 70.214 0.073 7.2 0.93 8.69
7/7/2021 8:45:00 AM 21.36 70.448 0.073 7.27 0.88 8.85
7/7/2021 9:00:00 AM 21.44 70.592 0.073 7.33 1.21 8.96
7/7/2021 9:15:00 AM 21.54 70.772 0.073 7.37 1.13 9.05
7/7/2021 9:30:00 AM 21.75 71.15 0.073 7.38 1.06 9.13
7/7/2021 9:45:00 AM 21.93 71.474 0.073 7.46 0.95 9.18
7/7/2021 10:00:00 AM 22.14 71.852 0.073 7.49 1.06 9.24
7/7/2021 10:15:00 AM 22.38 72.284 0.073 7.56 0.94 9.27
7/7/2021 10:30:00 AM 22.6 72.68 0.072 7.6 0.89 9.31
7/7/2021 10:45:00 AM 22.8 73.04 0.073 7.65 1.01 9.34
7/7/2021 11:00:00 AM 22.94 73.292 0.072 7.69 0.96 9.33
7/7/2021 11:15:00 AM 23.21 73.778 0.072 7.73 0.86 9.37
7/7/2021 11:30:00 AM 23.56 74.408 0.072 7.83 0.92 9.39
7/7/2021 11:45:00 AM 23.86 74.948 0.072 7.84 0.99 9.38
7/7/2021 12:00:00 PM 24.14 75.452 0.072 7.96 0.86 9.4
7/7/2021 12:15:00 PM 24.26 75.668 0.071 8 0.88 9.38
7/7/2021 12:30:00 PM 24.41 75.938 0.071 8.02 0.98 9.33
7/7/2021 12:45:00 PM 24.43 75.974 0.071 8.03 0.88 9.32
7/7/2021 1:00:00 PM 24.67 76.406 0.071 8.07 0.91 9.31
7/7/2021 1:15:00 PM 24.92 76.856 0.071 8.11 4.12 9.3
7/7/2021 1:30:00 PM 25.11 77.198 0.071 8.14 0.79 9.23
7/7/2021 1:45:00 PM 25.11 77.198 0.071 8.15 0.76 9.25
7/7/2021 2:00:00 PM 25.14 77.252 0.071 8.1 0.83 9.09
7/7/2021 2:15:00 PM 25.08 77.144 0.071 8.11 0.81 9.11
7/7/2021 2:30:00 PM 25.27 77.486 0.071 8.09 0.76 9.06
7/7/2021 2:45:00 PM 25.7 78.26 0.07 8.18 0.79 9.09
7/7/2021 3:00:00 PM 25.96 78.728 0.07 8.2 0.71 9.05
7/7/2021 3:15:00 PM 26.03 78.854 0.07 8.21 0.84 9.01
7/7/2021 3:30:00 PM 26.24 79.232 0.07 8.18 0.79 8.98
7/7/2021 3:45:00 PM 26.5 79.7 0.07 8.24 0.93 8.94
7/7/2021 4:00:00 PM 26.65 79.97 0.07 8.19 0.75 8.88
7/7/2021 4:15:00 PM 26.76 80.168 0.07 8.22 0.86 8.82
7/7/2021 4:30:00 PM 26.82 80.276 0.07 8.2 0.92 8.76
7/7/2021 4:45:00 PM 26.89 80.402 0.07 8.15 0.89 8.69
7/7/2021 5:00:00 PM 26.83 80.294 0.07 8.08 0.7 8.62
7/7/2021 5:15:00 PM 26.81 80.258 0.07 8.03 0.72 8.56
7/7/2021 5:30:00 PM 26.74 80.132 0.07 7.93 0.85 8.47
7/7/2021 5:45:00 PM 26.63 79.934 0.07 7.86 0.83 8.39
7/7/2021 6:00:00 PM 26.53 79.754 0.07 7.77 0.86 8.32
7/7/2021 6:15:00 PM 26.39 79.502 0.071 7.7 0.85 8.23
7/7/2021 6:30:00 PM 26.26 79.268 0.071 7.61 0.8 8.14
7/7/2021 6:45:00 PM 26.12 79.016 0.071 7.51 0.84 8.02
7/7/2021 7:00:00 PM 25.77 78.386 0.071 7.36 1.16 7.84
7/7/2021 7:15:00 PM 25.23 77.414 0.21 7.28 41.95 7.75
7/7/2021 7:30:00 PM 25.2 77.36 0.082 7.19 2.92 7.59
7/7/2021 7:45:00 PM 24.98 76.964 0.078 7.15 1.61 7.47
7/7/2021 8:00:00 PM 24.76 76.568 0.073 7.1 1.45 7.37
7/7/2021 8:15:00 PM 24.54 76.172 0.073 7.06 1.33 7.32
7/7/2021 8:30:00 PM 24.38 75.884 0.073 7.02 1.24 7.29
7/7/2021 8:45:00 PM 24.23 75.614 0.073 7.03 1.13 7.26
7/7/2021 9:00:00 PM 24.11 75.398 0.073 7.02 1.4 7.24
7/7/2021 9:15:00 PM 24 75.2 0.073 7 1.33 7.23
7/7/2021 9:30:00 PM 23.91 75.038 0.073 7.04 1.46 7.22
7/7/2021 9:45:00 PM 23.82 74.876 0.072 7 1.24 7.23
7/7/2021 10:00:00 PM 23.73 74.714 0.073 7.02 1.44 7.23
7/7/2021 10:15:00 PM 23.63 74.534 0.073 7.03 1.41 7.23
7/7/2021 10:30:00 PM 23.54 74.372 0.073 7.01 1.53 7.25
7/7/2021 10:45:00 PM 23.45 74.21 0.073 7.03 1.58 7.26
7/7/2021 11:00:00 PM 23.37 74.066 0.073 7 1.6 7.28
7/7/2021 11:15:00 PM 23.29 73.922 0.073 7 1.74 7.29
7/7/2021 11:30:00 PM 23.21 73.778 0.073 7.03 1.66 7.31
7/7/2021 11:45:00 PM 23.13 73.634 0.073 7.02 1.61 7.33
7/8/2021 12:00:00 AM 23.05 73.49 0.073 7 1.56 7.35
7/8/2021 12:15:00 AM 22.97 73.346 0.073 7.03 1.81 7.37
7/8/2021 12:30:00 AM 22.88 73.184 0.073 7.03 1.42 7.38
7/8/2021 12:45:00 AM 22.82 73.076 0.073 7.03 1.71 7.4
7/8/2021 1:00:00 AM 22.73 72.914 0.073 7.01 1.56 7.42
7/8/2021 1:15:00 AM 22.64 72.752 0.073 7.02 1.71 7.43
7/8/2021 1:30:00 AM 22.56 72.608 0.073 7 1.61 7.45
7/8/2021 1:45:00 AM 22.48 72.464 0.073 7 1.67 7.47
7/8/2021 2:00:00 AM 22.41 72.338 0.073 7.02 1.53 7.49
7/8/2021 2:15:00 AM 22.32 72.176 0.073 7.02 1.39 7.51
7/8/2021 2:30:00 AM 22.24 72.032 0.073 6.98 1.61 7.53
7/8/2021 2:45:00 AM 22.17 71.906 0.073 7.02 1.35 7.55
7/8/2021 3:00:00 AM 22.09 71.762 0.073 6.98 1.48 7.57
7/8/2021 3:15:00 AM 22.02 71.636 0.073 7.02 1.54 7.58
7/8/2021 3:30:00 AM 21.95 71.51 0.073 7.01 1.47 7.6
7/8/2021 3:45:00 AM 21.89 71.402 0.073 7.02 1.77 7.62
7/8/2021 4:00:00 AM 21.83 71.294 0.073 7 1.4 7.64
7/8/2021 4:15:00 AM 21.78 71.204 0.073 7.01 1.54 7.65
7/8/2021 4:30:00 AM 21.72 71.096 0.073 7.02 1.76 7.67
7/8/2021 4:45:00 AM 21.66 70.988 0.073 7.02 1.61 7.69
7/8/2021 5:00:00 AM 21.61 70.898 0.074 7.05 1.42 7.7
7/8/2021 5:15:00 AM 21.56 70.808 0.074 7.04 1.39 7.72
7/8/2021 5:30:00 AM 21.5 70.7 0.074 7.03 1.4 7.73
7/8/2021 5:45:00 AM 21.45 70.61 0.074 7.03 1.36 7.74
7/8/2021 6:00:00 AM 21.41 70.538 0.074 7.01 1.41 7.77
7/8/2021 6:15:00 AM 21.37 70.466 0.075 7.04 1.3 7.8
7/8/2021 6:30:00 AM 21.33 70.394 0.076 7.05 1.19 7.83
7/8/2021 6:45:00 AM 21.29 70.32201 0.075 7.07 1.21 7.88
7/8/2021 7:00:00 AM 21.26 70.268 0.074 7.07 1.21 7.94
7/8/2021 7:15:00 AM 21.23 70.214 0.074 7.08 1.29 7.96
7/8/2021 7:30:00 AM 21.19 70.142 0.074 7.08 1.14 8.01
7/8/2021 7:45:00 AM 21.18 70.124 0.074 7.09 1.16 8.09
7/8/2021 8:00:00 AM 21.17 70.106 0.073 7.1 1.17 8.17
7/8/2021 8:15:00 AM 21.16 70.088 0.073 7.14 2.43 8.24
7/8/2021 8:30:00 AM 21.14 70.052 0.073 7.11 0.95 8.29
7/8/2021 8:45:00 AM 21.11 69.998 0.073 7.15 1.02 8.31
7/8/2021 9:00:00 AM 21.1 69.98 0.073 7.16 0.94 8.37
7/8/2021 9:15:00 AM 21.09 69.962 0.073 7.16 0.95 8.41
7/8/2021 9:30:00 AM 21.08 69.944 0.073 7.19 1.11 8.46
7/8/2021 9:45:00 AM 21.08 69.944 0.072 7.2 0.94 8.57
7/8/2021 10:00:00 AM 21.1 69.98 0.072 7.21 1 8.65
7/8/2021 10:15:00 AM 21.19 70.142 0.072 7.25 0.89 8.83
7/8/2021 10:30:00 AM 21.26 70.268 0.072 7.31 0.93 8.92
7/8/2021 10:45:00 AM 21.32 70.376 0.072 7.37 0.97 9.03
7/8/2021 11:00:00 AM 21.49 70.682 0.072 7.42 0.97 9.18
7/8/2021 11:15:00 AM 21.64 70.952 0.072 7.49 1.09 9.29
7/8/2021 11:30:00 AM 21.83 71.294 0.072 7.57 0.98 9.39
7/8/2021 11:45:00 AM 22.02 71.636 0.072 7.67 0.93 9.46
7/8/2021 12:00:00 PM 22.18 71.924 0.072 7.72 0.88 9.46
7/8/2021 12:15:00 PM 22.23 72.014 0.072 7.72 0.87 9.45
7/8/2021 12:30:00 PM 22.17 71.906 0.072 7.72 0.94 9.39
7/8/2021 12:45:00 PM 22.12 71.816 0.072 7.64 0.88 9.27
7/8/2021 1:00:00 PM 22.09 71.762 0.071 7.62 0.91 9.19
7/8/2021 1:15:00 PM 22.11 71.798 0.071 7.64 0.98 9.23
7/8/2021 1:30:00 PM 22.09 71.762 0.071 7.6 0.81 9.15
7/8/2021 1:45:00 PM 22.06 71.708 0.071 7.61 0.81 9.15
7/8/2021 2:00:00 PM 22.02 71.636 0.071 7.59 0.87 9.11
7/8/2021 2:15:00 PM 22.03 71.654 0.071 7.65 0.87 9.18
7/8/2021 2:30:00 PM 22.03 71.654 0.071 7.63 0.95 9.11
7/8/2021 2:45:00 PM 22 71.6 0.071 7.6 0.83 9.06
7/8/2021 3:00:00 PM 22.05 71.69 0.071 7.63 0.85 9.12
7/8/2021 3:15:00 PM 22.09 71.762 0.071 7.66 0.82 9.11
7/8/2021 3:30:00 PM 22.21 71.978 0.071 7.73 0.73 9.21
7/8/2021 3:45:00 PM 22.26 72.068 0.071 7.77 0.95 9.2
7/8/2021 4:00:00 PM 22.23 72.014 0.071 7.73 0.99 9.11
7/8/2021 4:15:00 PM 22.22 71.996 0.07 7.73 0.84 9.17
7/8/2021 4:30:00 PM 22.23 72.014 0.071 7.71 1.2 9.08
7/8/2021 4:45:00 PM 22.2 71.96 0.071 7.67 0.94 9.03
7/8/2021 5:00:00 PM 22.21 71.978 0.07 7.66 0.95 9.04
7/8/2021 5:15:00 PM 22.21 71.978 0.07 7.65 0.82 9
7/8/2021 5:30:00 PM 22.31 72.158 0.07 7.69 0.95 9.04
7/8/2021 5:45:00 PM 22.29 72.122 0.07 7.67 0.83 9
7/8/2021 6:00:00 PM 22.22 71.996 0.071 7.61 0.87 8.86
7/8/2021 6:15:00 PM 22.16 71.888 0.071 7.52 0.82 8.71
7/8/2021 6:30:00 PM 22.11 71.798 0.071 7.45 1 8.58
7/8/2021 6:45:00 PM 22.06 71.708 0.071 7.39 0.88 8.46
7/8/2021 7:00:00 PM 21.97 71.546 0.069 7.32 2.27 8.35
7/8/2021 7:15:00 PM 21.94 71.492 0.077 7.32 4.88 8.27
7/8/2021 7:30:00 PM 21.9 71.42 0.073 7.27 1.6 8.23
7/8/2021 7:45:00 PM 21.87 71.366 0.073 7.25 1.09 8.23
7/8/2021 8:00:00 PM 21.82 71.276 0.073 7.21 1.12 8.19
7/8/2021 8:15:00 PM 21.78 71.204 0.072 7.2 1.04 8.18
7/8/2021 8:30:00 PM 21.74 71.132 0.072 7.18 0.94 8.14
7/8/2021 8:45:00 PM 21.69 71.042 0.072 7.17 1.02 8.08
7/8/2021 9:00:00 PM 21.63 70.934 0.072 7.16 0.96 8.03
7/8/2021 9:15:00 PM 21.59 70.862 0.072 7.14 1.03 7.98
7/8/2021 9:30:00 PM 21.55 70.79 0.072 7.1 1.18 7.94
7/8/2021 9:45:00 PM 21.49 70.682 0.072 7.12 1.15 7.91
7/8/2021 10:00:00 PM 21.44 70.592 0.073 7.09 1.15 7.89
7/8/2021 10:15:00 PM 21.4 70.52 0.073 7.1 1.27 7.87
7/8/2021 10:30:00 PM 21.34 70.412 0.073 7.08 1.34 7.87
7/8/2021 10:45:00 PM 21.29 70.32201 0.073 7.08 1.41 7.86
7/8/2021 11:00:00 PM 21.25 70.25 0.073 7.08 1.42 7.87
7/8/2021 11:15:00 PM 21.19 70.142 0.073 7.08 1.27 7.87
7/8/2021 11:30:00 PM 21.14 70.052 0.073 7.06 1.4 7.88
7/8/2021 11:45:00 PM 21.08 69.944 0.073 7.03 1.44 7.89
7/9/2021 12:00:00 AM 21.03 69.854 0.073 7.06 1.46 7.89
7/9/2021 12:15:00 AM 20.98 69.764 0.072 7.06 1.41 7.9
7/9/2021 12:30:00 AM 20.94 69.692 0.073 7.02 1.44 7.91
7/9/2021 12:45:00 AM 20.91 69.638 0.073 7.05 1.44 7.91
7/9/2021 1:00:00 AM 20.87 69.566 0.073 7.03 1.4 7.92
7/9/2021 1:15:00 AM 20.83 69.494 0.073 7.05 1.51 7.93
7/9/2021 1:30:00 AM 20.78 69.404 0.073 7.04 1.33 7.94
7/9/2021 1:45:00 AM 20.74 69.332 0.072 7.03 1.44 7.95
7/9/2021 2:00:00 AM 20.7 69.26 0.073 7.05 1.37 7.95
7/9/2021 2:15:00 AM 20.66 69.188 0.073 7.04 1.31 7.97
7/9/2021 2:30:00 AM 20.62 69.116 0.073 7.05 1.27 7.97
7/9/2021 2:45:00 AM 20.57 69.026 0.073 7.06 1.26 7.99
7/9/2021 3:00:00 AM 20.53 68.954 0.073 7.02 1.27 7.99
7/9/2021 3:15:00 AM 20.5 68.9 0.072 7.03 1.88 8
7/9/2021 3:30:00 AM 20.46 68.828 0.073 7.05 2.23 8.01
7/9/2021 3:45:00 AM 20.42 68.756 0.073 7.05 2.14 8.03
7/9/2021 4:00:00 AM 20.39 68.702 0.073 7.04 1.99 8.03
7/9/2021 4:15:00 AM 20.35 68.63 0.073 7.05 2 8.04
7/9/2021 4:30:00 AM 20.32 68.576 0.073 7.05 2.05 8.05
7/9/2021 4:45:00 AM 20.28 68.504 0.073 7.03 2.02 8.06
7/9/2021 5:00:00 AM 20.24 68.432 0.072 7.05 1.8 8.07
7/9/2021 5:15:00 AM 20.21 68.378 0.073 7.02 2.1 8.08
7/9/2021 5:30:00 AM 20.18 68.324 0.073 7.03 1.62 8.09
7/9/2021 5:45:00 AM 20.15 68.27 0.073 7.05 1.51 8.09
7/9/2021 6:00:00 AM 20.12 68.216 0.073 7.05 1.46 8.11
7/9/2021 6:15:00 AM 20.07 68.126 0.073 7.05 1.32 8.13
7/9/2021 6:30:00 AM 20.06 68.108 0.073 7.06 1.14 8.2
7/9/2021 6:45:00 AM 20.04 68.07201 0.073 7.07 1.14 8.25
7/9/2021 7:00:00 AM 20.04 68.07201 0.073 7.1 1.13 8.35
7/9/2021 7:15:00 AM 20.05 68.09 0.073 7.11 1.06 8.46
7/9/2021 7:30:00 AM 20.05 68.09 0.072 7.1 1.14 8.51
7/9/2021 7:45:00 AM 20.06 68.108 0.072 7.15 1.07 8.63
7/9/2021 8:00:00 AM 20.11 68.198 0.072 7.18 1 8.75
7/9/2021 8:15:00 AM 20.13 68.234 0.072 7.21 1.07 8.83
7/9/2021 8:30:00 AM 20.19 68.342 0.072 7.25 0.93 8.94
7/9/2021 8:45:00 AM 20.28 68.504 0.072 7.3 1.08 9.09
7/9/2021 9:00:00 AM 20.24 68.432 0.072 7.29 1.08 8.96
7/9/2021 9:15:00 AM 20.25 68.45 0.072 7.29 1.06 9.05
7/9/2021 9:30:00 AM 20.36 68.648 0.072 7.33 1.06 9.13
7/9/2021 9:45:00 AM 20.41 68.738 0.071 7.36 0.87 9.2
7/9/2021 10:00:00 AM 20.48 68.864 0.072 7.42 3.04 9.29
7/9/2021 10:15:00 AM 20.55 68.99 0.071 7.43 1.04 9.32
7/9/2021 10:30:00 AM 20.55 68.99 0.071 7.42 1.02 9.29
7/9/2021 10:45:00 AM 20.56 69.008 0.071 7.43 0.91 9.28
7/9/2021 11:00:00 AM 20.57 69.026 0.071 7.44 1.13 9.25
7/9/2021 11:15:00 AM 20.67 69.206 0.071 7.48 0.91 9.36
7/9/2021 11:30:00 AM 20.86 69.548 0.071 7.54 0.94 9.41
7/9/2021 11:45:00 AM 20.86 69.548 0.071 7.53 0.91 9.33
7/9/2021 12:00:00 PM 21.08 69.944 0.071 7.59 0.91 9.33
7/9/2021 12:15:00 PM 21.27 70.286 0.071 7.63 1.85 9.43
7/9/2021 12:30:00 PM 21.74 71.132 0.071 7.68 0.96 9.41
7/9/2021 12:45:00 PM 21.79 71.222 0.071 7.66 0.98 9.44
7/9/2021 1:00:00 PM 22.18 71.924 0.071 7.75 1.3 9.36
7/9/2021 1:15:00 PM 22 71.6 0.071 7.63 0.92 9.18
7/9/2021 1:30:00 PM 22.25 72.05 0.071 7.67 0.84 9.31
7/9/2021 1:45:00 PM 22.86 73.148 0.07 7.78 0.93 9.28
7/9/2021 2:00:00 PM 23.3 73.94 0.07 7.82 0.86 9.33
7/9/2021 2:15:00 PM 23.27 73.886 0.071 7.83 0.94 9.22
7/9/2021 2:30:00 PM 23.58 74.444 0.07 7.86 0.88 9.21
7/9/2021 2:45:00 PM 23.72 74.696 0.07 7.89 0.92 9.25
7/9/2021 3:00:00 PM 23.57 74.426 0.07 7.88 0.92 9.17
7/9/2021 3:15:00 PM 24.04 75.272 0.07 7.91 0.94 9.21
7/9/2021 3:30:00 PM 24.36 75.848 0.07 8 0.87 9.2
7/9/2021 3:45:00 PM 24.33 75.794 0.07 7.98 0.79 9.12
7/9/2021 4:00:00 PM 24.31 75.758 0.07 7.94 0.92 9.1
7/9/2021 4:15:00 PM 24.3 75.74 0.07 7.95 0.84 9.01
7/9/2021 4:30:00 PM 24.46 76.028 0.07 7.94 0.82 9.01
7/9/2021 4:45:00 PM 24.41 75.938 0.07 7.91 0.91 8.96
7/9/2021 5:00:00 PM 24.42 75.956 0.07 7.89 0.88 8.91
7/9/2021 5:15:00 PM 24.38 75.884 0.07 7.84 0.81 8.86
7/9/2021 5:30:00 PM 24.28 75.704 0.07 7.82 1.11 8.8
7/9/2021 5:45:00 PM 24.18 75.524 0.07 7.77 0.71 8.73
7/9/2021 6:00:00 PM 24.07 75.326 0.07 7.7 0.79 8.66
7/9/2021 6:15:00 PM 23.98 75.164 0.07 7.65 0.89 8.6
7/9/2021 6:30:00 PM 23.85 74.93 0.07 7.56 0.91 8.49
7/9/2021 6:45:00 PM 23.77 74.786 0.07 7.52 0.81 8.45
7/9/2021 7:00:00 PM 23.63 74.534 0.07 7.48 1.01 8.35
7/9/2021 7:15:00 PM 23.5 74.3 0.07 7.42 0.94 8.29
7/9/2021 7:30:00 PM 23.42 74.156 0.07 7.35 0.84 8.22
7/9/2021 7:45:00 PM 23.28 73.904 0.07 7.34 0.9 8.16
7/9/2021 8:00:00 PM 23.16 73.688 0.071 7.29 0.87 8.09
7/9/2021 8:15:00 PM 23.02 73.436 0.071 7.28 0.88 8.02
7/9/2021 8:30:00 PM 22.87 73.166 0.071 7.2 1.52 7.96
7/9/2021 8:45:00 PM 22.73 72.914 0.071 7.19 0.88 7.89
7/9/2021 9:00:00 PM 22.58 72.644 0.071 7.17 1.08 7.83
7/9/2021 9:15:00 PM 22.43 72.374 0.072 7.16 0.97 7.78
7/9/2021 9:30:00 PM 22.29 72.122 0.072 7.14 1.15 7.75
7/9/2021 9:45:00 PM 22.15 71.87 0.072 7.1 1.09 7.74
7/9/2021 10:00:00 PM 22.02 71.636 0.072 7.11 1.14 7.73
7/9/2021 10:15:00 PM 21.89 71.402 0.072 7.08 1.36 7.72
7/9/2021 10:30:00 PM 21.77 71.186 0.072 7.09 1.32 7.73
7/9/2021 10:45:00 PM 21.64 70.952 0.072 7.06 1.19 7.74
7/9/2021 11:00:00 PM 21.52 70.736 0.072 7.08 1.31 7.75
7/9/2021 11:15:00 PM 21.4 70.52 0.072 7.05 1.19 7.77
7/9/2021 11:30:00 PM 21.32 70.376 0.072 7.07 1.22 7.78
7/9/2021 11:45:00 PM 21.23 70.214 0.072 7.06 1.26 7.8
7/10/2021 12:00:00 AM 21.17 70.106 0.072 7.09 1.34 7.82
7/10/2021 12:15:00 AM 21.1 69.98 0.072 7.1 1.48 7.83
7/10/2021 12:30:00 AM 21.03 69.854 0.073 7.1 1.39 7.84
7/10/2021 12:45:00 AM 20.97 69.746 0.073 7.06 1.4 7.85
7/10/2021 1:00:00 AM 20.9 69.62 0.073 7.09 1.18 7.87
7/10/2021 1:15:00 AM 20.83 69.494 0.073 7.09 1.24 7.88
7/10/2021 1:30:00 AM 20.76 69.368 0.073 7.06 1.31 7.9
7/10/2021 1:45:00 AM 20.7 69.26 0.073 7.08 1.23 7.92
7/10/2021 2:00:00 AM 20.63 69.134 0.073 7.06 1.67 7.93
7/10/2021 2:15:00 AM 20.56 69.008 0.073 7.06 1.46 7.94
7/10/2021 2:30:00 AM 20.49 68.882 0.073 7.09 1.15 7.96
7/10/2021 2:45:00 AM 20.43 68.774 0.073 7.09 1.43 7.97
7/10/2021 3:00:00 AM 20.37 68.666 0.073 7.1 1.37 7.99
7/10/2021 3:15:00 AM 20.31 68.558 0.073 7.11 1.3 8
7/10/2021 3:30:00 AM 20.25 68.45 0.073 7.11 1.41 8.02
7/10/2021 3:45:00 AM 20.2 68.36 0.073 7.1 1.37 8.03
7/10/2021 4:00:00 AM 20.15 68.27 0.073 7.07 1.52 8.04
7/10/2021 4:15:00 AM 20.1 68.18 0.073 7.11 1.21 8.05
7/10/2021 4:30:00 AM 20.05 68.09 0.074 7.09 1.24 8.06
7/10/2021 4:45:00 AM 20.01 68.018 0.075 7.11 1.1 8.07
7/10/2021 5:00:00 AM 19.96 67.92799 0.076 7.12 1.17 8.08
7/10/2021 5:15:00 AM 19.92 67.856 0.075 7.11 1.14 8.1
7/10/2021 5:30:00 AM 19.88 67.784 0.074 7.12 1.12 8.11
7/10/2021 5:45:00 AM 19.83 67.694 0.074 7.13 1.25 8.12
7/10/2021 6:00:00 AM 19.78 67.604 0.074 7.13 1.17 8.14
7/10/2021 6:15:00 AM 19.75 67.55 0.074 7.13 1.04 8.18
7/10/2021 6:30:00 AM 19.71 67.478 0.074 7.13 1.09 8.23
7/10/2021 6:45:00 AM 19.68 67.424 0.074 7.13 1.17 8.29
7/10/2021 7:00:00 AM 19.67 67.406 0.073 7.12 1.22 8.38
7/10/2021 7:15:00 AM 19.65 67.37 0.073 7.13 0.93 8.49
7/10/2021 7:30:00 AM 19.63 67.334 0.073 7.15 0.92 8.59
7/10/2021 7:45:00 AM 19.66 67.388 0.073 7.18 0.89 8.74
7/10/2021 8:00:00 AM 19.66 67.388 0.073 7.25 1.01 8.82
7/10/2021 8:15:00 AM 19.65 67.37 0.073 7.23 0.88 8.87
7/10/2021 8:30:00 AM 19.69 67.442 0.073 7.27 0.87 8.96
7/10/2021 8:45:00 AM 19.78 67.604 0.073 7.29 0.93 9.04
7/10/2021 9:00:00 AM 19.8 67.64 0.072 7.32 0.76 9.06
7/10/2021 9:15:00 AM 19.78 67.604 0.072 7.33 0.86 9.09
7/10/2021 9:30:00 AM 19.74 67.532 0.073 7.32 0.83 9.09
7/10/2021 9:45:00 AM 19.79 67.622 0.072 7.36 0.84 9.16
7/10/2021 10:00:00 AM 20.09 68.162 0.072 7.44 0.87 9.25
7/10/2021 10:15:00 AM 20.37 68.666 0.072 7.5 0.9 9.41
7/10/2021 10:30:00 AM 20.55 68.99 0.072 7.54 0.86 9.38
7/10/2021 10:45:00 AM 20.72 69.296 0.072 7.55 0.8 9.51
7/10/2021 11:00:00 AM 20.72 69.296 0.072 7.59 1.06 9.49
7/10/2021 11:15:00 AM 20.85 69.53 0.072 7.6 0.8 9.54
7/10/2021 11:30:00 AM 21.32 70.376 0.072 7.69 1.28 9.59
7/10/2021 11:45:00 AM 21.59 70.862 0.072 7.75 0.75 9.6
7/10/2021 12:00:00 PM 21.92 71.456 0.071 7.83 0.82 9.58
7/10/2021 12:15:00 PM 22.11 71.798 0.072 7.86 0.88 9.55
7/10/2021 12:30:00 PM 22.15 71.87 0.072 7.91 0.77 9.6
7/10/2021 12:45:00 PM 22.21 71.978 0.071 7.91 1 9.53
7/10/2021 1:00:00 PM 22.31 72.158 0.071 7.98 0.69 9.6
7/10/2021 1:15:00 PM 22.89 73.202 0.071 8.04 0.69 9.59
7/10/2021 1:30:00 PM 22.74 72.932 0.071 8.05 0.71 9.55
7/10/2021 1:45:00 PM 22.65 72.77 0.071 8.08 0.65 9.56
7/10/2021 2:00:00 PM 22.57 72.626 0.071 8.09 0.77 9.56
7/10/2021 2:15:00 PM 22.58 72.644 0.071 8.1 0.67 9.57
7/10/2021 2:30:00 PM 22.65 72.77 0.071 8.12 0.7 9.55
7/10/2021 2:45:00 PM 22.66 72.788 0.071 8.18 1.1 9.58
7/10/2021 3:00:00 PM 22.78 73.004 0.07 8.22 0.7 9.57
7/10/2021 3:15:00 PM 22.81 73.058 0.07 8.25 0.67 9.56
7/10/2021 3:30:00 PM 23.09 73.562 0.07 8.3 0.61 9.55
7/10/2021 3:45:00 PM 23.64 74.552 0.07 8.3 0.63 9.48
7/10/2021 4:00:00 PM 23.69 74.642 0.07 8.31 0.58 9.42
7/10/2021 4:15:00 PM 23.94 75.092 0.07 8.3 0.57 9.36
7/10/2021 4:30:00 PM 23.66 74.588 0.07 8.18 0.61 9.21
7/10/2021 4:45:00 PM 23.8 74.84 0.07 8.16 0.63 9.2
7/10/2021 5:00:00 PM 23.74 74.732 0.07 8.14 0.67 9.17
7/10/2021 5:15:00 PM 23.84 74.912 0.07 8.13 0.7 9.12
7/10/2021 5:30:00 PM 23.74 74.732 0.071 8.06 0.68 9.05
7/10/2021 5:45:00 PM 23.64 74.552 0.071 8.01 0.66 9.01
7/10/2021 6:00:00 PM 23.57 74.426 0.07 7.96 0.71 8.98
7/10/2021 6:15:00 PM 23.52 74.336 0.071 7.9 0.67 8.93
7/10/2021 6:30:00 PM 23.41 74.138 0.071 7.79 0.87 8.85
7/10/2021 6:45:00 PM 23.3 73.94 0.071 7.75 0.78 8.78
7/10/2021 7:00:00 PM 23.2 73.76 0.071 7.68 0.65 8.71
7/10/2021 7:15:00 PM 23.08 73.544 0.071 7.61 0.73 8.63
7/10/2021 7:30:00 PM 22.93 73.274 0.071 7.51 0.72 8.51
7/10/2021 7:45:00 PM 22.81 73.058 0.072 7.43 0.71 8.42
7/10/2021 8:00:00 PM 22.71 72.878 0.071 7.41 0.73 8.36
7/10/2021 8:15:00 PM 22.6 72.68 0.072 7.36 0.7 8.25
7/10/2021 8:30:00 PM 22.49 72.482 0.072 7.32 0.69 8.16
7/10/2021 8:45:00 PM 22.37 72.266 0.072 7.24 0.68 8.06
7/10/2021 9:00:00 PM 22.25 72.05 0.072 7.23 0.8 7.97
7/10/2021 9:15:00 PM 22.13 71.834 0.073 7.2 0.93 7.89
7/10/2021 9:30:00 PM 22.02 71.636 0.073 7.18 0.99 7.84
7/10/2021 9:45:00 PM 21.91 71.438 0.073 7.13 0.88 7.8
7/10/2021 10:00:00 PM 21.81 71.258 0.073 7.14 0.87 7.77
7/10/2021 10:15:00 PM 21.71 71.078 0.073 7.12 1.02 7.75
7/10/2021 10:30:00 PM 21.61 70.898 0.073 7.09 1.26 7.75
7/10/2021 10:45:00 PM 21.51 70.718 0.073 7.11 1.09 7.74
7/10/2021 11:00:00 PM 21.41 70.538 0.073 7.09 1.24 7.76
7/10/2021 11:15:00 PM 21.31 70.358 0.074 7.08 1.09 7.76
7/10/2021 11:30:00 PM 21.22 70.196 0.073 7.06 1.03 7.77
7/10/2021 11:45:00 PM 21.13 70.034 0.074 7.08 1.15 7.78
7/11/2021 12:00:00 AM 21.05 69.89 0.073 7.08 1.04 7.8
7/11/2021 12:15:00 AM 20.94 69.692 0.073 7.07 1.29 7.8
7/11/2021 12:30:00 AM 20.86 69.548 0.074 7.07 1.29 7.82
7/11/2021 12:45:00 AM 20.76 69.368 0.074 7.07 1.17 7.84
7/11/2021 1:00:00 AM 20.68 69.224 0.073 7.06 1.12 7.86
7/11/2021 1:15:00 AM 20.61 69.098 0.074 7.07 1.3 7.88
7/11/2021 1:30:00 AM 20.55 68.99 0.074 7.07 1.26 7.89
7/11/2021 1:45:00 AM 20.49 68.882 0.074 7.06 1.07 7.91
7/11/2021 2:00:00 AM 20.42 68.756 0.074 7.05 1.12 7.93
7/11/2021 2:15:00 AM 20.35 68.63 0.074 7.07 1.09 7.93
7/11/2021 2:30:00 AM 20.28 68.504 0.074 7.07 1.1 7.95
7/11/2021 2:45:00 AM 20.23 68.414 0.074 7.04 1.21 7.97
7/11/2021 3:00:00 AM 20.16 68.288 0.074 7.07 1.11 7.97
7/11/2021 3:15:00 AM 20.1 68.18 0.075 7.06 1.16 7.98
7/11/2021 3:30:00 AM 20.03 68.054 0.074 7.07 1.12 8
7/11/2021 3:45:00 AM 19.98 67.964 0.074 7.06 1.08 8.02
7/11/2021 4:00:00 AM 19.91 67.838 0.074 7.06 1.04 8.03
7/11/2021 4:15:00 AM 19.84 67.712 0.074 7.06 0.99 8.05
7/11/2021 4:30:00 AM 19.77 67.586 0.074 7.06 1.02 8.06
7/11/2021 4:45:00 AM 19.72 67.496 0.074 7.06 1.06 8.08
7/11/2021 5:00:00 AM 19.67 67.406 0.074 7.06 1.15 8.09
7/11/2021 5:15:00 AM 19.61 67.298 0.075 7.06 1.25 8.1
7/11/2021 5:30:00 AM 19.57 67.226 0.075 7.03 1.05 8.12
7/11/2021 5:45:00 AM 19.52 67.136 0.075 7.05 1.04 8.13
7/11/2021 6:00:00 AM 19.47 67.046 0.075 7.07 2.24 8.15
7/11/2021 6:15:00 AM 19.44 66.992 0.077 7.07 0.99 8.18
7/11/2021 6:30:00 AM 19.4 66.92 0.078 7.08 1.01 8.21
7/11/2021 6:45:00 AM 19.35 66.83 0.078 7.08 0.84 8.27
7/11/2021 7:00:00 AM 19.33 66.794 0.076 7.08 0.95 8.35
7/11/2021 7:15:00 AM 19.32 66.776 0.075 7.12 0.9 8.42
7/11/2021 7:30:00 AM 19.31 66.758 0.075 7.11 1 8.52
7/11/2021 7:45:00 AM 19.31 66.758 0.074 7.16 0.93 8.62
7/11/2021 8:00:00 AM 19.31 66.758 0.074 7.17 0.78 8.73
7/11/2021 8:15:00 AM 19.33 66.794 0.074 7.2 0.82 8.87
7/11/2021 8:30:00 AM 19.35 66.83 0.074 7.22 0.8 8.94
7/11/2021 8:45:00 AM 19.37 66.866 0.073 7.26 0.91 9.06
7/11/2021 9:00:00 AM 19.41 66.938 0.073 7.26 0.87 9.15
7/11/2021 9:15:00 AM 19.55 67.19 0.073 7.33 0.86 9.25
7/11/2021 9:30:00 AM 19.68 67.424 0.073 7.39 0.8 9.34
7/11/2021 9:45:00 AM 19.89 67.802 0.073 7.45 0.8 9.45
7/11/2021 10:00:00 AM 19.97 67.946 0.073 7.47 0.88 9.46
7/11/2021 10:15:00 AM 20.03 68.054 0.073 7.48 0.83 9.52
7/11/2021 10:30:00 AM 20.07 68.126 0.073 7.52 0.88 9.52
7/11/2021 10:45:00 AM 20.12 68.216 0.073 7.54 3.91 9.51
7/11/2021 11:00:00 AM 20.26 68.468 0.073 7.62 0.79 9.62
7/11/2021 11:15:00 AM 20.43 68.774 0.072 7.66 0.76 9.62
7/11/2021 11:30:00 AM 20.49 68.882 0.072 7.68 0.75 9.63
7/11/2021 11:45:00 AM 20.49 68.882 0.072 7.66 0.8 9.58
7/11/2021 12:00:00 PM 20.48 68.864 0.072 7.64 0.74 9.51
7/11/2021 12:15:00 PM 20.49 68.882 0.072 7.66 0.79 9.5
7/11/2021 12:30:00 PM 20.51 68.918 0.072 7.68 0.63 9.52
7/11/2021 12:45:00 PM 20.58 69.044 0.072 7.72 0.84 9.56
7/11/2021 1:00:00 PM 20.65 69.17 0.072 7.78 0.76 9.6
7/11/2021 1:15:00 PM 20.72 69.296 0.072 7.81 0.7 9.63
7/11/2021 1:30:00 PM 20.7 69.26 0.072 7.81 0.63 9.55
7/11/2021 1:45:00 PM 20.71 69.278 0.072 7.76 0.68 9.52
7/11/2021 2:00:00 PM 20.72 69.296 0.072 7.73 0.71 9.42
7/11/2021 2:15:00 PM 20.72 69.296 0.072 7.69 0.73 9.37
7/11/2021 2:30:00 PM 20.81 69.458 0.072 7.71 0.67 9.43
7/11/2021 2:45:00 PM 20.84 69.512 0.072 7.7 0.6 9.33
7/11/2021 3:00:00 PM 20.9 69.62 0.072 7.74 0.65 9.41
7/11/2021 3:15:00 PM 20.99 69.782 0.072 7.77 0.65 9.45
7/11/2021 3:30:00 PM 21.17 70.106 0.072 7.82 0.86 9.47
7/11/2021 3:45:00 PM 21.17 70.106 0.072 7.78 0.76 9.36
7/11/2021 4:00:00 PM 21.14 70.052 0.072 7.73 0.65 9.28
7/11/2021 4:15:00 PM 21.12 70.016 0.072 7.67 0.86 9.22
7/11/2021 4:30:00 PM 21.1 69.98 0.072 7.59 0.68 9.05
7/11/2021 4:45:00 PM 21.09 69.962 0.072 7.55 0.59 9
7/11/2021 5:00:00 PM 21.07 69.926 0.072 7.5 0.65 8.87
7/11/2021 5:15:00 PM 21.03 69.854 0.072 7.43 0.91 8.71
7/11/2021 5:30:00 PM 20.99 69.782 0.071 7.37 1.31 8.57
7/11/2021 5:45:00 PM 20.96 69.728 0.084 7.34 6.06 8.46
7/11/2021 6:00:00 PM 20.92 69.656 0.08 7.33 14.04 8.38
7/11/2021 6:15:00 PM 20.92 69.656 0.08 7.41 37.83 8.34
7/11/2021 6:30:00 PM 20.87 69.566 0.09 7.35 66.26 8.38
7/11/2021 6:45:00 PM 20.83 69.494 0.075 7.23 8.94 8.36
7/11/2021 7:00:00 PM 20.79 69.422 0.073 7.16 2.65 8.36
7/11/2021 7:15:00 PM 20.78 69.404 0.072 7.15 2.24 8.38
7/11/2021 7:30:00 PM 20.77 69.386 0.071 7.12 1.86 8.37
7/11/2021 7:45:00 PM 20.75 69.35 0.071 7.13 2.09 8.34
7/11/2021 8:00:00 PM 20.72 69.296 0.071 7.12 1.94 8.31
7/11/2021 8:15:00 PM 20.7 69.26 0.071 7.1 2.48 8.26
7/11/2021 8:30:00 PM 20.67 69.206 0.071 7.05 3.05 8.22
7/11/2021 8:45:00 PM 20.63 69.134 0.07 7.06 2.97 8.18
7/11/2021 9:00:00 PM 20.6 69.08 0.07 7.05 2.99 8.15
7/11/2021 9:15:00 PM 20.57 69.026 0.07 7.03 3.48 8.12
7/11/2021 9:30:00 PM 20.54 68.972 0.07 7.04 4.16 8.12
7/11/2021 9:45:00 PM 20.5 68.9 0.069 7.07 4.13 8.13
7/11/2021 10:00:00 PM 20.45 68.81 0.069 7 4.3 8.13
7/11/2021 10:15:00 PM 20.41 68.738 0.069 6.99 5.2 8.14
7/11/2021 10:30:00 PM 20.35 68.63 0.069 6.98 6.41 8.15
7/11/2021 10:45:00 PM 20.29 68.522 0.07 6.95 10.33 8.16
7/11/2021 11:00:00 PM 20.22 68.396 0.07 6.97 12.71 8.17
7/11/2021 11:15:00 PM 20.13 68.234 0.07 6.91 23.47 8.2
7/11/2021 11:30:00 PM 19.97 67.946 0.066 6.85 26.85 8.3
7/11/2021 11:45:00 PM 19.94 67.892 0.066 6.9 23.67 8.36
7/12/2021 12:00:00 AM 19.89 67.802 0.065 6.91 21.51 8.4
7/12/2021 12:15:00 AM 19.82 67.676 0.064 6.88 47.52 8.43
7/12/2021 12:30:00 AM 19.71 67.478 0.063 6.89 66.33 8.46
7/12/2021 12:45:00 AM 19.61 67.298 0.062 6.89 50.53 8.48
7/12/2021 1:00:00 AM 19.54 67.172 0.062 6.91 42.15 8.5
7/12/2021 1:15:00 AM 19.47 67.046 0.063 6.87 37.08 8.52
7/12/2021 1:30:00 AM 19.39 66.902 0.064 6.88 32.12 8.53
7/12/2021 1:45:00 AM 19.3 66.74 0.064 6.9 28.63 8.56
7/12/2021 2:00:00 AM 19.22 66.596 0.064 6.9 26.35 8.57
7/12/2021 2:15:00 AM 19.15 66.47 0.064 6.87 24.37 8.58
7/12/2021 2:30:00 AM 19.09 66.362 0.064 6.91 22.45 8.59
7/12/2021 2:45:00 AM 19.03 66.254 0.064 6.92 20.69 8.6
7/12/2021 3:00:00 AM 18.98 66.164 0.064 6.89 28.15 8.61
7/12/2021 3:15:00 AM 18.94 66.092 0.064 6.89 19.96 8.62
7/12/2021 3:30:00 AM 18.9 66.02 0.064 6.89 18.96 8.62
7/12/2021 3:45:00 AM 18.86 65.948 0.064 6.9 18.63 8.62
7/12/2021 4:00:00 AM 18.83 65.894 0.064 6.9 18.35 8.62
7/12/2021 4:15:00 AM 18.81 65.858 0.064 6.91 17.74 8.62
7/12/2021 4:30:00 AM 18.78 65.804 0.064 6.9 16.35 8.63
7/12/2021 4:45:00 AM 18.76 65.768 0.064 6.86 15.54 8.63
7/12/2021 5:00:00 AM 18.74 65.732 0.064 6.9 15.06 8.63
7/12/2021 5:15:00 AM 18.72 65.696 0.064 6.9 14.6 8.63
7/12/2021 5:30:00 AM 18.7 65.66 0.064 6.85 13.42 8.63
7/12/2021 5:45:00 AM 18.68 65.624 0.064 6.9 13.4 8.63
7/12/2021 6:00:00 AM 18.66 65.588 0.064 6.9 12.74 8.63
7/12/2021 6:15:00 AM 18.65 65.57 0.064 6.87 11.72 8.64
7/12/2021 6:30:00 AM 18.64 65.552 0.065 6.87 11.22 8.65
7/12/2021 6:45:00 AM 18.62 65.516 0.065 6.91 10.54 8.68
7/12/2021 7:00:00 AM 18.62 65.516 0.065 6.87 9.96 8.7
7/12/2021 7:15:00 AM 18.61 65.498 0.065 6.91 9.48 8.72
7/12/2021 7:30:00 AM 18.61 65.498 0.065 6.89 9.02 8.75
7/12/2021 7:45:00 AM 18.64 65.552 0.066 6.93 8.37 8.82
7/12/2021 8:00:00 AM 18.69 65.642 0.066 6.97 7.73 8.92
7/12/2021 8:15:00 AM 18.72 65.696 0.066 7.02 7.35 9.01
7/12/2021 8:30:00 AM 18.76 65.768 0.066 7.04 7.65 9.07
7/12/2021 8:45:00 AM 18.77 65.786 0.066 7.01 7.31 9.07
7/12/2021 9:00:00 AM 18.87 65.966 0.066 7.07 6.63 9.14
7/12/2021 9:15:00 AM 18.89 66.002 0.066 7.09 5.82 9.19
7/12/2021 9:30:00 AM 18.97 66.146 0.066 7.13 5.85 9.25
7/12/2021 9:45:00 AM 19.08 66.344 0.066 7.16 5.67 9.34
7/12/2021 10:00:00 AM 19.14 66.452 0.066 7.21 5.58 9.36
7/12/2021 10:15:00 AM 19.19 66.542 0.065 7.22 5.46 9.37
7/12/2021 10:30:00 AM 19.34 66.812 0.066 7.23 5.02 9.41
7/12/2021 10:45:00 AM 19.42 66.956 0.066 7.29 5.04 9.46
7/12/2021 11:00:00 AM 19.62 67.316 0.065 7.32 4.69 9.5
7/12/2021 11:15:00 AM 19.72 67.496 0.065 7.37 4.9 9.52
7/12/2021 11:30:00 AM 19.94 67.892 0.065 7.36 4.55 9.56
7/12/2021 11:45:00 AM 20.04 68.07201 0.065 7.43 4.47 9.52
7/12/2021 12:00:00 PM 20.18 68.324 0.065 7.43 4.03 9.53
7/12/2021 12:15:00 PM 20.33 68.594 0.065 7.46 4.02 9.52
7/12/2021 12:30:00 PM 20.36 68.648 0.065 7.45 3.95 9.46
7/12/2021 12:45:00 PM 20.45 68.81 0.065 7.49 3.83 9.47
7/12/2021 1:00:00 PM 20.56 69.008 0.065 7.51 3.64 9.48
7/12/2021 1:15:00 PM 20.84 69.512 0.065 7.56 3.48 9.49
7/12/2021 1:30:00 PM 20.86 69.548 0.065 7.51 3.52 9.33
7/12/2021 1:45:00 PM 21.07 69.926 0.076 7.68 45.45 9.06
7/12/2021 2:00:00 PM 21.29 70.32201 0.065 7.47 4.27 9.16
7/12/2021 2:15:00 PM 21.55 70.79 0.064 7.5 3.71 9.23
7/12/2021 2:30:00 PM 21.46 70.628 0.064 7.5 3.43 9.15
7/12/2021 2:45:00 PM 21.48 70.664 0.065 7.44 3.37 9.12
7/12/2021 3:00:00 PM 21.68 71.024 0.064 7.49 3.03 9.13
7/12/2021 3:15:00 PM 21.83 71.294 0.064 7.46 3.34 9.13
7/12/2021 3:30:00 PM 21.84 71.312 0.064 7.5 3.3 9.08
7/12/2021 3:45:00 PM 21.86 71.348 0.064 7.47 3.62 9.01
7/12/2021 4:00:00 PM 21.87 71.366 0.064 7.4 3.45 8.89
7/12/2021 4:15:00 PM 22.15 71.87 0.068 7.64 59.42 8.7
7/12/2021 4:30:00 PM 22.14 71.852 0.064 7.38 10.25 8.8
7/12/2021 4:45:00 PM 22.18 71.924 0.063 7.32 6.97 8.82
7/12/2021 5:00:00 PM 22.27 72.086 0.063 7.35 5.21 8.83
7/12/2021 5:15:00 PM 22.21 71.978 0.064 7.31 5.84 8.74
7/12/2021 5:30:00 PM 22.21 71.978 0.066 7.26 16.33 8.55
7/12/2021 5:45:00 PM 22.2 71.96 0.063 7.19 15.86 8.42
7/12/2021 6:00:00 PM 22.17 71.906 0.063 7.12 12.48 8.39
7/12/2021 6:15:00 PM 22.14 71.852 0.063 7.1 11.61 8.42
7/12/2021 6:30:00 PM 22.09 71.762 0.064 7.08 12.33 8.39
7/12/2021 6:45:00 PM 22 71.6 0.065 7.01 16.14 8.3
7/12/2021 7:00:00 PM 21.88 71.384 0.065 6.96 24.16 8.27
7/12/2021 7:15:00 PM 21.75 71.15 0.066 6.94 32.15 8.26
7/12/2021 7:30:00 PM 21.68 71.024 0.069 6.93 37.17 8.24
7/12/2021 7:45:00 PM 21.61 70.898 0.069 6.94 44 8.22
7/12/2021 8:00:00 PM 21.52 70.736 0.068 6.92 38.72 8.2
7/12/2021 8:15:00 PM 21.43 70.574 0.068 6.93 39.59 8.2
7/12/2021 8:30:00 PM 21.32 70.376 0.068 6.96 37.69 8.2
7/12/2021 8:45:00 PM 21.22 70.196 0.068 6.94 34.86 8.2
7/12/2021 9:00:00 PM 21.12 70.016 0.069 6.88 36.53 8.21
7/12/2021 9:15:00 PM 21.05 69.89 0.068 6.88 29.99 8.23
7/12/2021 9:30:00 PM 21.01 69.818 0.067 6.9 33.33 8.24
7/12/2021 9:45:00 PM 20.95 69.71 0.068 6.9 33.24 8.26
7/12/2021 10:00:00 PM 20.85 69.53 0.073 6.97 46.57 8.29
7/12/2021 10:15:00 PM 20.71 69.278 0.074 6.98 47.62 8.33
7/12/2021 10:30:00 PM 20.48 68.864 0.075 6.95 44.94 8.39
7/12/2021 10:45:00 PM 20.26 68.468 0.078 6.92 55.65 8.43
7/12/2021 11:00:00 PM 20.07 68.126 0.08 6.93 66.29 8.47
7/12/2021 11:15:00 PM 19.92 67.856 0.081 6.91 67.08 8.5
7/12/2021 11:30:00 PM 19.78 67.604 0.078 6.87 75.11 8.53
7/12/2021 11:45:00 PM 19.7 67.46 0.073 6.89 81.72 8.55
7/13/2021 12:00:00 AM 19.61 67.298 0.072 6.87 86.62 8.57
7/13/2021 12:15:00 AM 19.54 67.172 0.07 6.95 92.53 8.58
7/13/2021 12:30:00 AM 19.46 67.028 0.07 6.94 67.77 8.6
7/13/2021 12:45:00 AM 19.39 66.902 0.069 6.94 75.44 8.61
7/13/2021 1:00:00 AM 19.31 66.758 0.068 6.94 67.98 8.63
7/13/2021 1:15:00 AM 19.23 66.614 0.067 6.94 67.81 8.65
7/13/2021 1:30:00 AM 19.14 66.452 0.067 6.93 56.83 8.67
7/13/2021 1:45:00 AM 19.06 66.308 0.067 6.92 58.42 8.69
7/13/2021 2:00:00 AM 18.99 66.182 0.067 6.92 52.96 8.7
7/13/2021 2:15:00 AM 18.92 66.056 0.067 6.86 48.17 8.71
7/13/2021 2:30:00 AM 18.85 65.93 0.067 6.91 37.13 8.73
7/13/2021 2:45:00 AM 18.79 65.82201 0.067 6.85 39.49 8.74
7/13/2021 3:00:00 AM 18.73 65.714 0.068 6.89 36.49 8.76
7/13/2021 3:15:00 AM 18.67 65.606 0.068 6.94 32.65 8.77
7/13/2021 3:30:00 AM 18.61 65.498 0.068 6.91 31.29 8.78
7/13/2021 3:45:00 AM 18.56 65.408 0.068 6.93 29.16 8.79
7/13/2021 4:00:00 AM 18.51 65.318 0.069 6.94 27.36 8.81
7/13/2021 4:15:00 AM 18.46 65.228 0.069 6.93 25.72 8.82
7/13/2021 4:30:00 AM 18.41 65.138 0.069 6.9 23.72 8.83
7/13/2021 4:45:00 AM 18.37 65.066 0.069 6.95 23.09 8.84
7/13/2021 5:00:00 AM 18.32 64.976 0.07 6.91 22.22 8.85
7/13/2021 5:15:00 AM 18.28 64.904 0.07 6.94 21.31 8.85
7/13/2021 5:30:00 AM 18.25 64.85 0.07 6.94 21.11 8.87
7/13/2021 5:45:00 AM 18.21 64.778 0.07 6.96 21.13 8.87
7/13/2021 6:00:00 AM 18.18 64.724 0.07 6.95 19.72 8.88
7/13/2021 6:15:00 AM 18.14 64.652 0.07 6.95 19.23 8.89
7/13/2021 6:30:00 AM 18.11 64.598 0.07 6.95 18.55 8.91
7/13/2021 6:45:00 AM 18.09 64.562 0.07 6.96 17.53 8.93
7/13/2021 7:00:00 AM 18.07 64.526 0.07 6.98 16.92 8.95
7/13/2021 7:15:00 AM 18.05 64.49 0.07 6.99 15.7 8.97
7/13/2021 7:30:00 AM 18.02 64.436 0.07 6.99 15.31 8.97
7/13/2021 7:45:00 AM 18 64.4 0.07 6.99 14.67 8.97
7/13/2021 8:00:00 AM 17.98 64.364 0.07 6.95 14.51 8.97
7/13/2021 8:15:00 AM 17.96 64.328 0.07 6.97 13.25 8.99
7/13/2021 8:30:00 AM 17.95 64.31 0.07 7.01 13 9.04
7/13/2021 8:45:00 AM 17.95 64.31 0.07 7.02 12.54 9.08
7/13/2021 9:00:00 AM 17.97 64.346 0.07 7 12.37 9.14
7/13/2021 9:15:00 AM 18 64.4 0.07 7.05 12.04 9.2
7/13/2021 9:30:00 AM 18.05 64.49 0.07 7.05 11.67 9.27
7/13/2021 9:45:00 AM 18.11 64.598 0.069 7.07 11.6 9.31
7/13/2021 10:00:00 AM 18.18 64.724 0.07 7.08 10.9 9.34
7/13/2021 10:15:00 AM 18.25 64.85 0.069 7.11 10.88 9.38
7/13/2021 10:30:00 AM 18.36 65.048 0.069 7.15 10.12 9.42
7/13/2021 10:45:00 AM 18.5 65.3 0.069 7.13 9.98 9.45
7/13/2021 11:00:00 AM 18.64 65.552 0.069 7.19 10.22 9.48
7/13/2021 11:15:00 AM 18.83 65.894 0.069 7.21 10.82 9.49
7/13/2021 11:30:00 AM 19 66.2 0.069 7.22 10.41 9.5
7/13/2021 11:45:00 AM 19.13 66.434 0.069 7.23 9.33 9.49
7/13/2021 12:00:00 PM 19.25 66.65 0.069 7.24 9.55 9.45
7/13/2021 12:15:00 PM 19.48 67.064 0.069 7.28 9.48 9.45
7/13/2021 12:30:00 PM 19.73 67.514 0.069 7.31 8.95 9.45
7/13/2021 12:45:00 PM 19.84 67.712 0.069 7.3 8.66 9.4
7/13/2021 1:00:00 PM 20.1 68.18 0.069 7.33 8.26 9.39
7/13/2021 1:15:00 PM 20.28 68.504 0.069 7.29 7.94 9.36
7/13/2021 1:30:00 PM 20.48 68.864 0.069 7.33 7.99 9.33
7/13/2021 1:45:00 PM 20.74 69.332 0.068 7.37 7.77 9.31
7/13/2021 2:00:00 PM 20.87 69.566 0.068 7.3 7.38 9.21
7/13/2021 2:15:00 PM 21.2 70.16 0.068 7.38 7.06 9.21
7/13/2021 2:30:00 PM 21.39 70.502 0.069 7.34 7.09 9.18
7/13/2021 2:45:00 PM 21.61 70.898 0.068 7.4 6.69 9.18
7/13/2021 3:00:00 PM 21.65 70.97 0.068 7.38 6.61 9.13
7/13/2021 3:15:00 PM 21.78 71.204 0.068 7.35 6.79 9.12
7/13/2021 3:30:00 PM 21.89 71.402 0.068 7.37 6.75 9.08
7/13/2021 3:45:00 PM 22.03 71.654 0.069 7.39 6.29 9.05
7/13/2021 4:00:00 PM 22.18 71.924 0.068 7.37 6.13 9.02
7/13/2021 4:15:00 PM 22.27 72.086 0.068 7.38 6.13 8.97
7/13/2021 4:30:00 PM 22.32 72.176 0.068 7.36 5.93 8.92
7/13/2021 4:45:00 PM 22.37 72.266 0.068 7.35 5.79 8.87
7/13/2021 5:00:00 PM 22.33 72.194 0.069 7.32 6.08 8.8
7/13/2021 5:15:00 PM 22.34 72.212 0.069 7.29 6.2 8.78
7/13/2021 5:30:00 PM 22.35 72.23 0.069 7.28 6.31 8.73
7/13/2021 5:45:00 PM 22.35 72.23 0.069 7.27 6.26 8.69
7/13/2021 6:00:00 PM 22.34 72.212 0.069 7.25 6.03 8.65
7/13/2021 6:15:00 PM 22.32 72.176 0.069 7.2 5.89 8.62
7/13/2021 6:30:00 PM 22.24 72.032 0.069 7.2 6.03 8.54
7/13/2021 6:45:00 PM 22.13 71.834 0.069 7.13 5.97 8.42
7/13/2021 7:00:00 PM 21.98 71.564 0.068 7.08 10.04 8.36
7/13/2021 7:15:00 PM 21.84 71.312 0.067 7.03 8.31 8.29
7/13/2021 7:30:00 PM 21.71 71.078 0.067 6.98 7.28 8.25
7/13/2021 7:45:00 PM 21.59 70.862 0.068 6.99 7.67 8.22
7/13/2021 8:00:00 PM 21.46 70.628 0.068 6.98 7.46 8.22
7/13/2021 8:15:00 PM 21.32 70.376 0.068 6.97 7.19 8.23
7/13/2021 8:30:00 PM 21.18 70.124 0.068 6.96 7.17 8.27
7/13/2021 8:45:00 PM 21.05 69.89 0.068 6.96 7.58 8.29
7/13/2021 9:00:00 PM 20.93 69.674 0.068 6.91 8.91 8.31
7/13/2021 9:15:00 PM 20.82 69.476 0.068 6.95 9.34 8.31
7/13/2021 9:30:00 PM 20.7 69.26 0.068 6.91 9.58 8.32
7/13/2021 9:45:00 PM 20.57 69.026 0.069 6.93 9.09 8.35
7/13/2021 10:00:00 PM 20.45 68.81 0.069 6.95 8.83 8.37
7/13/2021 10:15:00 PM 20.33 68.594 0.069 6.95 8.57 8.39
7/13/2021 10:30:00 PM 20.21 68.378 0.069 6.92 8.71 8.42
7/13/2021 10:45:00 PM 20.09 68.162 0.069 6.92 8.43 8.44
7/13/2021 11:00:00 PM 19.98 67.964 0.069 6.94 8.06 8.47
7/13/2021 11:15:00 PM 19.87 67.766 0.069 6.95 7.96 8.5
7/13/2021 11:30:00 PM 19.77 67.586 0.068 6.95 7.82 8.53
7/13/2021 11:45:00 PM 19.67 67.406 0.068 6.91 8.04 8.55
7/14/2021 12:00:00 AM 19.58 67.244 0.068 6.95 7.61 8.56
7/14/2021 12:15:00 AM 19.48 67.064 0.068 6.9 7.56 8.58
7/14/2021 12:30:00 AM 19.4 66.92 0.068 6.95 7.88 8.59
7/14/2021 12:45:00 AM 19.31 66.758 0.068 6.92 7.7 8.61
7/14/2021 1:00:00 AM 19.22 66.596 0.068 6.89 7.97 8.62
7/14/2021 1:15:00 AM 19.13 66.434 0.068 6.94 8 8.65
7/14/2021 1:30:00 AM 19.06 66.308 0.068 6.94 7.83 8.66
7/14/2021 1:45:00 AM 18.98 66.164 0.068 6.94 7.72 8.68
7/14/2021 2:00:00 AM 18.89 66.002 0.069 6.89 7.89 8.69
7/14/2021 2:15:00 AM 18.81 65.858 0.069 6.93 8.87 8.71
7/14/2021 2:30:00 AM 18.74 65.732 0.068 6.94 10.43 8.73
7/14/2021 2:45:00 AM 18.66 65.588 0.069 6.94 10.89 8.74
7/14/2021 3:00:00 AM 18.6 65.48 0.069 6.94 10.81 8.76
7/14/2021 3:15:00 AM 18.54 65.372 0.069 6.89 10.76 8.77
7/14/2021 3:30:00 AM 18.48 65.264 0.069 6.91 10.11 8.78
7/14/2021 3:45:00 AM 18.42 65.156 0.069 6.94 9.56 8.8
7/14/2021 4:00:00 AM 18.36 65.048 0.069 6.94 8.74 8.81
7/14/2021 4:15:00 AM 18.31 64.958 0.069 6.91 8.48 8.82
7/14/2021 4:30:00 AM 18.26 64.868 0.069 6.95 8.32 8.83
7/14/2021 4:45:00 AM 18.21 64.778 0.07 6.96 8.03 8.83
7/14/2021 5:00:00 AM 18.17 64.706 0.07 6.9 7.51 8.84
7/14/2021 5:15:00 AM 18.14 64.652 0.07 6.95 7.47 8.86
7/14/2021 5:30:00 AM 18.1 64.58 0.069 6.95 7.35 8.86
7/14/2021 5:45:00 AM 18.06 64.508 0.069 6.95 7.14 8.87
7/14/2021 6:00:00 AM 18.03 64.454 0.069 6.91 6.72 8.88
7/14/2021 6:15:00 AM 18 64.4 0.07 6.95 6.88 8.89
7/14/2021 6:30:00 AM 17.96 64.328 0.07 6.92 6.37 8.91
7/14/2021 6:45:00 AM 17.93 64.274 0.069 6.94 6.42 8.92
7/14/2021 7:00:00 AM 17.91 64.238 0.069 6.96 6.15 8.95
7/14/2021 7:15:00 AM 17.88 64.184 0.069 6.97 5.91 8.97
7/14/2021 7:30:00 AM 17.86 64.148 0.069 6.95 5.68 9
7/14/2021 7:45:00 AM 17.84 64.112 0.069 6.97 5.57 9.03
7/14/2021 8:00:00 AM 17.83 64.094 0.069 6.98 5.56 9.05
7/14/2021 8:15:00 AM 17.83 64.094 0.07 6.94 5.2 9.11
7/14/2021 8:30:00 AM 17.83 64.094 0.069 6.97 5.23 9.16
7/14/2021 8:45:00 AM 17.84 64.112 0.069 7.02 4.87 9.23
7/14/2021 9:00:00 AM 17.84 64.112 0.069 7.02 4.78 9.25
7/14/2021 9:15:00 AM 17.85 64.13 0.069 7.04 4.73 9.27
7/14/2021 9:30:00 AM 17.85 64.13 0.069 7.02 6 9.25
7/14/2021 9:45:00 AM 17.87 64.166 0.069 7.07 4.44 9.31
7/14/2021 10:00:00 AM 17.9 64.22 0.069 7.08 4.02 9.38
7/14/2021 10:15:00 AM 17.94 64.292 0.069 7.12 4 9.45
7/14/2021 10:30:00 AM 18 64.4 0.069 7.12 3.81 9.54
7/14/2021 10:45:00 AM 18.15 64.67 0.069 7.21 4 9.63
7/14/2021 11:00:00 AM 18.26 64.868 0.069 7.24 3.8 9.67
7/14/2021 11:15:00 AM 18.39 65.102 0.069 7.25 3.94 9.72
7/14/2021 11:30:00 AM 18.57 65.426 0.068 7.3 3.55 9.72
7/14/2021 11:45:00 AM 18.88 65.984 0.069 7.35 3.73 9.74
7/14/2021 12:00:00 PM 19.15 66.47 0.068 7.38 3.61 9.74
7/14/2021 12:15:00 PM 19.31 66.758 0.068 7.39 3.48 9.7
7/14/2021 12:30:00 PM 19.58 67.244 0.068 7.42 3.36 9.72
7/14/2021 12:45:00 PM 19.73 67.514 0.068 7.42 3.51 9.69
7/14/2021 1:00:00 PM 19.96 67.92799 0.068 7.46 3.34 9.66
7/14/2021 1:15:00 PM 20.08 68.144 0.068 7.46 3.33 9.63
7/14/2021 1:30:00 PM 20.13 68.234 0.068 7.46 3.28 9.61
7/14/2021 1:45:00 PM 20.34 68.612 0.068 7.47 3.24 9.57
7/14/2021 2:00:00 PM 20.57 69.026 0.068 7.5 3.28 9.59
7/14/2021 2:15:00 PM 20.64 69.152 0.068 7.49 3.26 9.52
7/14/2021 2:30:00 PM 20.81 69.458 0.068 7.49 3.39 9.5
7/14/2021 2:45:00 PM 21.07 69.926 0.068 7.49 3.08 9.48
7/14/2021 3:00:00 PM 21.2 70.16 0.068 7.52 3.06 9.41
7/14/2021 3:15:00 PM 21.36 70.448 0.068 7.5 3.02 9.38
7/14/2021 3:30:00 PM 21.53 70.754 0.068 7.52 2.92 9.34
7/14/2021 3:45:00 PM 21.72 71.096 0.068 7.52 3.03 9.33
7/14/2021 4:00:00 PM 21.82 71.276 0.068 7.52 3 9.29
7/14/2021 4:15:00 PM 21.9 71.42 0.068 7.51 2.76 9.24
7/14/2021 4:30:00 PM 21.8 71.24 0.068 7.44 2.66 9.12
7/14/2021 4:45:00 PM 21.83 71.294 0.068 7.41 2.8 9.1
7/14/2021 5:00:00 PM 21.87 71.366 0.068 7.43 2.98 9.08
7/14/2021 5:15:00 PM 21.91 71.438 0.068 7.43 3.01 9.06
7/14/2021 5:30:00 PM 21.95 71.51 0.068 7.37 2.84 9.02
7/14/2021 5:45:00 PM 21.93 71.474 0.068 7.39 3.12 8.96
7/14/2021 6:00:00 PM 21.89 71.402 0.068 7.32 3.19 8.91
7/14/2021 6:15:00 PM 21.84 71.312 0.068 7.31 2.96 8.86
7/14/2021 6:30:00 PM 21.78 71.204 0.068 7.3 2.95 8.83
7/14/2021 6:45:00 PM 21.72 71.096 0.068 7.24 3.03 8.79
7/14/2021 7:00:00 PM 21.64 70.952 0.069 7.21 2.97 8.72
7/14/2021 7:15:00 PM 21.57 70.826 0.069 7.2 2.99 8.67
7/14/2021 7:30:00 PM 21.48 70.664 0.069 7.16 2.93 8.61
7/14/2021 7:45:00 PM 21.38 70.484 0.069 7.14 3.07 8.56
7/14/2021 8:00:00 PM 21.28 70.304 0.069 7.09 3.16 8.51
7/14/2021 8:15:00 PM 21.18 70.124 0.069 7.05 3.15 8.47
7/14/2021 8:30:00 PM 21.07 69.926 0.069 7.03 3.2 8.44
7/14/2021 8:45:00 PM 20.97 69.746 0.069 7.03 11.27 8.41
7/14/2021 9:00:00 PM 20.85 69.53 0.069 7 3.02 8.38
7/14/2021 9:15:00 PM 20.74 69.332 0.069 6.97 3.38 8.36
7/14/2021 9:30:00 PM 20.63 69.134 0.07 6.97 3.29 8.36
7/14/2021 9:45:00 PM 20.52 68.936 0.07 6.95 3.71 8.36
7/14/2021 10:00:00 PM 20.41 68.738 0.07 6.95 3.58 8.37
7/14/2021 10:15:00 PM 20.31 68.558 0.07 6.97 3.63 8.37
7/14/2021 10:30:00 PM 20.21 68.378 0.07 6.97 3.29 8.39
7/14/2021 10:45:00 PM 20.1 68.18 0.07 6.94 3.28 8.41
7/14/2021 11:00:00 PM 20 68 0.07 6.96 3.3 8.42
7/14/2021 11:15:00 PM 19.9 67.82 0.07 6.98 3.36 8.44
7/14/2021 11:30:00 PM 19.8 67.64 0.07 6.96 3.8 8.46
7/14/2021 11:45:00 PM 19.69 67.442 0.07 6.94 4.31 8.48
7/15/2021 12:00:00 AM 19.59 67.262 0.07 6.93 3.92 8.5
7/15/2021 12:15:00 AM 19.5 67.1 0.07 6.94 3.77 8.52
7/15/2021 12:30:00 AM 19.4 66.92 0.07 6.95 4.24 8.54
7/15/2021 12:45:00 AM 19.31 66.758 0.07 6.93 4.65 8.57
7/15/2021 1:00:00 AM 19.22 66.596 0.071 6.92 3.98 8.58
7/15/2021 1:15:00 AM 19.13 66.434 0.071 6.93 3.44 8.6
7/15/2021 1:30:00 AM 19.05 66.29 0.071 6.96 3.14 8.61
7/15/2021 1:45:00 AM 18.97 66.146 0.071 6.94 3.38 8.63
7/15/2021 2:00:00 AM 18.89 66.002 0.071 6.91 3.33 8.65
7/15/2021 2:15:00 AM 18.83 65.894 0.071 6.93 4.21 8.67
7/15/2021 2:30:00 AM 18.76 65.768 0.071 6.95 4.2 8.68
7/15/2021 2:45:00 AM 18.68 65.624 0.071 6.94 4 8.7
7/15/2021 3:00:00 AM 18.62 65.516 0.071 6.93 3.57 8.71
7/15/2021 3:15:00 AM 18.55 65.39 0.071 6.96 3.95 8.72
7/15/2021 3:30:00 AM 18.49 65.282 0.071 6.94 4.34 8.74
7/15/2021 3:45:00 AM 18.43 65.174 0.071 6.96 3.11 8.75
7/15/2021 4:00:00 AM 18.37 65.066 0.071 6.97 2.95 8.76
7/15/2021 4:15:00 AM 18.32 64.976 0.071 6.98 3.82 8.77
7/15/2021 4:30:00 AM 18.26 64.868 0.071 6.92 3 8.78
7/15/2021 4:45:00 AM 18.2 64.76 0.071 6.95 3.96 8.79
7/15/2021 5:00:00 AM 18.15 64.67 0.071 6.97 2.82 8.8
7/15/2021 5:15:00 AM 18.09 64.562 0.071 6.97 3.46 8.81
7/15/2021 5:30:00 AM 18.04 64.472 0.071 6.98 2.96 8.83
7/15/2021 5:45:00 AM 18 64.4 0.071 6.98 3.59 8.84
7/15/2021 6:00:00 AM 17.95 64.31 0.071 6.92 3.43 8.85
7/15/2021 6:15:00 AM 17.9 64.22 0.071 6.97 3.65 8.87
7/15/2021 6:30:00 AM 17.86 64.148 0.071 6.98 3.4 8.9
7/15/2021 6:45:00 AM 17.82 64.076 0.071 6.98 3.03 8.93
7/15/2021 7:00:00 AM 17.79 64.022 0.071 6.99 3.42 8.96
7/15/2021 7:15:00 AM 17.76 63.968 0.071 6.99 2.85 8.99
7/15/2021 7:30:00 AM 17.74 63.932 0.071 7.02 3.04 9.05
7/15/2021 7:45:00 AM 17.72 63.896 0.071 7 2.89 9.1
7/15/2021 8:00:00 AM 17.71 63.878 0.07 7.01 2.82 9.17
7/15/2021 8:15:00 AM 17.71 63.878 0.071 7.07 2.57 9.25
7/15/2021 8:30:00 AM 17.72 63.896 0.07 7.08 3.35 9.32
7/15/2021 8:45:00 AM 17.74 63.932 0.07 7.1 141.59 9.41
7/15/2021 9:00:00 AM 17.78 64.004 0.07 7.15 4.76 9.52
7/15/2021 9:15:00 AM 17.85 64.13 0.07 7.18 2.45 9.62
7/15/2021 9:30:00 AM 17.94 64.292 0.07 7.22 1.99 9.7
7/15/2021 9:45:00 AM 18.05 64.49 0.07 7.21 3.73 9.72
7/15/2021 10:00:00 AM 18.19 64.742 0.07 7.28 2.05 9.75
7/15/2021 10:15:00 AM 18.31 64.958 0.069 7.29 3.27 9.78
7/15/2021 10:30:00 AM 18.49 65.282 0.07 7.32 5.77 9.82
7/15/2021 10:45:00 AM 18.68 65.624 0.069 7.36 2.31 9.85
7/15/2021 11:00:00 AM 18.85 65.93 0.069 7.38 2.92 9.85
7/15/2021 11:15:00 AM 18.96 66.128 0.069 7.41 4.09 9.85
7/15/2021 11:30:00 AM 19.15 66.47 0.069 7.44 4.41 9.87
7/15/2021 11:45:00 AM 19.09 66.362 0.069 7.4 4.47 9.77
7/15/2021 12:00:00 PM 19.34 66.812 0.069 7.43 3.33 9.79
7/15/2021 12:15:00 PM 19.52 67.136 0.069 7.5 3.59 9.82
7/15/2021 12:30:00 PM 19.75 67.55 0.069 7.55 2.73 9.85
7/15/2021 12:45:00 PM 19.71 67.478 0.069 7.48 2.19 9.75
7/15/2021 1:00:00 PM 19.78 67.604 0.069 7.52 2.22 9.77
7/15/2021 1:15:00 PM 19.88 67.784 0.069 7.57 5.58 9.78
7/15/2021 1:30:00 PM 20 68 0.069 7.61 6.17 9.78
7/15/2021 1:45:00 PM 20.37 68.666 0.069 7.66 7.65 9.81
7/15/2021 2:00:00 PM 20.55 68.99 0.069 7.71 7.44 9.78
7/15/2021 2:15:00 PM 20.58 69.044 0.068 7.62 5.56 9.66
7/15/2021 2:30:00 PM 20.71 69.278 0.068 7.62 4.37 9.58
7/15/2021 2:45:00 PM 20.87 69.566 0.068 7.62 3.73 9.58
7/15/2021 3:00:00 PM 21.07 69.926 0.068 7.7 2.61 9.64
7/15/2021 3:15:00 PM 21.25 70.25 0.068 7.74 2.9 9.65
7/15/2021 3:30:00 PM 21.28 70.304 0.068 7.76 2.57 9.62
7/15/2021 3:45:00 PM 21.34 70.412 0.068 7.72 2.33 9.56
7/15/2021 4:00:00 PM 21.43 70.574 0.068 7.71 1.94 9.52
7/15/2021 4:15:00 PM 21.57 70.826 0.068 7.69 2.44 9.49
7/15/2021 4:30:00 PM 21.6 70.88 0.068 7.71 2.48 9.45
7/15/2021 4:45:00 PM 21.69 71.042 0.068 7.7 2.97 9.41
7/15/2021 5:00:00 PM 21.74 71.132 0.068 7.64 3.43 9.35
7/15/2021 5:15:00 PM 21.77 71.186 0.068 7.62 4.36 9.29
7/15/2021 5:30:00 PM 21.86 71.348 0.068 7.63 4.25 9.28
7/15/2021 5:45:00 PM 21.86 71.348 0.068 7.62 4.98 9.22
7/15/2021 6:00:00 PM 21.87 71.366 0.068 7.55 4.29 9.1
7/15/2021 6:15:00 PM 21.86 71.348 0.068 7.47 5.17 8.98
7/15/2021 6:30:00 PM 21.81 71.258 0.068 7.42 3.79 8.9
7/15/2021 6:45:00 PM 21.75 71.15 0.069 7.37 3.59 8.8
7/15/2021 7:00:00 PM 21.73 71.114 0.069 7.33 3.02 8.76
7/15/2021 7:15:00 PM 21.71 71.078 0.069 7.31 2.53 8.74
7/15/2021 7:30:00 PM 21.66 70.988 0.069 7.29 2.74 8.68
7/15/2021 7:45:00 PM 21.61 70.898 0.069 7.26 2.61 8.6
7/15/2021 8:00:00 PM 21.54 70.772 0.069 7.17 2.47 8.52
7/15/2021 8:15:00 PM 21.45 70.61 0.069 7.17 2.38 8.44
7/15/2021 8:30:00 PM 21.37 70.466 0.07 7.09 2.19 8.36
7/15/2021 8:45:00 PM 21.28 70.304 0.07 7.07 2.23 8.3
7/15/2021 9:00:00 PM 21.19 70.142 0.07 7.04 2.37 8.25
7/15/2021 9:15:00 PM 21.1 69.98 0.07 7.03 2.49 8.21
7/15/2021 9:30:00 PM 21.01 69.818 0.071 7.03 2.6 8.2
7/15/2021 9:45:00 PM 20.92 69.656 0.071 7.02 2.61 8.18
7/15/2021 10:00:00 PM 20.83 69.494 0.071 6.98 2.82 8.18
7/15/2021 10:15:00 PM 20.73 69.314 0.071 6.99 2.98 8.19
7/15/2021 10:30:00 PM 20.64 69.152 0.071 6.97 2.89 8.2
7/15/2021 10:45:00 PM 20.56 69.008 0.071 6.97 2.85 8.21
7/15/2021 11:00:00 PM 20.47 68.846 0.071 6.95 2.64 8.22
7/15/2021 11:15:00 PM 20.38 68.684 0.071 6.99 2.63 8.23
7/15/2021 11:30:00 PM 20.3 68.54 0.071 6.98 2.26 8.25
7/15/2021 11:45:00 PM 20.22 68.396 0.072 6.97 2.39 8.27
7/16/2021 12:00:00 AM 20.14 68.252 0.072 6.97 2.12 8.28
7/16/2021 12:15:00 AM 20.07 68.126 0.072 6.96 2.56 8.3
7/16/2021 12:30:00 AM 20 68 0.072 6.95 2.36 8.31
7/16/2021 12:45:00 AM 19.93 67.874 0.072 6.97 2.1 8.33
7/16/2021 1:00:00 AM 19.85 67.73 0.072 6.98 2.2 8.34
7/16/2021 1:15:00 AM 19.78 67.604 0.072 6.94 2.16 8.36
7/16/2021 1:30:00 AM 19.71 67.478 0.072 6.98 2.26 8.37
7/16/2021 1:45:00 AM 19.64 67.352 0.072 6.99 2.29 8.38
7/16/2021 2:00:00 AM 19.57 67.226 0.072 6.98 2.15 8.4
7/16/2021 2:15:00 AM 19.51 67.118 0.072 6.99 2.46 8.41
7/16/2021 2:30:00 AM 19.45 67.01 0.072 6.97 2.42 8.42
7/16/2021 2:45:00 AM 19.38 66.884 0.072 6.96 2.16 8.44
7/16/2021 3:00:00 AM 19.32 66.776 0.073 6.99 2.04 8.45
7/16/2021 3:15:00 AM 19.27 66.686 0.072 7 2.31 8.47
7/16/2021 3:30:00 AM 19.21 66.578 0.072 6.94 2.19 8.48
7/16/2021 3:45:00 AM 19.16 66.488 0.073 6.98 2.75 8.49
7/16/2021 4:00:00 AM 19.11 66.398 0.073 7 2.21 8.51
7/16/2021 4:15:00 AM 19.06 66.308 0.073 6.95 2.12 8.51
7/16/2021 4:30:00 AM 19.01 66.218 0.073 7.01 2.14 8.53
7/16/2021 4:45:00 AM 18.96 66.128 0.073 7 2.19 8.53
7/16/2021 5:00:00 AM 18.91 66.038 0.073 6.98 2.07 8.54
7/16/2021 5:15:00 AM 18.86 65.948 0.073 7 2.08 8.55
7/16/2021 5:30:00 AM 18.81 65.858 0.073 6.98 2.15 8.56
7/16/2021 5:45:00 AM 18.77 65.786 0.073 7 2.25 8.58
7/16/2021 6:00:00 AM 18.72 65.696 0.073 7 2.05 8.59
7/16/2021 6:15:00 AM 18.68 65.624 0.073 7.01 2.28 8.62
7/16/2021 6:30:00 AM 18.65 65.57 0.073 7.02 2.12 8.65
7/16/2021 6:45:00 AM 18.62 65.516 0.072 7.02 1.86 8.71
7/16/2021 7:00:00 AM 18.59 65.462 0.073 7.03 1.78 8.77
7/16/2021 7:15:00 AM 18.56 65.408 0.073 7 1.6 8.85
7/16/2021 7:30:00 AM 18.54 65.372 0.072 7.06 1.86 8.9
7/16/2021 7:45:00 AM 18.52 65.336 0.072 7.06 1.76 8.95
7/16/2021 8:00:00 AM 18.5 65.3 0.072 7.05 1.55 9
7/16/2021 8:15:00 AM 18.49 65.282 0.072 7.09 1.5 9.03
7/16/2021 8:30:00 AM 18.5 65.3 0.072 7.1 1.9 9.15
7/16/2021 8:45:00 AM 18.53 65.354 0.072 7.14 1.6 9.26
7/16/2021 9:00:00 AM 18.62 65.516 0.072 7.19 1.37 9.35
7/16/2021 9:15:00 AM 18.73 65.714 0.072 7.18 1.3 9.46
7/16/2021 9:30:00 AM 18.77 65.786 0.072 7.25 1.76 9.55
7/16/2021 9:45:00 AM 18.89 66.002 0.072 7.27 1.52 9.64
7/16/2021 10:00:00 AM 18.94 66.092 0.071 7.33 1.45 9.66
7/16/2021 10:15:00 AM 19.2 66.56 0.071 7.39 1.4 9.77
7/16/2021 10:30:00 AM 19.27 66.686 0.071 7.44 1.52 9.82
7/16/2021 10:45:00 AM 19.35 66.83 0.071 7.46 1.24 9.88
7/16